Provisional Data: Kitchen Creek near Huntington Mills, PA


Please select a monitoring station.
Please select start date.
Please select start date.

Toggle Unit: C/F Toggle Unit: C/F
Sample Time Temperature (C) Temperature (F) Specific Conductivity (mS/cm) pH   Turbidity (NTU+) DO (mg/L)
10/20/2020 12:00:00 AM 11.08 51.944 0.058 6.53 0.93 10.74
10/20/2020 12:15:00 AM 11.08 51.944 0.058 6.5 0.92 10.76
10/20/2020 12:30:00 AM 11.09 51.962 0.058 6.52 0.91 10.74
10/20/2020 12:45:00 AM 11.09 51.962 0.058 6.52 0.95 10.78
10/20/2020 1:00:00 AM 11.09 51.962 0.058 6.52 0.88 10.75
10/20/2020 1:15:00 AM 11.1 51.98 0.058 6.52 0.92 10.74
10/20/2020 1:30:00 AM 11.1 51.98 0.058 6.53 0.94 10.75
10/20/2020 1:45:00 AM 11.1 51.98 0.058 6.53 0.93 10.7
10/20/2020 2:00:00 AM 11.11 51.998 0.058 6.49 0.89 10.72
10/20/2020 2:15:00 AM 11.11 51.998 0.058 6.51 0.9 10.69
10/20/2020 2:30:00 AM 11.11 51.998 0.058 6.52 0.91 10.68
10/20/2020 2:45:00 AM 11.12 52.016 0.058 6.52 0.94 10.7
10/20/2020 3:00:00 AM 11.13 52.034 0.058 6.52 0.91 10.74
10/20/2020 3:15:00 AM 11.13 52.034 0.058 6.52 0.93 10.68
10/20/2020 3:30:00 AM 11.13 52.034 0.058 6.52 0.92 10.72
10/20/2020 3:45:00 AM 11.14 52.052 0.058 6.53 0.92 10.69
10/20/2020 4:00:00 AM 11.15 52.07 0.058 6.5 0.94 10.69
10/20/2020 4:15:00 AM 11.15 52.07 0.058 6.52 0.91 10.67
10/20/2020 4:30:00 AM 11.16 52.088 0.058 6.51 0.92 10.69
10/20/2020 4:45:00 AM 11.16 52.088 0.058 6.53 0.92 10.71
10/20/2020 5:00:00 AM 11.17 52.106 0.058 6.49 0.95 10.71
10/20/2020 5:15:00 AM 11.17 52.106 0.058 6.5 0.94 10.69
10/20/2020 5:30:00 AM 11.18 52.124 0.058 6.5 0.95 10.66
10/20/2020 5:45:00 AM 11.18 52.124 0.058 6.5 0.91 10.67
10/20/2020 6:00:00 AM 11.19 52.142 0.058 6.51 0.92 10.66
10/20/2020 6:15:00 AM 11.2 52.16 0.058 6.49 0.94 10.64
10/20/2020 6:30:00 AM 11.2 52.16 0.058 6.5 0.92 10.66
10/20/2020 6:45:00 AM 11.21 52.178 0.058 6.46 1.12 10.65
10/20/2020 7:00:00 AM 11.22 52.196 0.058 6.48 0.91 10.66
10/20/2020 7:15:00 AM 11.22 52.196 0.058 6.48 1.02 10.64
10/20/2020 7:30:00 AM 11.23 52.214 0.058 6.48 0.93 10.64
10/20/2020 7:45:00 AM 11.24 52.232 0.058 6.48 0.94 10.65
10/20/2020 8:00:00 AM 11.25 52.25 0.058 6.49 0.88 10.67
10/20/2020 8:15:00 AM 11.27 52.286 0.058 6.51 1.01 10.7
10/20/2020 8:30:00 AM 11.29 52.322 0.058 6.46 1.05 10.73
10/20/2020 8:45:00 AM 11.32 52.376 0.058 6.51 0.96 10.77
10/20/2020 9:00:00 AM 11.35 52.43 0.058 6.52 0.91 10.81
10/20/2020 9:15:00 AM 11.38 52.484 0.058 6.52 0.91 10.84
10/20/2020 9:30:00 AM 11.42 52.556 0.058 6.53 0.91 10.89
10/20/2020 9:45:00 AM 11.47 52.646 0.058 6.53 0.93 10.93
10/20/2020 10:00:00 AM 11.49 52.682 0.058 6.55 0.91 10.92
10/20/2020 10:15:00 AM 11.52 52.736 0.058 6.54 0.97 10.9
10/20/2020 10:30:00 AM 11.55 52.79 0.058 6.54 0.96 10.9
10/20/2020 10:45:00 AM 11.59 52.862 0.058 6.55 0.93 10.89
10/20/2020 11:00:00 AM 11.65 52.97 0.058 6.55 0.9 10.89
10/20/2020 11:15:00 AM 11.7 53.06 0.058 6.55 0.93 10.9
10/20/2020 11:30:00 AM 11.8 53.24 0.058 6.57 0.94 10.93
10/20/2020 11:45:00 AM 11.89 53.402 0.057 6.59 0.9 10.94
10/20/2020 12:00:00 PM 11.96 53.528 0.057 6.61 0.92 10.96
10/20/2020 12:15:00 PM 12.03 53.654 0.057 6.63 0.89 10.95
10/20/2020 12:30:00 PM 12.13 53.834 0.057 6.66 0.88 10.96
10/20/2020 12:45:00 PM 12.25 54.05 0.057 6.86 0.9 10.95
10/20/2020 1:00:00 PM 12.36 54.248 0.057 6.8 0.91 10.93
10/20/2020 1:15:00 PM 12.45 54.41 0.057 6.78 0.93 10.89
10/20/2020 1:30:00 PM 12.47 54.446 0.057 6.75 0.9 10.86
10/20/2020 1:45:00 PM 12.52 54.536 0.057 6.72 0.9 10.82
10/20/2020 2:00:00 PM 12.59 54.662 0.057 6.75 1.02 10.83
10/20/2020 2:15:00 PM 12.65 54.77 0.057 6.74 0.89 10.79
10/20/2020 2:30:00 PM 12.69 54.842 0.057 6.7 0.91 10.75
10/20/2020 2:45:00 PM 12.72 54.896 0.057 6.71 0.91 10.73
10/20/2020 3:00:00 PM 12.74 54.932 0.057 6.71 0.93 10.68
10/20/2020 3:15:00 PM 12.8 55.04 0.057 6.7 0.99 10.71
10/20/2020 3:30:00 PM 12.87 55.166 0.056 6.72 0.93 10.72
10/20/2020 3:45:00 PM 12.94 55.292 0.056 6.74 0.89 10.75
10/20/2020 4:00:00 PM 12.93 55.274 0.057 6.71 0.98 10.63
10/20/2020 4:15:00 PM 12.94 55.292 0.057 6.69 0.9 10.58
10/20/2020 4:30:00 PM 12.97 55.346 0.057 6.7 0.94 10.58
10/20/2020 4:45:00 PM 13.01 55.418 0.056 6.69 1.07 10.62
10/20/2020 5:00:00 PM 13 55.4 0.057 6.65 0.94 10.52
10/20/2020 5:15:00 PM 13 55.4 0.057 6.66 1.02 10.49
10/20/2020 5:30:00 PM 13 55.4 0.057 6.62 0.9 10.44
10/20/2020 5:45:00 PM 12.99 55.382 0.057 6.63 3.66 10.4
10/20/2020 6:00:00 PM 12.99 55.382 0.057 6.6 0.93 10.35
10/20/2020 6:15:00 PM 12.98 55.364 0.057 6.61 1.06 10.32
10/20/2020 6:30:00 PM 12.97 55.346 0.057 6.58 0.98 10.23
10/20/2020 6:45:00 PM 12.96 55.328 0.058 6.59 0.95 10.21
10/20/2020 7:00:00 PM 12.95 55.31 0.058 6.54 0.95 10.21
10/20/2020 7:15:00 PM 12.94 55.292 0.058 6.59 0.94 10.21
10/20/2020 7:30:00 PM 12.93 55.274 0.058 6.52 0.97 10.2
10/20/2020 7:45:00 PM 12.92 55.256 0.058 6.57 1 10.27
10/20/2020 8:00:00 PM 12.9 55.22 0.058 6.56 0.94 10.19
10/20/2020 8:15:00 PM 12.89 55.202 0.058 6.53 0.99 10.19
10/20/2020 8:30:00 PM 12.87 55.166 0.058 6.55 1.02 10.19
10/20/2020 8:45:00 PM 12.85 55.13 0.058 6.53 0.94 10.21
10/20/2020 9:00:00 PM 12.83 55.094 0.058 6.55 0.92 10.22
10/20/2020 9:15:00 PM 12.81 55.058 0.058 6.55 1 10.23
10/20/2020 9:30:00 PM 12.8 55.04 0.058 6.54 0.91 10.31
10/20/2020 9:45:00 PM 12.78 55.004 0.058 6.54 0.93 10.36
10/20/2020 10:00:00 PM 12.76 54.968 0.058 6.53 0.94 10.37
10/20/2020 10:15:00 PM 12.73 54.914 0.058 6.53 0.97 10.38
10/20/2020 10:30:00 PM 12.72 54.896 0.058 6.53 0.99 10.38
10/20/2020 10:45:00 PM 12.7 54.86 0.058 6.53 0.98 10.38
10/20/2020 11:00:00 PM 12.69 54.842 0.058 6.54 0.94 10.38
10/20/2020 11:15:00 PM 12.67 54.806 0.058 6.51 0.97 10.36
10/20/2020 11:30:00 PM 12.64 54.752 0.058 6.53 0.94 10.4
10/20/2020 11:45:00 PM 12.61 54.698 0.058 6.53 0.98 10.35
10/21/2020 12:00:00 AM 12.58 54.644 0.058 6.52 0.97 10.34
10/21/2020 12:15:00 AM 12.55 54.59 0.058 6.52 0.94 10.34
10/21/2020 12:30:00 AM 12.52 54.536 0.058 6.52 0.96 10.33
10/21/2020 12:45:00 AM 12.49 54.482 0.058 6.52 0.9 10.33
10/21/2020 1:00:00 AM 12.46 54.428 0.058 6.51 0.94 10.36
10/21/2020 1:15:00 AM 12.43 54.374 0.058 6.52 0.94 10.36
10/21/2020 1:30:00 AM 12.4 54.32 0.058 6.51 0.89 10.39
10/21/2020 1:45:00 AM 12.37 54.266 0.058 6.53 0.94 10.4
10/21/2020 2:00:00 AM 12.34 54.212 0.058 6.53 0.96 10.39
10/21/2020 2:15:00 AM 12.3 54.14 0.058 6.49 0.96 10.41
10/21/2020 2:30:00 AM 12.27 54.086 0.058 6.52 0.93 10.42
10/21/2020 2:45:00 AM 12.23 54.014 0.058 6.54 0.92 10.43
10/21/2020 3:00:00 AM 12.2 53.96 0.058 6.53 0.93 10.45
10/21/2020 3:15:00 AM 12.17 53.906 0.058 6.54 0.93 10.45
10/21/2020 3:30:00 AM 12.13 53.834 0.058 6.52 0.96 10.45
10/21/2020 3:45:00 AM 12.09 53.762 0.058 6.53 0.94 10.46
10/21/2020 4:00:00 AM 12.06 53.708 0.058 6.53 0.94 10.47
10/21/2020 4:15:00 AM 12.02 53.636 0.058 6.52 0.94 10.48
10/21/2020 4:30:00 AM 11.98 53.564 0.058 6.54 0.95 10.5
10/21/2020 4:45:00 AM 11.95 53.51 0.058 6.53 0.93 10.52
10/21/2020 5:00:00 AM 11.93 53.474 0.058 6.55 0.95 10.51
10/21/2020 5:15:00 AM 11.91 53.438 0.058 6.56 0.95 10.53
10/21/2020 5:30:00 AM 11.89 53.402 0.058 6.54 0.93 10.54
10/21/2020 5:45:00 AM 11.86 53.348 0.058 6.56 0.93 10.55
10/21/2020 6:00:00 AM 11.84 53.312 0.058 6.55 0.92 10.57
10/21/2020 6:15:00 AM 11.83 53.294 0.058 6.55 0.93 10.57
10/21/2020 6:30:00 AM 11.82 53.276 0.058 6.56 0.95 10.59
10/21/2020 6:45:00 AM 11.82 53.276 0.058 6.57 0.97 10.59
10/21/2020 7:00:00 AM 11.81 53.258 0.058 6.57 0.96 10.59
10/21/2020 7:15:00 AM 11.81 53.258 0.058 6.57 0.95 10.58
10/21/2020 7:30:00 AM 11.82 53.276 0.058 6.58 1.23 10.59
10/21/2020 7:45:00 AM 11.82 53.276 0.058 6.56 0.97 10.58
10/21/2020 8:00:00 AM 11.83 53.294 0.058 6.58 0.89 10.62
10/21/2020 8:15:00 AM 11.84 53.312 0.057 6.6 0.98 10.64
10/21/2020 8:30:00 AM 11.85 53.33 0.057 6.57 0.92 10.68
10/21/2020 8:45:00 AM 11.88 53.384 0.057 6.62 0.94 10.72
10/21/2020 9:00:00 AM 11.92 53.456 0.057 6.64 0.95 10.74
10/21/2020 9:15:00 AM 11.96 53.528 0.057 6.62 0.97 10.75
10/21/2020 9:30:00 AM 12.02 53.636 0.057 6.67 0.95 10.85
10/21/2020 9:45:00 AM 12.07 53.726 0.057 6.66 0.94 10.83
10/21/2020 10:00:00 AM 12.11 53.798 0.057 6.67 0.94 10.84
10/21/2020 10:15:00 AM 12.17 53.906 0.057 6.69 0.95 10.91
10/21/2020 10:30:00 AM 12.25 54.05 0.057 6.68 0.99 10.85
10/21/2020 10:45:00 AM 12.34 54.212 0.057 6.71 0.93 10.85
10/21/2020 11:00:00 AM 12.5 54.5 0.057 6.75 0.95 10.88
10/21/2020 11:15:00 AM 12.68 54.824 0.056 6.79 0.94 10.91
10/21/2020 11:30:00 AM 12.82 55.076 0.056 6.78 0.94 10.84
10/21/2020 11:45:00 AM 12.92 55.256 0.056 6.8 0.9 10.79
10/21/2020 12:00:00 PM 13 55.4 0.056 6.78 0.94 10.74
10/21/2020 12:15:00 PM 13.17 55.706 0.056 6.81 0.97 10.71
10/21/2020 12:30:00 PM 13.3 55.94 0.056 6.79 0.95 10.67
10/21/2020 12:45:00 PM 13.45 56.21 0.056 6.82 0.93 10.61
10/21/2020 1:00:00 PM 13.62 56.516 0.056 6.78 0.95 10.55
10/21/2020 1:15:00 PM 13.75 56.75 0.056 6.82 1 10.5
10/21/2020 1:30:00 PM 13.91 57.038 0.056 6.83 0.99 10.42
10/21/2020 1:45:00 PM 14.09 57.362 0.056 6.83 0.98 10.34
10/21/2020 2:00:00 PM 14.25 57.65 0.056 6.83 0.94 10.27
10/21/2020 2:15:00 PM 14.39 57.902 0.056 6.8 0.94 10.2
10/21/2020 2:30:00 PM 14.49 58.082 0.056 6.79 0.95 10.15
10/21/2020 2:45:00 PM 14.58 58.244 0.056 6.79 0.94 10.14
10/21/2020 3:00:00 PM 14.63 58.334 0.056 6.8 0.94 10.07
10/21/2020 3:15:00 PM 14.67 58.406 0.056 6.77 0.94 10.06
10/21/2020 3:30:00 PM 14.71 58.478 0.056 6.72 0.92 10.05
10/21/2020 3:45:00 PM 14.72 58.496 0.056 6.75 1.23 10.04
10/21/2020 4:00:00 PM 14.72 58.496 0.056 6.72 1.17 10.02
10/21/2020 4:15:00 PM 14.73 58.514 0.056 6.73 1.67 9.99
10/21/2020 4:30:00 PM 14.72 58.496 0.056 6.66 0.95 9.98
10/21/2020 4:45:00 PM 14.71 58.478 0.056 6.68 1.13 9.95
10/21/2020 5:00:00 PM 14.69 58.442 0.056 6.68 0.92 9.94
10/21/2020 5:15:00 PM 14.67 58.406 0.056 6.66 1.09 9.91
10/21/2020 5:30:00 PM 14.66 58.388 0.056 6.6 0.91 9.9
10/21/2020 5:45:00 PM 14.64 58.352 0.056 6.62 0.89 9.9
10/21/2020 6:00:00 PM 14.6 58.28 0.056 6.6 0.88 9.84
10/21/2020 6:15:00 PM 14.57 58.226 0.057 6.58 0.92 9.8
10/21/2020 6:30:00 PM 14.52 58.136 0.057 6.56 0.95 9.73
10/21/2020 6:45:00 PM 14.49 58.082 0.057 6.57 0.89 9.7
10/21/2020 7:00:00 PM 14.45 58.01 0.057 6.5 0.91 9.64
10/21/2020 7:15:00 PM 14.41 57.938 0.057 6.53 0.97 9.63
10/21/2020 7:30:00 PM 14.37 57.866 0.057 6.53 0.91 9.64
10/21/2020 7:45:00 PM 14.32 57.776 0.057 6.54 0.97 9.65
10/21/2020 8:00:00 PM 14.29 57.722 0.058 6.54 0.92 9.63
10/21/2020 8:15:00 PM 14.25 57.65 0.058 6.56 0.93 9.63
10/21/2020 8:30:00 PM 14.21 57.578 0.058 6.56 0.92 9.68
10/21/2020 8:45:00 PM 14.18 57.524 0.058 6.56 0.91 9.66
10/21/2020 9:00:00 PM 14.14 57.452 0.058 6.55 0.92 9.68
10/21/2020 9:15:00 PM 14.1 57.38 0.058 6.56 0.9 9.75
10/21/2020 9:30:00 PM 14.07 57.326 0.058 6.52 0.93 9.71
10/21/2020 9:45:00 PM 14.03 57.254 0.058 6.54 0.88 9.72
10/21/2020 10:00:00 PM 13.99 57.182 0.058 6.54 0.9 9.76
10/21/2020 10:15:00 PM 13.95 57.11 0.058 6.56 0.88 9.77
10/21/2020 10:30:00 PM 13.91 57.038 0.058 6.52 0.87 9.77
10/21/2020 10:45:00 PM 13.88 56.984 0.058 6.53 0.87 9.78
10/21/2020 11:00:00 PM 13.85 56.93 0.058 6.54 0.92 9.76
10/21/2020 11:15:00 PM 13.83 56.894 0.058 6.53 0.92 9.8
10/21/2020 11:30:00 PM 13.79 56.822 0.058 6.54 0.91 9.85
10/21/2020 11:45:00 PM 13.75 56.75 0.058 6.54 0.9 9.85
10/22/2020 12:00:00 AM 13.72 56.696 0.058 6.55 0.95 9.84
10/22/2020 12:15:00 AM 13.69 56.642 0.058 6.55 0.94 9.86
10/22/2020 12:30:00 AM 13.66 56.588 0.058 6.55 0.94 9.87
10/22/2020 12:45:00 AM 13.63 56.534 0.058 6.53 0.9 9.86
10/22/2020 1:00:00 AM 13.6 56.48 0.058 6.53 0.9 9.88
10/22/2020 1:15:00 AM 13.56 56.408 0.058 6.52 0.89 9.9
10/22/2020 1:30:00 AM 13.53 56.354 0.058 6.52 0.9 9.9
10/22/2020 1:45:00 AM 13.5 56.3 0.058 6.51 0.92 9.9
10/22/2020 2:00:00 AM 13.46 56.228 0.058 6.5 0.9 9.89
10/22/2020 2:15:00 AM 13.44 56.192 0.058 6.51 0.91 9.93
10/22/2020 2:30:00 AM 13.43 56.174 0.058 6.51 0.93 9.9
10/22/2020 2:45:00 AM 13.41 56.138 0.058 6.53 0.91 9.93
10/22/2020 3:00:00 AM 13.4 56.12 0.058 6.51 0.9 9.92
10/22/2020 3:15:00 AM 13.39 56.102 0.058 6.52 0.89 9.93
10/22/2020 3:30:00 AM 13.37 56.066 0.058 6.52 0.9 9.94
10/22/2020 3:45:00 AM 13.36 56.048 0.058 6.53 0.9 9.94
10/22/2020 4:00:00 AM 13.35 56.03 0.058 6.52 0.89 9.95
10/22/2020 4:15:00 AM 13.34 56.012 0.058 6.52 0.92 9.93
10/22/2020 4:30:00 AM 13.33 55.994 0.058 6.52 0.9 9.96
10/22/2020 4:45:00 AM 13.32 55.976 0.058 6.52 0.93 9.96
10/22/2020 5:00:00 AM 13.31 55.958 0.058 6.52 0.93 9.95
10/22/2020 5:15:00 AM 13.3 55.94 0.058 6.53 0.9 9.96
10/22/2020 5:30:00 AM 13.3 55.94 0.058 6.52 1.03 9.96
10/22/2020 5:45:00 AM 13.29 55.922 0.058 6.51 0.97 9.94
10/22/2020 6:00:00 AM 13.28 55.904 0.058 6.51 0.91 9.94
10/22/2020 6:15:00 AM 13.27 55.886 0.058 6.53 0.95 9.94
10/22/2020 6:30:00 AM 13.27 55.886 0.058 6.54 0.88 9.95
10/22/2020 6:45:00 AM 13.26 55.868 0.058 6.56 0.92 9.96
10/22/2020 7:00:00 AM 13.26 55.868 0.058 6.55 0.92 9.96
10/22/2020 7:15:00 AM 13.25 55.85 0.058 6.56 0.91 9.96
10/22/2020 7:30:00 AM 13.24 55.832 0.058 6.55 0.94 9.95
10/22/2020 7:45:00 AM 13.24 55.832 0.058 6.55 0.89 9.98
10/22/2020 8:00:00 AM 13.24 55.832 0.058 6.54 0.91 10
10/22/2020 8:15:00 AM 13.24 55.832 0.058 6.56 0.93 10.02
10/22/2020 8:30:00 AM 13.25 55.85 0.058 6.57 0.9 10.07
10/22/2020 8:45:00 AM 13.26 55.868 0.058 6.58 0.9 10.09
10/22/2020 9:00:00 AM 13.27 55.886 0.058 6.57 0.91 10.19
10/22/2020 9:15:00 AM 13.3 55.94 0.058 6.59 0.88 10.21
10/22/2020 9:30:00 AM 13.34 56.012 0.058 6.62 0.89 10.28
10/22/2020 9:45:00 AM 13.37 56.066 0.058 6.62 0.93 10.33
10/22/2020 10:00:00 AM 13.43 56.174 0.058 6.65 0.91 10.37
10/22/2020 10:15:00 AM 13.56 56.408 0.058 6.69 0.88 10.41
10/22/2020 10:30:00 AM 13.7 56.66 0.057 6.73 0.92 10.42
10/22/2020 10:45:00 AM 13.88 56.984 0.057 6.76 0.85 10.44
10/22/2020 11:00:00 AM 14.02 57.236 0.057 6.79 0.86 10.47
10/22/2020 11:15:00 AM 14.11 57.398 0.057 6.78 0.89 10.43
10/22/2020 11:30:00 AM 14.25 57.65 0.057 6.8 0.86 10.44
10/22/2020 11:45:00 AM 14.3 57.74 0.057 6.8 0.88 10.37
10/22/2020 12:00:00 PM 14.39 57.902 0.057 6.82 0.86 10.36
10/22/2020 12:15:00 PM 14.5 58.1 0.057 6.78 0.85 10.36
10/22/2020 12:30:00 PM 14.65 58.37 0.057 6.81 0.88 10.28
10/22/2020 12:45:00 PM 14.81 58.658 0.057 6.83 0.89 10.24
10/22/2020 1:00:00 PM 14.93 58.874 0.057 6.82 0.85 10.22
10/22/2020 1:15:00 PM 15.08 59.144 0.057 6.82 0.85 10.11
10/22/2020 1:30:00 PM 15.27 59.486 0.056 6.86 0.86 10.03
10/22/2020 1:45:00 PM 15.56 60.008 0.056 6.86 0.87 10.02
10/22/2020 2:00:00 PM 15.7 60.26 0.056 6.86 0.84 9.93
10/22/2020 2:15:00 PM 15.85 60.53 0.056 6.85 0.85 9.93
10/22/2020 2:30:00 PM 15.94 60.692 0.056 6.79 0.84 9.83
10/22/2020 2:45:00 PM 16.04 60.872 0.056 6.79 0.84 9.78
10/22/2020 3:00:00 PM 16.12 61.016 0.056 6.78 0.92 9.76
10/22/2020 3:15:00 PM 16.11 60.998 0.056 6.76 0.84 9.73
10/22/2020 3:30:00 PM 16.14 61.052 0.056 6.75 0.85 9.7
10/22/2020 3:45:00 PM 16.14 61.052 0.056 6.73 0.84 9.74
10/22/2020 4:00:00 PM 16.1 60.98 0.057 6.69 0.82 9.6
10/22/2020 4:15:00 PM 16.07 60.926 0.056 6.71 0.84 9.64
10/22/2020 4:30:00 PM 16.07 60.926 0.057 6.66 0.87 9.67
10/22/2020 4:45:00 PM 16.05 60.89 0.057 6.68 0.86 9.59
10/22/2020 5:00:00 PM 15.99 60.782 0.057 6.67 0.9 9.54
10/22/2020 5:15:00 PM 15.99 60.782 0.057 6.62 0.87 9.55
10/22/2020 5:30:00 PM 15.97 60.746 0.057 6.66 0.87 9.54
10/22/2020 5:45:00 PM 15.92 60.656 0.057 6.6 0.84 9.5
10/22/2020 6:00:00 PM 15.88 60.584 0.057 6.6 1.01 9.42
10/22/2020 6:15:00 PM 15.82 60.476 0.057 6.59 0.84 9.39
10/22/2020 6:30:00 PM 15.76 60.368 0.058 6.58 0.86 9.37
10/22/2020 6:45:00 PM 15.7 60.26 0.058 6.57 0.88 9.32
10/22/2020 7:00:00 PM 15.65 60.17 0.058 6.56 0.89 9.31
10/22/2020 7:15:00 PM 15.59 60.062 0.058 6.55 0.93 9.32
10/22/2020 7:30:00 PM 15.54 59.972 0.058 6.55 0.85 9.31
10/22/2020 7:45:00 PM 15.48 59.864 0.058 6.57 0.86 9.37
10/22/2020 8:00:00 PM 15.41 59.738 0.058 6.52 0.85 9.39
10/22/2020 8:15:00 PM 15.35 59.63 0.058 6.55 0.86 9.42
10/22/2020 8:30:00 PM 15.29 59.522 0.058 6.53 0.88 9.41
10/22/2020 8:45:00 PM 15.22 59.396 0.058 6.53 0.89 9.44
10/22/2020 9:00:00 PM 15.16 59.288 0.058 6.53 0.87 9.48
10/22/2020 9:15:00 PM 15.09 59.162 0.059 6.55 0.89 9.5
10/22/2020 9:30:00 PM 15.02 59.036 0.059 6.5 0.86 9.5
10/22/2020 9:45:00 PM 14.95 58.91 0.059 6.53 0.87 9.53
10/22/2020 10:00:00 PM 14.88 58.784 0.059 6.54 0.93 9.57
10/22/2020 10:15:00 PM 14.82 58.676 0.059 6.53 0.88 9.54
10/22/2020 10:30:00 PM 14.75 58.55 0.059 6.53 0.87 9.6
10/22/2020 10:45:00 PM 14.68 58.424 0.059 6.54 0.86 9.63
10/22/2020 11:00:00 PM 14.62 58.316 0.059 6.55 0.85 9.66
10/22/2020 11:15:00 PM 14.56 58.208 0.059 6.54 1.02 9.58
10/22/2020 11:30:00 PM 14.49 58.082 0.059 6.55 1 9.66
10/22/2020 11:45:00 PM 14.42 57.956 0.059 6.55 0.89 9.7
10/23/2020 12:00:00 AM 14.37 57.866 0.059 6.56 0.91 9.73
10/23/2020 12:15:00 AM 14.29 57.722 0.059 6.57 0.94 9.75
10/23/2020 12:30:00 AM 14.23 57.614 0.059 6.55 0.92 9.74
10/23/2020 12:45:00 AM 14.17 57.506 0.059 6.56 0.88 9.8
10/23/2020 1:00:00 AM 14.1 57.38 0.059 6.56 0.86 9.81
10/23/2020 1:15:00 AM 14.05 57.29 0.059 6.56 0.91 9.76
10/23/2020 1:30:00 AM 13.99 57.182 0.059 6.58 0.89 9.81
10/23/2020 1:45:00 AM 13.93 57.074 0.059 6.56 0.91 9.9
10/23/2020 2:00:00 AM 13.88 56.984 0.059 6.58 0.93 9.87
10/23/2020 2:15:00 AM 13.83 56.894 0.059 6.57 0.87 9.84
10/23/2020 2:30:00 AM 13.77 56.786 0.059 6.57 0.92 9.89
10/23/2020 2:45:00 AM 13.71 56.678 0.059 6.57 0.88 9.9
10/23/2020 3:00:00 AM 13.66 56.588 0.058 6.57 0.89 9.92
10/23/2020 3:15:00 AM 13.62 56.516 0.059 6.57 0.87 9.87
10/23/2020 3:30:00 AM 13.59 56.462 0.059 6.55 0.86 9.88
10/23/2020 3:45:00 AM 13.57 56.426 0.059 6.57 0.86 9.87
10/23/2020 4:00:00 AM 13.54 56.372 0.059 6.59 0.88 9.87
10/23/2020 4:15:00 AM 13.53 56.354 0.059 6.58 0.88 9.89
10/23/2020 4:30:00 AM 13.51 56.318 0.059 6.6 0.92 9.92
10/23/2020 4:45:00 AM 13.5 56.3 0.059 6.6 0.88 9.91
10/23/2020 5:00:00 AM 13.47 56.246 0.059 6.59 0.87 9.9
10/23/2020 5:15:00 AM 13.44 56.192 0.059 6.6 0.98 9.9
10/23/2020 5:30:00 AM 13.4 56.12 0.059 6.57 0.92 9.91
10/23/2020 5:45:00 AM 13.36 56.048 0.059 6.58 0.95 9.92
10/23/2020 6:00:00 AM 13.33 55.994 0.059 6.57 0.89 9.92
10/23/2020 6:15:00 AM 13.29 55.922 0.059 6.59 0.89 9.92
10/23/2020 6:30:00 AM 13.26 55.868 0.059 6.54 0.93 9.93
10/23/2020 6:45:00 AM 13.23 55.814 0.059 6.57 0.92 9.93
10/23/2020 7:00:00 AM 13.21 55.778 0.059 6.58 0.95 9.94
10/23/2020 7:15:00 AM 13.18 55.724 0.059 6.55 0.93 9.98
10/23/2020 7:30:00 AM 13.15 55.67 0.059 6.57 0.93 10
10/23/2020 7:45:00 AM 13.12 55.616 0.059 6.58 0.9 10.02
10/23/2020 8:00:00 AM 13.1 55.58 0.059 6.58 0.94 10.08
10/23/2020 8:15:00 AM 13.09 55.562 0.059 6.59 0.96 10.11
10/23/2020 8:30:00 AM 13.1 55.58 0.059 6.6 0.9 10.16
10/23/2020 8:45:00 AM 13.12 55.616 0.058 6.62 0.91 10.21
10/23/2020 9:00:00 AM 13.17 55.706 0.058 6.64 0.92 10.29
10/23/2020 9:15:00 AM 13.22 55.796 0.058 6.68 0.92 10.38
10/23/2020 9:30:00 AM 13.29 55.922 0.058 6.69 0.92 10.42
10/23/2020 9:45:00 AM 13.38 56.084 0.058 6.7 0.89 10.45
10/23/2020 10:00:00 AM 13.53 56.354 0.058 6.76 0.9 10.49
10/23/2020 10:15:00 AM 13.61 56.498 0.058 6.75 0.91 10.5
10/23/2020 10:30:00 AM 13.72 56.696 0.058 6.78 0.89 10.48
10/23/2020 10:45:00 AM 13.91 57.038 0.057 6.78 0.9 10.55
10/23/2020 11:00:00 AM 14 57.2 0.057 6.8 0.88 10.46
10/23/2020 11:15:00 AM 14.12 57.416 0.057 6.81 0.89 10.46
10/23/2020 11:30:00 AM 14.18 57.524 0.057 6.78 0.9 10.37
10/23/2020 11:45:00 AM 14.23 57.614 0.057 6.77 0.86 10.38
10/23/2020 12:00:00 PM 14.3 57.74 0.057 6.79 0.89 10.34
10/23/2020 12:15:00 PM 14.35 57.83 0.057 6.79 0.89 10.34
10/23/2020 12:30:00 PM 14.42 57.956 0.057 6.8 0.91 10.31
10/23/2020 12:45:00 PM 14.49 58.082 0.057 6.77 0.88 10.2
10/23/2020 1:00:00 PM 14.55 58.19 0.057 6.75 0.91 10.14
10/23/2020 1:15:00 PM 14.61 58.298 0.057 6.75 0.88 10.11
10/23/2020 1:30:00 PM 14.67 58.406 0.057 6.75 0.88 10.07
10/23/2020 1:45:00 PM 14.71 58.478 0.057 6.74 0.9 10.06
10/23/2020 2:00:00 PM 14.78 58.604 0.057 6.75 0.89 10.03
10/23/2020 2:15:00 PM 14.87 58.766 0.057 6.77 0.88 10.03
10/23/2020 2:30:00 PM 14.96 58.928 0.057 6.73 0.88 10.03
10/23/2020 2:45:00 PM 15.01 59.018 0.057 6.75 0.87 9.99
10/23/2020 3:00:00 PM 15.08 59.144 0.057 6.75 0.89 9.95
10/23/2020 3:15:00 PM 15.11 59.198 0.057 6.74 0.9 9.92
10/23/2020 3:30:00 PM 15.12 59.216 0.057 6.82 0.9 10.11
10/23/2020 3:45:00 PM 15.12 59.216 0.057 6.75 0.93 10.05
10/23/2020 4:00:00 PM 15.15 59.27 0.057 6.78 0.91 9.96
10/23/2020 4:15:00 PM 15.23 59.414 0.057 6.76 0.92 9.97
10/23/2020 4:30:00 PM 15.24 59.432 0.057 6.77 0.87 9.97
10/23/2020 4:45:00 PM 15.25 59.45 0.057 6.73 0.83 9.81
10/23/2020 5:00:00 PM 15.25 59.45 0.057 6.7 0.84 9.73
10/23/2020 5:15:00 PM 15.23 59.414 0.057 6.68 0.9 9.67
10/23/2020 5:30:00 PM 15.24 59.432 0.057 6.67 0.91 9.61
10/23/2020 5:45:00 PM 15.23 59.414 0.057 6.78 0.91 9.59
10/23/2020 6:00:00 PM 15.21 59.378 0.058 6.7 0.9 9.5
10/23/2020 6:15:00 PM 15.18 59.324 0.058 6.64 0.87 9.44
10/23/2020 6:30:00 PM 15.17 59.306 0.058 6.6 0.97 9.46
10/23/2020 6:45:00 PM 15.12 59.216 0.058 6.6 1.03 9.39
10/23/2020 7:00:00 PM 15.07 59.126 0.058 6.58 0.91 9.4
10/23/2020 7:15:00 PM 15.04 59.072 0.058 6.57 0.91 9.36
10/23/2020 7:30:00 PM 15.01 59.018 0.059 6.58 0.94 9.36
10/23/2020 7:45:00 PM 14.97 58.946 0.059 6.59 0.89 9.35
10/23/2020 8:00:00 PM 14.93 58.874 0.059 6.56 0.97 9.36
10/23/2020 8:15:00 PM 14.89 58.802 0.059 6.58 0.92 9.38
10/23/2020 8:30:00 PM 14.88 58.784 0.059 6.58 0.91 9.38
10/23/2020 8:45:00 PM 14.86 58.748 0.059 6.6 0.9 9.4
10/23/2020 9:00:00 PM 14.85 58.73 0.059 6.6 0.95 9.4
10/23/2020 9:15:00 PM 14.83 58.694 0.059 6.59 0.89 9.41
10/23/2020 9:30:00 PM 14.82 58.676 0.059 6.61 0.92 9.42
10/23/2020 9:45:00 PM 14.81 58.658 0.059 6.58 0.96 9.41
10/23/2020 10:00:00 PM 14.78 58.604 0.059 6.59 0.9 9.45
10/23/2020 10:15:00 PM 14.75 58.55 0.059 6.58 0.87 9.44
10/23/2020 10:30:00 PM 14.73 58.514 0.059 6.57 0.88 9.44
10/23/2020 10:45:00 PM 14.71 58.478 0.059 6.59 0.96 9.45
10/23/2020 11:00:00 PM 14.69 58.442 0.059 6.58 0.93 9.46
10/23/2020 11:15:00 PM 14.67 58.406 0.059 6.57 0.89 9.46
10/23/2020 11:30:00 PM 14.65 58.37 0.059 6.57 0.91 9.49
10/23/2020 11:45:00 PM 14.62 58.316 0.059 6.57 0.9 9.53
10/24/2020 12:00:00 AM 14.6 58.28 0.059 6.58 0.89 9.59
10/24/2020 12:15:00 AM 14.58 58.244 0.059 6.58 0.87 9.58
10/24/2020 12:30:00 AM 14.56 58.208 0.059 6.58 0.87 9.59
10/24/2020 12:45:00 AM 14.55 58.19 0.059 6.58 0.92 9.52
10/24/2020 1:00:00 AM 14.53 58.154 0.059 6.59 0.92 9.52
10/24/2020 1:15:00 AM 14.5 58.1 0.059 6.57 0.94 9.52
10/24/2020 1:30:00 AM 14.46 58.028 0.059 6.55 0.93 9.52
10/24/2020 1:45:00 AM 14.41 57.938 0.06 6.55 0.9 9.5
10/24/2020 2:00:00 AM 14.37 57.866 0.059 6.55 1.02 9.54
10/24/2020 2:15:00 AM 14.32 57.776 0.059 6.55 0.9 9.56
10/24/2020 2:30:00 AM 14.28 57.704 0.059 6.57 0.97 9.57
10/24/2020 2:45:00 AM 14.24 57.632 0.059 6.54 0.99 9.58
10/24/2020 3:00:00 AM 14.22 57.596 0.059 6.56 1.02 9.58
10/24/2020 3:15:00 AM 14.2 57.56 0.059 6.57 0.93 9.58
10/24/2020 3:30:00 AM 14.19 57.542 0.059 6.58 0.89 9.57
10/24/2020 3:45:00 AM 14.17 57.506 0.059 6.57 0.89 9.57
10/24/2020 4:00:00 AM 14.16 57.488 0.059 6.59 0.91 9.59
10/24/2020 4:15:00 AM 14.15 57.47 0.059 6.59 0.91 9.61
10/24/2020 4:30:00 AM 14.14 57.452 0.059 6.6 0.9 9.61
10/24/2020 4:45:00 AM 14.12 57.416 0.059 6.6 0.88 9.62
10/24/2020 5:00:00 AM 14.11 57.398 0.059 6.6 0.93 9.64
10/24/2020 5:15:00 AM 14.11 57.398 0.059 6.6 0.87 9.66
10/24/2020 5:30:00 AM 14.1 57.38 0.059 6.61 0.89 9.66
10/24/2020 5:45:00 AM 14.09 57.362 0.059 6.61 0.9 9.65
10/24/2020 6:00:00 AM 14.08 57.344 0.059 6.6 0.88 9.66
10/24/2020 6:15:00 AM 14.08 57.344 0.059 6.6 0.93 9.67
10/24/2020 6:30:00 AM 14.07 57.326 0.059 6.61 0.92 9.68
10/24/2020 6:45:00 AM 14.07 57.326 0.059 6.59 0.92 9.68
10/24/2020 7:00:00 AM 14.06 57.308 0.059 6.6 0.88 9.68
10/24/2020 7:15:00 AM 14.05 57.29 0.059 6.61 0.9 9.68
10/24/2020 7:30:00 AM 14.05 57.29 0.059 6.6 0.89 9.69
10/24/2020 7:45:00 AM 14.05 57.29 0.059 6.6 0.97 9.68
10/24/2020 8:00:00 AM 14.05 57.29 0.059 6.6 0.9 9.7
10/24/2020 8:15:00 AM 14.05 57.29 0.059 6.61 0.93 9.71
10/24/2020 8:30:00 AM 14.05 57.29 0.059 6.61 0.9 9.73
10/24/2020 8:45:00 AM 14.06 57.308 0.059 6.61 0.85 9.77
10/24/2020 9:00:00 AM 14.08 57.344 0.059 6.62 1.03 9.8
10/24/2020 9:15:00 AM 14.08 57.344 0.059 6.63 0.9 9.81
10/24/2020 9:30:00 AM 14.08 57.344 0.059 6.62 0.91 9.81
10/24/2020 9:45:00 AM 14.08 57.344 0.059 6.63 0.96 9.81
10/24/2020 10:00:00 AM 14.07 57.326 0.059 6.63 0.9 9.81
10/24/2020 10:15:00 AM 14.07 57.326 0.059 6.65 0.89 9.92
10/24/2020 10:30:00 AM 14.07 57.326 0.059 6.66 0.94 9.89
10/24/2020 10:45:00 AM 14.05 57.29 0.059 6.67 0.91 9.97
10/24/2020 11:00:00 AM 14.03 57.254 0.059 6.67 0.9 10.01
10/24/2020 11:15:00 AM 14.03 57.254 0.059 6.68 0.9 10.03
10/24/2020 11:30:00 AM 14 57.2 0.058 6.7 0.92 10.09
10/24/2020 11:45:00 AM 14.03 57.254 0.058 6.68 0.93 10.13
10/24/2020 12:00:00 PM 14.01 57.218 0.058 6.72 0.95 10.19
10/24/2020 12:15:00 PM 13.95 57.11 0.058 6.73 1.02 10.18
10/24/2020 12:30:00 PM 13.91 57.038 0.058 6.69 0.99 10.15
10/24/2020 12:45:00 PM 13.87 56.966 0.058 6.7 0.94 10.17
10/24/2020 1:00:00 PM 13.82 56.876 0.058 6.71 0.92 10.21
10/24/2020 1:15:00 PM 13.79 56.822 0.058 6.69 0.94 10.28
10/24/2020 1:30:00 PM 13.77 56.786 0.058 6.71 1.01 10.32
10/24/2020 1:45:00 PM 13.78 56.804 0.058 6.73 0.94 10.38
10/24/2020 2:00:00 PM 13.76 56.768 0.058 6.76 0.96 10.43
10/24/2020 2:15:00 PM 13.72 56.696 0.058 6.77 0.93 10.46
10/24/2020 2:30:00 PM 13.7 56.66 0.057 6.77 0.94 10.5
10/24/2020 2:45:00 PM 13.66 56.588 0.057 6.78 0.94 10.45
10/24/2020 3:00:00 PM 13.64 56.552 0.057 6.75 0.9 10.43
10/24/2020 3:15:00 PM 13.64 56.552 0.057 6.76 0.91 10.42
10/24/2020 3:30:00 PM 13.57 56.426 0.057 6.76 0.95 10.44
10/24/2020 3:45:00 PM 13.5 56.3 0.057 6.75 0.92 10.45
10/24/2020 4:00:00 PM 13.39 56.102 0.057 6.75 0.95 10.42
10/24/2020 4:15:00 PM 13.3 55.94 0.057 6.7 0.92 10.37
10/24/2020 4:30:00 PM 13.29 55.922 0.057 6.72 0.95 10.37
10/24/2020 4:45:00 PM 13.2 55.76 0.057 6.71 0.95 10.39
10/24/2020 5:00:00 PM 13.11 55.598 0.057 6.72 0.94 10.37
10/24/2020 5:15:00 PM 13.01 55.418 0.057 6.68 0.94 10.36
10/24/2020 5:30:00 PM 12.93 55.274 0.058 6.68 0.96 10.32
10/24/2020 5:45:00 PM 12.8 55.04 0.058 6.67 1.01 10.28
10/24/2020 6:00:00 PM 12.75 54.95 0.058 6.67 1 10.28
10/24/2020 6:15:00 PM 12.63 54.734 0.058 6.63 0.98 10.22
10/24/2020 6:30:00 PM 12.55 54.59 0.058 6.63 0.99 10.19
10/24/2020 6:45:00 PM 12.46 54.428 0.058 6.62 0.98 10.22
10/24/2020 7:00:00 PM 12.35 54.23 0.058 6.6 0.92 10.21
10/24/2020 7:15:00 PM 12.23 54.014 0.058 6.62 1.18 10.26
10/24/2020 7:30:00 PM 12.2 53.96 0.059 6.64 1.08 10.26
10/24/2020 7:45:00 PM 12.13 53.834 0.059 6.61 1.03 10.31
10/24/2020 8:00:00 PM 12.04 53.672 0.059 6.64 0.98 10.31
10/24/2020 8:15:00 PM 11.95 53.51 0.059 6.6 0.96 10.35
10/24/2020 8:30:00 PM 11.89 53.402 0.059 6.63 0.93 10.38
10/24/2020 8:45:00 PM 11.81 53.258 0.059 6.63 0.94 10.39
10/24/2020 9:00:00 PM 11.72 53.096 0.059 6.63 0.93 10.39
10/24/2020 9:15:00 PM 11.67 53.006 0.059 6.62 0.96 10.41
10/24/2020 9:30:00 PM 11.59 52.862 0.059 6.64 0.94 10.45
10/24/2020 9:45:00 PM 11.49 52.682 0.059 6.61 0.93 10.46
10/24/2020 10:00:00 PM 11.41 52.538 0.059 6.63 0.96 10.49
10/24/2020 10:15:00 PM 11.33 52.394 0.059 6.63 0.95 10.51
10/24/2020 10:30:00 PM 11.22 52.196 0.059 6.63 0.91 10.53
10/24/2020 10:45:00 PM 11.18 52.124 0.059 6.64 0.93 10.54
10/24/2020 11:00:00 PM 11.09 51.962 0.059 6.6 0.94 10.58
10/24/2020 11:15:00 PM 10.99 51.782 0.059 6.62 0.92 10.61
10/24/2020 11:30:00 PM 10.92 51.656 0.059 6.62 0.97 10.63
10/24/2020 11:45:00 PM 10.84 51.512 0.059 6.64 0.94 10.66
10/25/2020 12:00:00 AM 10.78 51.404 0.059 6.59 0.94 10.68
10/25/2020 12:15:00 AM 10.74 51.332 0.059 6.63 1.18 10.69
10/25/2020 12:30:00 AM 10.65 51.17 0.059 6.63 0.94 10.69
10/25/2020 12:45:00 AM 10.59 51.062 0.059 6.62 1.74 10.73
10/25/2020 1:00:00 AM 10.52 50.936 0.059 6.63 0.93 10.78
10/25/2020 1:15:00 AM 10.47 50.846 0.059 6.64 1.05 10.8
10/25/2020 1:30:00 AM 10.44 50.792 0.059 6.66 0.96 10.81
10/25/2020 1:45:00 AM 10.36 50.648 0.059 6.61 0.92 10.85
10/25/2020 2:00:00 AM 10.29 50.522 0.059 6.64 0.92 10.88
10/25/2020 2:15:00 AM 10.23 50.414 0.059 6.64 0.89 10.89
10/25/2020 2:30:00 AM 10.15 50.27 0.059 6.64 0.91 10.91
10/25/2020 2:45:00 AM 10.09 50.162 0.059 6.63 0.94 10.93
10/25/2020 3:00:00 AM 10.02 50.036 0.059 6.65 0.93 10.97
10/25/2020 3:15:00 AM 9.93 49.874 0.059 6.6 0.91 10.99
10/25/2020 3:30:00 AM 9.87 49.766 0.059 6.63 0.9 11.01
10/25/2020 3:45:00 AM 9.79 49.622 0.059 6.63 0.92 11.04
10/25/2020 4:00:00 AM 9.71 49.478 0.059 6.63 0.96 11.07
10/25/2020 4:30:00 AM 9.6 49.28 0.059 6.62 0.91 11.11
10/25/2020 4:45:00 AM 9.53 49.154 0.059 6.62 0.9 11.11
10/25/2020 5:00:00 AM 9.48 49.064 0.059 6.62 0.91 11.14
10/25/2020 5:15:00 AM 9.41 48.938 0.059 6.63 0.92 11.16
10/25/2020 5:30:00 AM 9.36 48.848 0.059 6.64 0.91 11.19
10/25/2020 5:45:00 AM 9.3 48.74 0.059 6.59 0.98 11.23
10/25/2020 6:00:00 AM 9.24 48.632 0.059 6.65 0.95 11.24
10/25/2020 6:15:00 AM 9.16 48.488 0.059 6.6 0.93 11.26
10/25/2020 6:30:00 AM 9.12 48.416 0.059 6.63 0.93 11.27
10/25/2020 6:45:00 AM 9.07 48.326 0.059 6.63 0.94 11.3
10/25/2020 7:00:00 AM 9.01 48.218 0.059 6.63 0.91 11.31
10/25/2020 7:15:00 AM 8.98 48.164 0.059 6.64 0.93 11.34
10/25/2020 7:30:00 AM 8.89 48.002 0.059 6.64 0.98 11.35
10/25/2020 7:45:00 AM 8.87 47.966 0.059 6.61 0.91 11.4
10/25/2020 8:00:00 AM 8.83 47.894 0.059 6.64 0.91 11.43
10/25/2020 8:15:00 AM 8.81 47.858 0.059 6.67 0.92 11.49
10/25/2020 8:30:00 AM 8.79 47.822 0.059 6.65 0.93 11.55
10/25/2020 8:45:00 AM 8.81 47.858 0.059 6.69 0.96 11.6
10/25/2020 9:00:00 AM 8.84 47.912 0.059 6.71 0.9 11.64
10/25/2020 9:15:00 AM 8.85 47.93 0.059 6.74 0.91 11.67
10/25/2020 9:30:00 AM 8.89 48.002 0.059 6.72 0.92 11.73
10/25/2020 9:45:00 AM 8.93 48.074 0.058 6.78 0.88 11.81
10/25/2020 10:00:00 AM 9.01 48.218 0.058 6.77 0.93 11.85
10/25/2020 10:15:00 AM 9.06 48.308 0.058 6.83 0.98 11.88
10/25/2020 10:30:00 AM 9.12 48.416 0.058 6.79 0.92 11.9
10/25/2020 10:45:00 AM 9.18 48.524 0.058 6.82 0.94 11.92
10/25/2020 11:00:00 AM 9.28 48.704 0.058 6.85 0.99 11.93
10/25/2020 11:15:00 AM 9.39 48.902 0.058 6.88 0.9 11.93
10/25/2020 11:30:00 AM 9.45 49.01 0.058 6.89 0.94 11.93
10/25/2020 11:45:00 AM 9.51 49.118 0.058 6.87 0.89 11.93
10/25/2020 12:00:00 PM 9.57 49.226 0.057 6.86 0.89 11.91
10/25/2020 12:15:00 PM 9.67 49.406 0.057 6.87 0.92 11.89
10/25/2020 12:30:00 PM 9.75 49.55 0.057 6.88 0.91 11.89
10/25/2020 12:45:00 PM 9.84 49.712 0.057 6.88 0.9 11.86
10/25/2020 1:00:00 PM 9.92 49.856 0.057 6.89 0.89 11.84
10/25/2020 1:15:00 PM 9.97 49.946 0.057 6.87 1.03 11.8
10/25/2020 1:30:00 PM 10.09 50.162 0.057 6.88 0.91 11.76
10/25/2020 1:45:00 PM 10.17 50.306 0.057 6.89 0.93 11.71
10/25/2020 2:00:00 PM 10.29 50.522 0.057 6.89 0.97 11.69
10/25/2020 2:15:00 PM 10.36 50.648 0.057 6.88 0.86 11.66
10/25/2020 2:30:00 PM 10.37 50.666 0.057 6.87 0.92 11.62
10/25/2020 2:45:00 PM 10.36 50.648 0.057 6.84 0.88 11.58
10/25/2020 3:00:00 PM 10.39 50.702 0.057 6.83 0.93 11.54
10/25/2020 3:15:00 PM 10.41 50.738 0.057 6.82 0.92 11.52
10/25/2020 3:30:00 PM 10.42 50.756 0.057 6.82 0.91 11.5
10/25/2020 3:45:00 PM 10.43 50.774 0.057 6.83 0.9 11.49
10/25/2020 4:00:00 PM 10.43 50.774 0.057 6.81 0.92 11.49
10/25/2020 4:15:00 PM 10.44 50.792 0.057 6.81 0.91 11.48
10/25/2020 4:30:00 PM 10.46 50.828 0.057 6.81 0.93 11.46
10/25/2020 4:45:00 PM 10.47 50.846 0.057 6.82 0.93 11.44
10/25/2020 5:00:00 PM 10.48 50.864 0.057 6.8 0.96 11.4
10/25/2020 5:15:00 PM 10.47 50.846 0.057 6.81 0.91 11.37
10/25/2020 5:30:00 PM 10.46 50.828 0.057 6.75 0.91 11.3
10/25/2020 5:45:00 PM 10.45 50.81 0.057 6.75 1.01 11.21
10/25/2020 6:00:00 PM 10.43 50.774 0.057 6.71 0.92 11.19
10/25/2020 6:15:00 PM 10.43 50.774 0.058 6.73 0.89 11.16
10/25/2020 6:30:00 PM 10.42 50.756 0.058 6.71 0.88 11.11
10/25/2020 6:45:00 PM 10.41 50.738 0.058 6.71 0.91 11.08
10/25/2020 7:00:00 PM 10.41 50.738 0.058 6.7 0.91 11.05
10/25/2020 7:15:00 PM 10.39 50.702 0.058 6.7 0.94 11.03
10/25/2020 7:30:00 PM 10.36 50.648 0.058 6.69 0.91 11.02
10/25/2020 7:45:00 PM 10.34 50.612 0.058 6.69 0.89 11.01
10/25/2020 8:00:00 PM 10.33 50.594 0.058 6.68 0.91 11
10/25/2020 8:15:00 PM 10.32 50.576 0.059 6.68 0.93 11.01
10/25/2020 8:30:00 PM 10.27 50.486 0.059 6.7 0.87 11.01
10/25/2020 8:45:00 PM 10.28 50.504 0.059 6.65 0.95 11.01
10/25/2020 9:00:00 PM 10.24 50.432 0.059 6.69 1.13 11.02
10/25/2020 9:15:00 PM 10.22 50.396 0.059 6.68 0.89 11.02
10/25/2020 9:30:00 PM 10.19 50.342 0.059 6.67 0.92 11.03
10/25/2020 9:45:00 PM 10.15 50.27 0.059 6.68 0.92 11.05
10/25/2020 10:00:00 PM 10.12 50.216 0.059 6.68 0.92 11.05
10/25/2020 10:15:00 PM 10.11 50.198 0.059 6.66 0.91 11.06
10/25/2020 10:30:00 PM 10.09 50.162 0.059 6.67 0.94 11.07
10/25/2020 10:45:00 PM 10.05 50.09 0.059 6.68 0.88 11.08
10/25/2020 11:00:00 PM 10.02 50.036 0.059 6.67 0.89 11.08
10/25/2020 11:15:00 PM 10 50 0.059 6.68 0.91 11.09
10/25/2020 11:30:00 PM 9.97 49.946 0.059 6.64 0.93 11.1
10/25/2020 11:45:00 PM 9.94 49.892 0.059 6.66 0.96 11.09
10/26/2020 12:00:00 AM 9.89 49.802 0.059 6.65 0.93 11.09
10/26/2020 12:15:00 AM 9.86 49.748 0.059 6.65 1.06 11.1
10/26/2020 12:30:00 AM 9.83 49.694 0.059 6.66 0.97 11.1
10/26/2020 12:45:00 AM 9.81 49.658 0.059 6.66 0.88 11.1
10/26/2020 1:00:00 AM 9.8 49.64 0.059 6.65 0.92 11.11
10/26/2020 1:15:00 AM 9.74 49.532 0.059 6.66 0.97 11.13
10/26/2020 1:30:00 AM 9.73 49.514 0.059 6.62 0.91 11.14
10/26/2020 1:45:00 AM 9.72 49.496 0.059 6.65 0.93 11.12
10/26/2020 2:00:00 AM 9.69 49.442 0.058 6.65 0.93 11.13
10/26/2020 2:15:00 AM 9.67 49.406 0.058 6.64 0.93 11.13
10/26/2020 2:30:00 AM 9.67 49.406 0.058 6.65 0.9 11.13
10/26/2020 2:45:00 AM 9.65 49.37 0.058 6.66 0.94 11.14
10/26/2020 3:00:00 AM 9.64 49.352 0.058 6.63 0.94 11.14
10/26/2020 3:15:00 AM 9.63 49.334 0.058 6.65 0.89 11.15
10/26/2020 3:30:00 AM 9.63 49.334 0.058 6.65 0.89 11.15
10/26/2020 3:45:00 AM 9.62 49.316 0.058 6.65 0.95 11.15
10/26/2020 4:00:00 AM 9.61 49.298 0.058 6.65 0.93 11.15
10/26/2020 4:15:00 AM 9.61 49.298 0.058 6.65 0.93 11.14
10/26/2020 4:30:00 AM 9.61 49.298 0.058 6.66 0.88 11.14
10/26/2020 4:45:00 AM 9.6 49.28 0.058 6.66 0.94 11.13
10/26/2020 5:00:00 AM 9.6 49.28 0.058 6.67 0.94 11.12
10/26/2020 5:15:00 AM 9.6 49.28 0.058 6.65 0.94 11.11
10/26/2020 5:30:00 AM 9.6 49.28 0.058 6.65 1.03 11.11
10/26/2020 5:45:00 AM 9.6 49.28 0.058 6.66 0.92 11.12
10/26/2020 6:00:00 AM 9.61 49.298 0.058 6.66 0.91 11.12
10/26/2020 6:15:00 AM 9.62 49.316 0.058 6.66 0.92 11.12
10/26/2020 6:30:00 AM 9.62 49.316 0.058 6.65 0.89 11.09
10/26/2020 6:45:00 AM 9.63 49.334 0.058 6.66 0.89 11.09
10/26/2020 7:00:00 AM 9.64 49.352 0.058 6.64 0.89 11.09
10/26/2020 7:15:00 AM 9.66 49.388 0.058 6.65 1.36 11.11
10/26/2020 7:30:00 AM 9.67 49.406 0.058 6.65 0.9 11.11
10/26/2020 7:45:00 AM 9.68 49.424 0.058 6.65 0.93 11.12
10/26/2020 8:00:00 AM 9.7 49.46 0.058 6.66 1.02 11.12
10/26/2020 8:15:00 AM 9.71 49.478 0.058 6.67 0.87 11.14
10/26/2020 8:30:00 AM 9.73 49.514 0.058 6.68 1.05 11.16
10/26/2020 8:45:00 AM 9.76 49.568 0.058 6.68 0.89 11.19
10/26/2020 9:00:00 AM 9.78 49.604 0.058 6.69 0.96 11.21
10/26/2020 9:15:00 AM 9.82 49.676 0.058 6.7 0.94 11.23
10/26/2020 9:30:00 AM 9.85 49.73 0.058 6.68 0.92 11.25
10/26/2020 9:45:00 AM 9.88 49.784 0.058 6.7 0.89 11.26
10/26/2020 10:00:00 AM 9.91 49.838 0.058 6.73 0.92 11.27
10/26/2020 10:15:00 AM 9.94 49.892 0.058 6.71 0.89 11.27
10/26/2020 10:30:00 AM 9.97 49.946 0.058 6.73 0.9 11.27
10/26/2020 10:45:00 AM 10.01 50.018 0.058 6.7 0.88 11.28
10/26/2020 11:00:00 AM 10.04 50.072 0.058 6.72 0.91 11.29
10/26/2020 11:15:00 AM 10.08 50.144 0.058 6.74 0.88 11.27
10/26/2020 11:30:00 AM 10.12 50.216 0.058 6.72 1.05 11.28
10/26/2020 11:45:00 AM 10.16 50.288 0.058 6.73 0.87 11.27
10/26/2020 12:00:00 PM 10.19 50.342 0.058 6.72 0.89 11.25
10/26/2020 12:15:00 PM 10.23 50.414 0.058 6.73 0.98 11.27
10/26/2020 12:30:00 PM 10.28 50.504 0.058 6.75 0.86 11.28
10/26/2020 12:45:00 PM 10.33 50.594 0.058 6.73 0.89 11.3
10/26/2020 1:00:00 PM 10.41 50.738 0.057 6.77 0.86 11.32
10/26/2020 1:15:00 PM 10.45 50.81 0.057 6.78 0.97 11.32
10/26/2020 1:30:00 PM 10.49 50.882 0.057 6.78 0.86 11.3
10/26/2020 1:45:00 PM 10.53 50.954 0.057 6.78 0.98 11.27
10/26/2020 2:00:00 PM 10.57 51.026 0.057 6.74 0.93 11.26
10/26/2020 2:15:00 PM 10.61 51.098 0.057 6.78 0.9 11.25
10/26/2020 2:30:00 PM 10.64 51.152 0.057 6.72 0.89 11.22
10/26/2020 2:45:00 PM 10.66 51.188 0.057 6.75 0.95 11.16
10/26/2020 3:00:00 PM 10.69 51.242 0.057 6.75 0.93 11.15
10/26/2020 3:15:00 PM 10.72 51.296 0.057 6.74 0.87 11.13
10/26/2020 3:30:00 PM 10.74 51.332 0.057 6.73 0.93 11.08
10/26/2020 3:45:00 PM 10.76 51.368 0.057 6.73 0.9 11.06
10/26/2020 4:00:00 PM 10.77 51.386 0.057 6.74 0.92 11.04
10/26/2020 4:15:00 PM 10.78 51.404 0.058 6.69 0.89 11.03
10/26/2020 4:30:00 PM 10.79 51.422 0.058 6.72 0.97 11
10/26/2020 4:45:00 PM 10.79 51.422 0.058 6.71 1.63 10.97
10/26/2020 5:00:00 PM 10.8 51.44 0.058 6.7 1.44 10.93
10/26/2020 5:15:00 PM 10.81 51.458 0.058 6.71 0.89 10.94
10/26/2020 5:30:00 PM 10.81 51.458 0.058 6.71 0.88 10.94
10/26/2020 5:45:00 PM 10.81 51.458 0.058 6.7 0.88 10.92
10/26/2020 6:00:00 PM 10.82 51.476 0.058 6.7 0.95 10.89
10/26/2020 6:15:00 PM 10.81 51.458 0.058 6.69 0.88 10.86
10/26/2020 6:30:00 PM 10.81 51.458 0.058 6.69 0.9 10.81
10/26/2020 6:45:00 PM 10.8 51.44 0.058 6.68 1.03 10.76
10/26/2020 7:00:00 PM 10.8 51.44 0.058 6.65 0.9 10.73
10/26/2020 7:15:00 PM 10.8 51.44 0.059 6.67 0.93 10.71
10/26/2020 7:30:00 PM 10.81 51.458 0.059 6.66 0.88 10.75
10/26/2020 7:45:00 PM 10.81 51.458 0.059 6.67 0.87 10.72
10/26/2020 8:00:00 PM 10.82 51.476 0.059 6.67 0.92 10.72
10/26/2020 8:15:00 PM 10.81 51.458 0.059 6.65 1.15 10.69
10/26/2020 8:30:00 PM 10.81 51.458 0.059 6.66 0.89 10.72
10/26/2020 8:45:00 PM 10.82 51.476 0.059 6.66 0.9 10.74
10/26/2020 9:00:00 PM 10.82 51.476 0.059 6.66 0.93 10.7
10/26/2020 9:15:00 PM 10.82 51.476 0.059 6.66 0.88 10.7
10/26/2020 9:30:00 PM 10.82 51.476 0.059 6.67 0.89 10.72
10/26/2020 9:45:00 PM 10.82 51.476 0.059 6.67 0.89 10.72
10/26/2020 10:00:00 PM 10.82 51.476 0.059 6.66 0.9 10.75
10/26/2020 10:15:00 PM 10.82 51.476 0.059 6.66 0.88 10.75
10/26/2020 10:30:00 PM 10.82 51.476 0.059 6.66 0.88 10.73
10/26/2020 10:45:00 PM 10.82 51.476 0.059 6.66 0.91 10.73
10/26/2020 11:00:00 PM 10.82 51.476 0.059 6.66 0.89 10.7
10/26/2020 11:15:00 PM 10.83 51.494 0.059 6.67 0.9 10.75
10/26/2020 11:30:00 PM 10.83 51.494 0.059 6.66 0.88 10.77
10/26/2020 11:45:00 PM 10.83 51.494 0.059 6.66 0.86 10.74
10/27/2020 12:00:00 AM 10.82 51.476 0.059 6.65 0.93 10.74
10/27/2020 12:15:00 AM 10.83 51.494 0.059 6.66 0.89 10.75
10/27/2020 12:30:00 AM 10.83 51.494 0.059 6.66 0.92 10.75
10/27/2020 12:45:00 AM 10.83 51.494 0.059 6.66 0.9 10.76
10/27/2020 1:00:00 AM 10.84 51.512 0.059 6.66 0.91 10.75
10/27/2020 1:15:00 AM 10.84 51.512 0.059 6.64 0.88 10.74
10/27/2020 1:30:00 AM 10.84 51.512 0.059 6.66 0.91 10.74
10/27/2020 1:45:00 AM 10.84 51.512 0.059 6.66 0.89 10.76
10/27/2020 2:00:00 AM 10.83 51.494 0.059 6.66 0.91 10.75
10/27/2020 2:15:00 AM 10.81 51.458 0.059 6.64 0.88 10.74
10/27/2020 2:30:00 AM 10.79 51.422 0.059 6.64 0.87 10.74
10/27/2020 2:45:00 AM 10.78 51.404 0.059 6.64 0.88 10.74
10/27/2020 3:00:00 AM 10.77 51.386 0.059 6.64 0.89 10.76
10/27/2020 3:15:00 AM 10.75 51.35 0.059 6.64 0.89 10.77
10/27/2020 3:30:00 AM 10.73 51.314 0.059 6.64 0.87 10.77
10/27/2020 3:45:00 AM 10.71 51.278 0.059 6.65 0.91 10.77
10/27/2020 4:00:00 AM 10.69 51.242 0.059 6.65 0.9 10.81
10/27/2020 4:15:00 AM 10.68 51.224 0.059 6.65 9.46 10.79
10/27/2020 4:30:00 AM 10.66 51.188 0.059 6.66 1.11 10.8
10/27/2020 4:45:00 AM 10.65 51.17 0.059 6.65 0.91 10.84
10/27/2020 5:00:00 AM 10.63 51.134 0.059 6.66 0.9 10.86
10/27/2020 5:15:00 AM 10.61 51.098 0.059 6.67 0.96 10.86
10/27/2020 5:30:00 AM 10.59 51.062 0.059 6.67 0.92 10.87
10/27/2020 5:45:00 AM 10.58 51.044 0.059 6.66 0.91 10.94
10/27/2020 6:00:00 AM 10.55 50.99 0.059 6.68 0.89 10.93
10/27/2020 6:15:00 AM 10.52 50.936 0.059 6.67 0.89 10.99
10/27/2020 6:30:00 AM 10.5 50.9 0.059 6.67 0.94 11
10/27/2020 6:45:00 AM 10.47 50.846 0.059 6.68 0.9 11
10/27/2020 7:00:00 AM 10.44 50.792 0.059 6.68 0.93 11.02
10/27/2020 7:15:00 AM 10.42 50.756 0.059 6.64 0.93 11.01
10/27/2020 7:30:00 AM 10.4 50.72 0.059 6.65 0.95 11.02
10/27/2020 7:45:00 AM 10.37 50.666 0.06 6.67 0.91 11.04
10/27/2020 8:00:00 AM 10.36 50.648 0.06 6.67 0.93 11.05
10/27/2020 8:15:00 AM 10.35 50.63 0.06 6.68 0.89 11.02
10/27/2020 8:30:00 AM 10.35 50.63 0.06 6.71 0.95 11.04
10/27/2020 8:45:00 AM 10.35 50.63 0.06 6.69 0.95 11.08
10/27/2020 9:00:00 AM 10.36 50.648 0.059 6.71 0.91 11.13
10/27/2020 9:15:00 AM 10.38 50.684 0.059 6.73 0.93 11.22
10/27/2020 9:30:00 AM 10.38 50.684 0.059 6.73 0.94 11.21
10/27/2020 9:45:00 AM 10.4 50.72 0.059 6.75 0.93 11.25
10/27/2020 10:00:00 AM 10.43 50.774 0.059 6.77 0.94 11.35
10/27/2020 10:15:00 AM 10.45 50.81 0.059 6.77 0.9 11.34
10/27/2020 10:30:00 AM 10.45 50.81 0.059 6.77 0.92 11.33
10/27/2020 10:45:00 AM 10.47 50.846 0.059 6.77 0.95 11.36
10/27/2020 11:00:00 AM 10.51 50.918 0.059 6.78 0.96 11.38
10/27/2020 11:15:00 AM 10.53 50.954 0.059 6.79 0.92 11.39
10/27/2020 11:30:00 AM 10.57 51.026 0.059 6.8 0.93 11.4
10/27/2020 11:45:00 AM 10.61 51.098 0.059 6.78 0.94 11.42
10/27/2020 12:00:00 PM 10.67 51.206 0.058 6.82 0.91 11.43
10/27/2020 12:15:00 PM 10.73 51.314 0.058 6.82 0.93 11.42
10/27/2020 12:30:00 PM 10.78 51.404 0.058 6.83 0.9 11.44
10/27/2020 12:45:00 PM 10.81 51.458 0.058 6.83 0.9 11.41
10/27/2020 1:00:00 PM 10.88 51.584 0.058 6.84 0.91 11.43
10/27/2020 1:15:00 PM 10.93 51.674 0.058 6.84 0.94 11.41
10/27/2020 1:30:00 PM 10.99 51.782 0.058 6.85 0.9 11.4
10/27/2020 1:45:00 PM 11.07 51.926 0.058 6.86 0.99 11.39
10/27/2020 2:00:00 PM 11.11 51.998 0.058 6.86 0.95 11.38
10/27/2020 2:15:00 PM 11.14 52.052 0.058 6.85 0.93 11.34
10/27/2020 2:30:00 PM 11.17 52.106 0.058 6.84 0.92 11.31
10/27/2020 2:45:00 PM 11.19 52.142 0.057 6.84 0.94 11.31
10/27/2020 3:00:00 PM 11.23 52.214 0.057 6.83 0.93 11.27
10/27/2020 3:15:00 PM 11.24 52.232 0.057 6.83 0.91 11.27
10/27/2020 3:30:00 PM 11.24 52.232 0.057 6.8 0.91 11.23
10/27/2020 3:45:00 PM 11.25 52.25 0.057 6.81 0.91 11.22
10/27/2020 4:00:00 PM 11.26 52.268 0.057 6.8 0.89 11.19
10/27/2020 4:15:00 PM 11.27 52.286 0.057 6.81 0.9 11.16
10/27/2020 4:30:00 PM 11.26 52.268 0.057 6.78 0.92 11.13
10/27/2020 4:45:00 PM 11.24 52.232 0.057 6.77 0.92 11.08
10/27/2020 5:00:00 PM 11.23 52.214 0.057 6.75 0.92 11.03
10/27/2020 5:15:00 PM 11.22 52.196 0.058 6.75 0.93 10.98
10/27/2020 5:30:00 PM 11.2 52.16 0.058 6.73 0.91 10.94
10/27/2020 5:45:00 PM 11.18 52.124 0.058 6.73 0.93 10.9
10/27/2020 6:00:00 PM 11.16 52.088 0.058 6.71 0.92 10.86
10/27/2020 6:15:00 PM 11.14 52.052 0.058 6.7 0.91 10.84
10/27/2020 6:30:00 PM 11.12 52.016 0.058 6.7 0.91 10.82
10/27/2020 6:45:00 PM 11.1 51.98 0.058 6.69 0.93 10.79
10/27/2020 7:00:00 PM 11.08 51.944 0.058 6.69 0.91 10.8
10/27/2020 7:15:00 PM 11.06 51.908 0.059 6.67 0.94 10.77
10/27/2020 7:30:00 PM 11.04 51.872 0.059 6.7 0.93 10.79
10/27/2020 7:45:00 PM 11.01 51.818 0.059 6.7 0.91 10.76
10/27/2020 8:00:00 PM 10.99 51.782 0.059 6.72 0.94 10.79
10/27/2020 8:15:00 PM 10.96 51.728 0.059 6.7 0.94 10.76
10/27/2020 8:30:00 PM 10.94 51.692 0.059 6.71 0.93 10.78
10/27/2020 8:45:00 PM 10.91 51.638 0.059 6.69 0.92 10.78
10/27/2020 9:00:00 PM 10.89 51.602 0.059 6.7 0.95 10.79
10/27/2020 9:15:00 PM 10.86 51.548 0.059 6.7 0.95 10.78
10/27/2020 9:30:00 PM 10.84 51.512 0.059 6.7 0.93 10.8
10/27/2020 9:45:00 PM 10.82 51.476 0.059 6.69 0.92 10.8
10/27/2020 10:00:00 PM 10.8 51.44 0.059 6.7 0.93 10.82
10/27/2020 10:15:00 PM 10.78 51.404 0.059 6.7 0.9 10.83
10/27/2020 10:30:00 PM 10.76 51.368 0.059 6.7 0.91 10.85
10/27/2020 10:45:00 PM 10.73 51.314 0.059 6.69 0.92 10.83
10/27/2020 11:00:00 PM 10.71 51.278 0.059 6.68 0.91 10.85
10/27/2020 11:15:00 PM 10.69 51.242 0.059 6.7 0.89 10.87
10/27/2020 11:30:00 PM 10.68 51.224 0.059 6.68 0.9 10.87
10/27/2020 11:45:00 PM 10.67 51.206 0.059 6.7 0.9 10.86
10/28/2020 12:00:00 AM 10.65 51.17 0.059 6.7 0.91 10.85
10/28/2020 12:15:00 AM 10.63 51.134 0.059 6.69 0.9 10.85
10/28/2020 12:30:00 AM 10.62 51.116 0.06 6.69 0.89 10.85
10/28/2020 12:45:00 AM 10.6 51.08 0.059 6.69 0.92 10.88
10/28/2020 1:00:00 AM 10.58 51.044 0.06 6.68 0.91 10.86
10/28/2020 1:15:00 AM 10.57 51.026 0.059 6.68 0.92 10.85
10/28/2020 1:30:00 AM 10.55 50.99 0.059 6.68 0.91 10.88
10/28/2020 1:45:00 AM 10.54 50.972 0.059 6.7 0.91 10.88
10/28/2020 2:00:00 AM 10.52 50.936 0.059 6.69 0.93 10.89
10/28/2020 2:15:00 AM 10.5 50.9 0.059 6.69 0.93 10.9
10/28/2020 2:30:00 AM 10.48 50.864 0.059 6.69 0.96 10.87
10/28/2020 2:45:00 AM 10.46 50.828 0.059 6.69 0.95 10.88
10/28/2020 3:00:00 AM 10.44 50.792 0.059 6.7 0.94 10.89
10/28/2020 3:15:00 AM 10.43 50.774 0.059 6.71 0.91 10.9
10/28/2020 3:30:00 AM 10.41 50.738 0.059 6.68 0.95 10.9
10/28/2020 3:45:00 AM 10.4 50.72 0.059 6.7 0.95 10.88
10/28/2020 4:00:00 AM 10.38 50.684 0.059 6.71 0.94 10.87
10/28/2020 4:15:00 AM 10.36 50.648 0.059 6.68 0.94 10.88
10/28/2020 4:30:00 AM 10.35 50.63 0.059 6.7 0.92 10.87
10/28/2020 4:45:00 AM 10.33 50.594 0.059 6.7 0.92 10.89
10/28/2020 5:00:00 AM 10.32 50.576 0.058 6.68 0.94 10.9
10/28/2020 5:15:00 AM 10.31 50.558 0.058 6.66 0.94 10.9
10/28/2020 5:30:00 AM 10.3 50.54 0.058 6.67 0.95 10.91
10/28/2020 5:45:00 AM 10.29 50.522 0.058 6.66 0.93 10.9
10/28/2020 6:00:00 AM 10.28 50.504 0.058 6.65 0.93 10.91
10/28/2020 6:15:00 AM 10.27 50.486 0.058 6.66 0.94 10.91
10/28/2020 6:30:00 AM 10.26 50.468 0.058 6.66 0.95 10.93
10/28/2020 6:45:00 AM 10.25 50.45 0.058 6.66 0.96 10.92
10/28/2020 7:00:00 AM 10.24 50.432 0.058 6.6 0.94 10.9
10/28/2020 7:15:00 AM 10.24 50.432 0.058 6.64 1.02 10.91
10/28/2020 7:30:00 AM 10.23 50.414 0.058 6.65 0.93 10.9
10/28/2020 7:45:00 AM 10.22 50.396 0.058 6.6 1.06 10.92
10/28/2020 8:00:00 AM 10.22 50.396 0.058 6.65 1.54 10.94
10/28/2020 8:15:00 AM 10.21 50.378 0.057 6.62 1.03 10.97
10/28/2020 8:30:00 AM 10.21 50.378 0.058 6.64 0.97 10.92
10/28/2020 8:45:00 AM 10.22 50.396 0.057 6.67 0.95 10.98
10/28/2020 9:00:00 AM 10.23 50.414 0.057 6.67 0.97 10.99
10/28/2020 9:15:00 AM 10.23 50.414 0.057 6.68 0.97 11.02
10/28/2020 9:30:00 AM 10.24 50.432 0.057 6.68 0.95 11.06
10/28/2020 9:45:00 AM 10.26 50.468 0.057 6.69 0.93 11.1
10/28/2020 10:00:00 AM 10.28 50.504 0.057 6.67 0.93 11.14
10/28/2020 10:15:00 AM 10.3 50.54 0.057 6.7 0.94 11.16
10/28/2020 10:30:00 AM 10.34 50.612 0.057 6.71 0.93 11.19
10/28/2020 10:45:00 AM 10.39 50.702 0.057 6.73 0.98 11.23
10/28/2020 11:00:00 AM 10.44 50.792 0.057 6.75 0.99 11.29
10/28/2020 11:15:00 AM 10.51 50.918 0.057 6.77 0.98 11.31
10/28/2020 11:30:00 AM 10.57 51.026 0.057 6.77 0.98 11.32
10/28/2020 11:45:00 AM 10.64 51.152 0.057 6.79 0.96 11.34
10/28/2020 12:00:00 PM 10.7 51.26 0.057 6.79 1.01 11.34
10/28/2020 12:15:00 PM 10.73 51.314 0.057 6.79 0.99 11.33
10/28/2020 12:30:00 PM 10.77 51.386 0.057 6.78 0.98 11.31
10/28/2020 12:45:00 PM 10.82 51.476 0.057 6.8 0.93 11.31
10/28/2020 1:00:00 PM 10.87 51.566 0.057 6.79 0.95 11.31
10/28/2020 1:15:00 PM 10.94 51.692 0.057 6.8 0.98 11.32
10/28/2020 1:30:00 PM 11.01 51.818 0.057 6.82 0.95 11.31
10/28/2020 1:45:00 PM 11.09 51.962 0.056 6.82 0.96 11.3
10/28/2020 2:00:00 PM 11.16 52.088 0.056 6.84 0.92 11.28
10/28/2020 2:15:00 PM 11.24 52.232 0.056 6.82 0.97 11.26
10/28/2020 2:30:00 PM 11.32 52.376 0.056 6.83 0.95 11.25
10/28/2020 2:45:00 PM 11.36 52.448 0.056 6.83 1.03 11.22
10/28/2020 3:00:00 PM 11.41 52.538 0.056 6.83 1.01 11.2
10/28/2020 3:15:00 PM 11.45 52.61 0.056 6.83 1 11.17
10/28/2020 3:30:00 PM 11.51 52.718 0.056 6.81 0.94 11.15
10/28/2020 3:45:00 PM 11.53 52.754 0.056 6.81 0.97 11.14
10/28/2020 4:00:00 PM 11.54 52.772 0.056 6.8 0.96 11.09
10/28/2020 4:15:00 PM 11.55 52.79 0.056 6.79 0.99 11.05
10/28/2020 4:30:00 PM 11.56 52.808 0.056 6.78 0.99 11.02
10/28/2020 4:45:00 PM 11.56 52.808 0.056 6.76 0.92 10.98
10/28/2020 5:00:00 PM 11.55 52.79 0.057 6.75 0.96 10.93
10/28/2020 5:15:00 PM 11.54 52.772 0.057 6.74 0.98 10.89
10/28/2020 5:30:00 PM 11.52 52.736 0.057 6.72 0.98 10.86
10/28/2020 5:45:00 PM 11.51 52.718 0.057 6.73 1.01 10.81
10/28/2020 6:00:00 PM 11.48 52.664 0.057 6.69 0.98 10.78
10/28/2020 6:15:00 PM 11.47 52.646 0.057 6.69 1 10.73
10/28/2020 6:30:00 PM 11.44 52.592 0.057 6.68 0.98 10.7
10/28/2020 6:45:00 PM 11.41 52.538 0.058 6.68 1.03 10.68
10/28/2020 7:00:00 PM 11.39 52.502 0.058 6.68 0.99 10.67
10/28/2020 7:15:00 PM 11.36 52.448 0.058 6.65 1.02 10.68
10/28/2020 7:30:00 PM 11.32 52.376 0.058 6.66 0.97 10.68
10/28/2020 7:45:00 PM 11.28 52.304 0.058 6.65 0.97 10.68
10/28/2020 8:00:00 PM 11.23 52.214 0.058 6.66 1 10.7
10/28/2020 8:15:00 PM 11.19 52.142 0.058 6.64 0.99 10.71
10/28/2020 8:30:00 PM 11.15 52.07 0.058 6.64 1.03 10.75
10/28/2020 8:45:00 PM 11.1 51.98 0.059 6.64 0.99 10.75
10/28/2020 9:00:00 PM 11.06 51.908 0.059 6.64 0.99 10.77
10/28/2020 9:15:00 PM 11.01 51.818 0.059 6.64 1.06 10.78
10/28/2020 9:30:00 PM 10.96 51.728 0.059 6.64 1.01 10.8
10/28/2020 9:45:00 PM 10.92 51.656 0.059 6.63 0.99 10.82
10/28/2020 10:00:00 PM 10.88 51.584 0.059 6.64 1 10.84
10/28/2020 10:15:00 PM 10.84 51.512 0.059 6.63 1.02 10.85
10/28/2020 10:30:00 PM 10.8 51.44 0.059 6.66 1.01 10.85
10/28/2020 10:45:00 PM 10.75 51.35 0.059 6.61 1.01 10.87
10/28/2020 11:00:00 PM 10.71 51.278 0.059 6.65 1.03 10.88
10/28/2020 11:15:00 PM 10.67 51.206 0.059 6.66 1.02 10.9
10/28/2020 11:30:00 PM 10.64 51.152 0.059 6.63 0.99 10.91
10/28/2020 11:45:00 PM 10.6 51.08 0.059 6.63 1.03 10.92
10/29/2020 12:00:00 AM 10.56 51.008 0.059 6.63 1.03 10.94
10/29/2020 12:15:00 AM 10.53 50.954 0.059 6.63 1.01 10.95
10/29/2020 12:30:00 AM 10.49 50.882 0.059 6.64 1.01 10.96
10/29/2020 12:45:00 AM 10.46 50.828 0.059 6.63 1.08 10.97
10/29/2020 1:00:00 AM 10.44 50.792 0.059 6.65 1.03 10.99
10/29/2020 1:15:00 AM 10.4 50.72 0.059 6.64 1.03 11
10/29/2020 1:30:00 AM 10.38 50.684 0.059 6.64 1.01 11
10/29/2020 1:45:00 AM 10.35 50.63 0.059 6.65 1.03 11.01
10/29/2020 2:00:00 AM 10.32 50.576 0.059 6.66 1.02 11.02
10/29/2020 2:15:00 AM 10.3 50.54 0.059 6.62 1.06 11.03
10/29/2020 2:30:00 AM 10.29 50.522 0.059 6.65 0.99 11.03
10/29/2020 2:45:00 AM 10.27 50.486 0.059 6.65 1.03 11.05
10/29/2020 3:00:00 AM 10.25 50.45 0.059 6.64 1.01 11.05
10/29/2020 3:15:00 AM 10.24 50.432 0.059 6.66 1.06 11.04
10/29/2020 3:30:00 AM 10.23 50.414 0.059 6.66 1 11.06
10/29/2020 3:45:00 AM 10.22 50.396 0.059 6.66 1.03 11.06
10/29/2020 4:00:00 AM 10.21 50.378 0.059 6.67 1.04 11.06
10/29/2020 4:15:00 AM 10.2 50.36 0.059 6.69 1.01 11.06
10/29/2020 4:30:00 AM 10.2 50.36 0.059 6.6 0.99 11.05
10/29/2020 4:45:00 AM 10.19 50.342 0.059 6.66 1.03 11.06
10/29/2020 5:00:00 AM 10.18 50.324 0.059 6.67 1.02 11.05
10/29/2020 5:15:00 AM 10.18 50.324 0.059 6.66 1.03 11.06
10/29/2020 5:30:00 AM 10.17 50.306 0.059 6.68 1.02 11.05
10/29/2020 5:45:00 AM 10.16 50.288 0.059 6.68 1.02 11.06
10/29/2020 6:00:00 AM 10.16 50.288 0.059 6.65 0.98 11.05
10/29/2020 6:15:00 AM 10.16 50.288 0.059 6.65 1.01 11.05
10/29/2020 6:30:00 AM 10.15 50.27 0.059 6.66 1 11.04
10/29/2020 6:45:00 AM 10.15 50.27 0.059 6.65 1.03 11.04
10/29/2020 7:00:00 AM 10.14 50.252 0.059 6.66 1.02 11.04
10/29/2020 7:15:00 AM 10.13 50.234 0.059 6.67 1.03 11.03
10/29/2020 7:30:00 AM 10.12 50.216 0.058 6.67 1.02 11.04
10/29/2020 7:45:00 AM 10.11 50.198 0.058 6.6 1.06 11.04
10/29/2020 8:00:00 AM 10.09 50.162 0.058 6.65 1.2 11.05
10/29/2020 8:15:00 AM 10.07 50.126 0.058 6.67 3.49 11.06
10/29/2020 8:30:00 AM 10.05 50.09 0.058 6.67 1.33 11.06
10/29/2020 8:45:00 AM 10.02 50.036 0.058 6.68 0.98 11.09
10/29/2020 9:00:00 AM 10 50 0.057 6.68 1.02 11.12
10/29/2020 9:15:00 AM 9.99 49.982 0.057 6.69 1.25 11.17
10/29/2020 9:30:00 AM 9.97 49.946 0.057 6.62 1.34 11.2
10/29/2020 9:45:00 AM 9.96 49.928 0.057 6.67 1 11.23
10/29/2020 10:00:00 AM 9.95 49.91 0.056 6.69 1.04 11.25
10/29/2020 10:15:00 AM 9.94 49.892 0.056 6.7 1.07 11.28
10/29/2020 10:30:00 AM 9.93 49.874 0.056 6.69 1.07 11.31
10/29/2020 10:45:00 AM 9.92 49.856 0.056 6.7 1.02 11.31
10/29/2020 11:00:00 AM 9.93 49.874 0.056 6.7 1.04 11.33
10/29/2020 11:15:00 AM 9.93 49.874 0.055 6.72 1.14 11.38
10/29/2020 11:30:00 AM 9.93 49.874 0.055 6.74 1.11 11.39
10/29/2020 11:45:00 AM 9.94 49.892 0.055 6.72 1.25 11.41
10/29/2020 12:00:00 PM 9.94 49.892 0.055 6.74 1.24 11.41
10/29/2020 12:15:00 PM 9.95 49.91 0.054 6.75 1.28 11.44
10/29/2020 12:30:00 PM 9.97 49.946 0.054 6.68 1.48 11.45
10/29/2020 12:45:00 PM 9.98 49.964 0.054 6.42 1.52 11.48
10/29/2020 1:00:00 PM 9.99 49.982 0.054 6.45 1.49 11.47
10/29/2020 1:15:00 PM 9.99 49.982 0.054 6.42 1.65 11.47
10/29/2020 1:30:00 PM 10 50 0.054 6.4 1.79 11.46
10/29/2020 1:45:00 PM 9.99 49.982 0.053 6.39 2.15 11.44
10/29/2020 2:00:00 PM 10 50 0.053 6.43 2.05 11.43
10/29/2020 2:15:00 PM 10 50 0.053 6.44 2.39 11.43
10/29/2020 2:30:00 PM 9.99 49.982 0.053 6.44 2.97 11.42
10/29/2020 2:45:00 PM 10 50 0.053 6.44 3.93 11.42
10/29/2020 3:00:00 PM 10.01 50.018 0.053 6.45 4.08 11.43
10/29/2020 3:15:00 PM 10.01 50.018 0.053 6.6 4.14 11.41
10/29/2020 3:30:00 PM 10.02 50.036 0.054 6.42 5.05 11.4
10/29/2020 3:45:00 PM 10.02 50.036 0.054 6.53 5.29 11.39
10/29/2020 4:00:00 PM 10.01 50.018 0.055 6.43 4.96 11.38
10/29/2020 4:15:00 PM 10 50 0.055 6.48 5.71 11.38
10/29/2020 4:30:00 PM 9.98 49.964 0.055 6.42 6.32 11.37
10/29/2020 4:45:00 PM 9.97 49.946 0.055 6.53 8.59 11.37
10/29/2020 5:00:00 PM 9.96 49.928 0.056 6.53 10.44 11.36
10/29/2020 5:15:00 PM 9.95 49.91 0.056 6.61 8.59 11.36
10/29/2020 5:30:00 PM 9.94 49.892 0.057 6.64 10.52 11.36
10/29/2020 5:45:00 PM 9.92 49.856 0.057 6.57 10.52 11.36
10/29/2020 6:00:00 PM 9.91 49.838 0.057 6.48 10.92 11.37
10/29/2020 6:15:00 PM 9.9 49.82 0.057 6.6 11.35 11.37
10/29/2020 6:30:00 PM 9.88 49.784 0.058 6.6 11.1 11.37
10/29/2020 6:45:00 PM 9.87 49.766 0.058 6.63 10.27 11.37
10/29/2020 7:00:00 PM 9.86 49.748 0.058 6.62 10.33 11.38
10/29/2020 7:15:00 PM 9.86 49.748 0.059 6.33 8.99 11.38
10/29/2020 7:30:00 PM 9.85 49.73 0.059 6.55 9.37 11.38
10/29/2020 7:45:00 PM 9.84 49.712 0.059 6.57 10.41 11.4
10/29/2020 8:00:00 PM 9.83 49.694 0.059 6.62 11.94 11.42
10/29/2020 8:15:00 PM 9.82 49.676 0.059 6.55 9.66 11.42
10/29/2020 8:30:00 PM 9.81 49.658 0.059 6.37 8.41 11.42
10/29/2020 8:45:00 PM 9.8 49.64 0.059 6.53 7.65 11.43
10/29/2020 9:00:00 PM 9.79 49.622 0.059 6.59 7.39 11.44
10/29/2020 9:15:00 PM 9.78 49.604 0.059 6.54 7.25 11.45
10/29/2020 9:30:00 PM 9.76 49.568 0.059 6.56 7.97 11.47
10/29/2020 9:45:00 PM 9.75 49.55 0.059 6.42 7.82 11.49
10/29/2020 10:00:00 PM 9.73 49.514 0.059 6.29 9.23 11.5
10/29/2020 10:15:00 PM 9.7 49.46 0.059 6.43 8.76 11.51
10/29/2020 10:30:00 PM 9.68 49.424 0.059 6.45 8.67 11.53
10/29/2020 10:45:00 PM 9.66 49.388 0.059 6.23 9.77 11.54
10/29/2020 11:00:00 PM 9.63 49.334 0.059 6.37 7.14 11.55
10/29/2020 11:15:00 PM 9.61 49.298 0.058 6.41 7.41 11.56
10/29/2020 11:30:00 PM 9.58 49.244 0.058 6.32 7.35 11.56
10/29/2020 11:45:00 PM 9.55 49.19 0.058 6.35 6.24 11.57
10/30/2020 12:00:00 AM 9.52 49.136 0.058 6.43 5.92 11.58
10/30/2020 12:15:00 AM 9.49 49.082 0.058 6.39 5.15 11.58
10/30/2020 12:30:00 AM 9.47 49.046 0.058 6.21 6.56 11.58
10/30/2020 12:45:00 AM 9.44 48.992 0.058 6.23 5.04 11.59
10/30/2020 1:00:00 AM 9.42 48.956 0.058 6.28 5.28 11.6
10/30/2020 1:15:00 AM 9.39 48.902 0.058 6.25 4.62 11.61
10/30/2020 1:30:00 AM 9.36 48.848 0.058 6.21 4.92 11.63
10/30/2020 1:45:00 AM 9.33 48.794 0.058 6.39 4.53 11.64
10/30/2020 2:00:00 AM 9.3 48.74 0.058 6.41 4.64 11.65
10/30/2020 2:15:00 AM 9.27 48.686 0.059 6.37 4.34 11.65
10/30/2020 2:30:00 AM 9.25 48.65 0.06 6.42 4.61 11.66
10/30/2020 2:45:00 AM 9.23 48.614 0.06 6.45 4.7 11.67
10/30/2020 3:00:00 AM 9.21 48.578 0.061 6.45 4.8 11.68
10/30/2020 3:15:00 AM 9.19 48.542 0.061 6.5 4.8 11.69
10/30/2020 3:30:00 AM 9.17 48.506 0.062 6.42 5.24 11.7
10/30/2020 3:45:00 AM 9.14 48.452 0.063 6.4 4.76 11.7
10/30/2020 4:00:00 AM 9.12 48.416 0.064 6.41 5.64 11.71
10/30/2020 4:15:00 AM 9.1 48.38 0.065 6.4 6.81 11.72
10/30/2020 4:30:00 AM 9.07 48.326 0.065 6.38 8.18 11.73
10/30/2020 4:45:00 AM 9.04 48.272 0.066 6.43 9.28 11.74
10/30/2020 5:00:00 AM 9.01 48.218 0.066 6.4 10.07 11.74
10/30/2020 5:15:00 AM 8.98 48.164 0.065 6.38 9.95 11.75
10/30/2020 5:30:00 AM 8.94 48.092 0.065 6.37 9.38 11.76
10/30/2020 5:45:00 AM 8.9 48.02 0.065 6.34 9.37 11.77
10/30/2020 6:00:00 AM 8.85 47.93 0.064 6.34 8.17 11.78
10/30/2020 6:15:00 AM 8.81 47.858 0.064 6.37 7.52 11.8
10/30/2020 6:30:00 AM 8.77 47.786 0.064 6.38 6.74 11.82
10/30/2020 6:45:00 AM 8.73 47.714 0.063 6.26 6.06 11.83
10/30/2020 7:00:00 AM 8.69 47.642 0.063 6.31 5.94 11.86
10/30/2020 7:15:00 AM 8.65 47.57 0.063 6.25 5.43 11.88
10/30/2020 7:30:00 AM 8.6 47.48 0.063 6.31 5.39 11.9
10/30/2020 7:45:00 AM 8.57 47.426 0.063 6.34 5.47 11.91
10/30/2020 8:00:00 AM 8.53 47.354 0.063 6.3 5.3 11.93
10/30/2020 8:15:00 AM 8.49 47.282 0.062 6.38 5.22 11.95
10/30/2020 8:30:00 AM 8.46 47.228 0.062 6.39 5.19 11.98
10/30/2020 8:45:00 AM 8.44 47.192 0.062 6.37 5.23 12.01
10/30/2020 9:00:00 AM 8.42 47.156 0.062 6.3 4.6 12.03
10/30/2020 9:15:00 AM 8.4 47.12 0.062 6.38 4.57 12.05
10/30/2020 9:30:00 AM 8.4 47.12 0.062 6.38 4.34 12.07
10/30/2020 9:45:00 AM 8.4 47.12 0.062 6.41 4.28 12.09
10/30/2020 10:00:00 AM 8.4 47.12 0.062 6.34 4.3 12.1
10/30/2020 10:15:00 AM 8.4 47.12 0.061 6.34 4.03 12.11
10/30/2020 10:30:00 AM 8.4 47.12 0.061 6.43 3.87 12.12
10/30/2020 10:45:00 AM 8.43 47.174 0.061 6.36 3.72 12.14
10/30/2020 11:00:00 AM 8.44 47.192 0.061 6.39 3.68 12.16
10/30/2020 11:15:00 AM 8.45 47.21 0.06 6.39 3.71 12.16
10/30/2020 11:30:00 AM 8.45 47.21 0.06 6.42 3.78 12.16
10/30/2020 11:45:00 AM 8.47 47.246 0.06 6.29 3.38 12.16
10/30/2020 12:00:00 PM 8.49 47.282 0.06 6.33 3.5 12.17
10/30/2020 12:15:00 PM 8.52 47.336 0.06 6.38 3.5 12.16
10/30/2020 12:30:00 PM 8.54 47.372 0.06 6.35 3.43 12.17
10/30/2020 12:45:00 PM 8.53 47.354 0.06 6.37 3.44 12.17
10/30/2020 1:00:00 PM 8.51 47.318 0.06 6.39 3.37 12.16
10/30/2020 1:15:00 PM 8.51 47.318 0.06 6.32 3.49 12.16
10/30/2020 1:30:00 PM 8.52 47.336 0.06 6.35 3.24 12.16
10/30/2020 1:45:00 PM 8.53 47.354 0.061 6.36 3.11 12.17
10/30/2020 2:00:00 PM 8.54 47.372 0.061 6.38 3.28 12.17
10/30/2020 2:15:00 PM 8.52 47.336 0.061 6.29 3.15 12.15
10/30/2020 2:30:00 PM 8.49 47.282 0.061 6.35 3.06 12.14
10/30/2020 2:45:00 PM 8.48 47.264 0.062 6.37 3.13 12.14
10/30/2020 3:00:00 PM 8.47 47.246 0.062 6.39 3.53 12.15
10/30/2020 3:15:00 PM 8.48 47.264 0.062 6.44 3.15 12.16
10/30/2020 3:30:00 PM 8.49 47.282 0.062 6.45 3.04 12.17
10/30/2020 3:45:00 PM 8.49 47.282 0.062 6.42 3.01 12.17
10/30/2020 4:00:00 PM 8.47 47.246 0.062 6.43 2.77 12.15
10/30/2020 4:15:00 PM 8.46 47.228 0.062 6.35 2.93 12.14
10/30/2020 4:30:00 PM 8.45 47.21 0.063 6.44 3.02 12.13
10/30/2020 4:45:00 PM 8.44 47.192 0.063 6.43 2.86 12.14
10/30/2020 5:00:00 PM 8.41 47.138 0.063 6.42 2.83 12.15
10/30/2020 5:15:00 PM 8.38 47.084 0.063 6.4 2.99 12.15
10/30/2020 5:30:00 PM 8.33 46.994 0.063 6.34 2.96 12.15
10/30/2020 5:45:00 PM 8.28 46.904 0.063 6.23 2.95 12.15
10/30/2020 6:00:00 PM 8.23 46.814 0.063 6.23 2.81 12.15
10/30/2020 6:15:00 PM 8.18 46.724 0.063 6.22 2.78 12.16
10/30/2020 6:30:00 PM 8.13 46.634 0.063 6.23 2.92 12.17
10/30/2020 6:45:00 PM 8.08 46.544 0.063 6.18 2.89 12.19
10/30/2020 7:00:00 PM 8.02 46.436 0.063 6.23 3.08 12.2
10/30/2020 7:15:00 PM 7.96 46.328 0.063 6.26 3.03 12.23
10/30/2020 7:30:00 PM 7.9 46.22 0.063 6.16 2.96 12.25
10/30/2020 7:45:00 PM 7.84 46.112 0.063 6.16 2.89 12.27
10/30/2020 8:00:00 PM 7.79 46.022 0.063 6.2 2.8 12.3
10/30/2020 8:15:00 PM 7.73 45.914 0.063 6.19 2.7 12.32
10/30/2020 8:30:00 PM 7.67 45.806 0.063 6.2 2.78 12.33
10/30/2020 8:45:00 PM 7.61 45.698 0.063 6.12 2.69 12.35
10/30/2020 9:00:00 PM 7.55 45.59 0.063 6.22 2.66 12.37
10/30/2020 9:15:00 PM 7.49 45.482 0.062 6.22 2.67 12.39
10/30/2020 9:30:00 PM 7.43 45.374 0.062 6.2 2.59 12.42
10/30/2020 9:45:00 PM 7.37 45.266 0.062 6.21 2.65 12.44
10/30/2020 10:00:00 PM 7.32 45.176 0.062 6.14 2.58 12.46
10/30/2020 10:15:00 PM 7.26 45.068 0.062 6.13 2.61 12.49
10/30/2020 10:30:00 PM 7.21 44.978 0.062 6.16 2.77 12.51
10/30/2020 10:45:00 PM 7.16 44.888 0.062 6.19 2.62 12.53
10/30/2020 11:00:00 PM 7.12 44.816 0.062 6.14 2.59 12.54
10/30/2020 11:15:00 PM 7.08 44.744 0.062 6.18 2.63 12.56
10/30/2020 11:30:00 PM 7.05 44.69 0.062 6.19 2.48 12.58
10/30/2020 11:45:00 PM 7.03 44.654 0.062 6.21 2.49 12.59
10/31/2020 12:00:00 AM 7.01 44.618 0.062 6.21 2.67 12.59
10/31/2020 12:15:00 AM 6.98 44.564 0.062 6.17 2.47 12.61
10/31/2020 12:30:00 AM 6.96 44.528 0.062 6.18 2.46 12.61
10/31/2020 12:45:00 AM 6.94 44.492 0.062 6.28 2.39 12.62
10/31/2020 1:00:00 AM 6.91 44.438 0.062 6.19 2.44 12.64
10/31/2020 1:15:00 AM 6.88 44.384 0.062 6.19 2.43 12.65
10/31/2020 1:30:00 AM 6.85 44.33 0.062 6.22 2.51 12.66
10/31/2020 1:45:00 AM 6.82 44.276 0.062 6.29 2.43 12.67
10/31/2020 2:00:00 AM 6.8 44.24 0.062 6.27 2.43 12.69
10/31/2020 2:15:00 AM 6.78 44.204 0.062 6.29 2.45 12.7
10/31/2020 2:30:00 AM 6.76 44.168 0.062 6.21 2.32 12.71
10/31/2020 2:45:00 AM 6.74 44.132 0.062 6.25 2.39 12.71
10/31/2020 3:00:00 AM 6.73 44.114 0.062 6.28 2.33 12.72
10/31/2020 3:15:00 AM 6.72 44.096 0.061 6.23 2.33 12.73
10/31/2020 3:30:00 AM 6.7 44.06 0.061 6.28 2.29 12.73
10/31/2020 3:45:00 AM 6.69 44.042 0.061 6.3 2.31 12.74
10/31/2020 4:00:00 AM 6.68 44.024 0.061 6.27 2.26 12.75
10/31/2020 4:15:00 AM 6.67 44.006 0.061 6.29 2.28 12.75
10/31/2020 4:30:00 AM 6.66 43.988 0.061 6.09 2.26 12.75
10/31/2020 4:45:00 AM 6.64 43.952 0.061 6.15 2.29 12.76
10/31/2020 5:00:00 AM 6.63 43.934 0.061 6.21 2.3 12.77
10/31/2020 5:15:00 AM 6.62 43.916 0.061 6.14 2.27 12.78
10/31/2020 5:30:00 AM 6.61 43.898 0.061 6.18 2.6 12.77
10/31/2020 5:45:00 AM 6.6 43.88 0.061 6.16 2.24 12.79
10/31/2020 6:00:00 AM 6.59 43.862 0.061 6.18 2.22 12.79
10/31/2020 6:15:00 AM 6.58 43.844 0.061 6.18 2.44 12.79
10/31/2020 6:30:00 AM 6.58 43.844 0.061 6.21 2.21 12.8
10/31/2020 6:45:00 AM 6.55 43.79 0.061 6.17 2.27 12.81
10/31/2020 7:00:00 AM 6.51 43.718 0.061 6.16 2.2 12.83
10/31/2020 7:15:00 AM 6.47 43.646 0.061 6.16 2.14 12.84
10/31/2020 7:30:00 AM 6.43 43.574 0.061 6.09 2.16 12.85
10/31/2020 7:45:00 AM 6.39 43.502 0.061 6.16 2.13 12.87
10/31/2020 8:00:00 AM 6.35 43.43 0.061 6.06 2.24 12.88
10/31/2020 8:15:00 AM 6.3 43.34 0.061 6.16 2.15 12.93
10/31/2020 8:30:00 AM 6.27 43.286 0.061 6.19 2.08 12.96
10/31/2020 8:45:00 AM 6.25 43.25 0.061 6.21 2.23 12.99
10/31/2020 9:00:00 AM 6.23 43.214 0.061 6.2 2.19 13.02
10/31/2020 9:15:00 AM 6.23 43.214 0.061 6.23 2.05 13.04
10/31/2020 9:30:00 AM 6.24 43.232 0.061 6.22 2.05 13.06
10/31/2020 9:45:00 AM 6.26 43.268 0.061 6.19 2.04 13.07
10/31/2020 10:00:00 AM 6.29 43.322 0.061 6.22 2.12 13.08
10/31/2020 10:15:00 AM 6.32 43.376 0.061 6.15 2.05 13.08
10/31/2020 10:30:00 AM 6.31 43.358 0.061 6.21 2.05 13.09
10/31/2020 10:45:00 AM 6.35 43.43 0.061 6.19 2.56 13.09
10/31/2020 11:00:00 AM 6.46 43.628 0.061 6.26 2.2 13.09
10/31/2020 11:15:00 AM 6.54 43.772 0.061 6.25 2.17 13.08
10/31/2020 11:30:00 AM 6.62 43.916 0.061 6.27 2.04 13.04
10/31/2020 11:45:00 AM 6.72 44.096 0.061 6.3 2.04 12.99
10/31/2020 12:00:00 PM 6.84 44.312 0.061 6.31 2.04 12.94
10/31/2020 12:15:00 PM 6.97 44.546 0.061 6.26 2.07 12.9
10/31/2020 12:30:00 PM 7.17 44.906 0.061 6.34 1.98 12.86
10/31/2020 12:45:00 PM 7.35 45.23 0.061 6.38 2.02 12.8
10/31/2020 1:00:00 PM 7.45 45.41 0.061 6.35 2.08 12.75
10/31/2020 1:15:00 PM 7.51 45.518 0.061 6.33 2.03 12.72
10/31/2020 1:30:00 PM 7.64 45.752 0.061 6.3 2 12.69
10/31/2020 1:45:00 PM 7.72 45.896 0.061 6.37 2.07 12.66
10/31/2020 2:00:00 PM 7.71 45.878 0.061 6.27 2.01 12.64
10/31/2020 2:15:00 PM 7.7 45.86 0.061 6.26 2.1 12.62
10/31/2020 2:30:00 PM 7.68 45.824 0.061 6.26 2.04 12.61
10/31/2020 2:45:00 PM 7.65 45.77 0.061 6.26 2.1 12.6
10/31/2020 3:00:00 PM 7.61 45.698 0.061 6.21 2.1 12.6
10/31/2020 3:15:00 PM 7.57 45.626 0.061 6.22 2.14 12.61
10/31/2020 3:30:00 PM 7.52 45.536 0.061 6.25 2.1 12.61
10/31/2020 3:45:00 PM 7.5 45.5 0.061 6.21 2.07 12.62
10/31/2020 4:00:00 PM 7.51 45.518 0.061 6.24 1.99 12.63
10/31/2020 4:15:00 PM 7.51 45.518 0.061 6.31 2.02 12.64
10/31/2020 4:30:00 PM 7.49 45.482 0.061 6.19 2.03 12.64
10/31/2020 4:45:00 PM 7.48 45.464 0.061 6.22 2.04 12.63
10/31/2020 5:00:00 PM 7.45 45.41 0.061 6.24 2.05 12.62
10/31/2020 5:15:00 PM 7.43 45.374 0.061 6.24 2.08 12.6
10/31/2020 5:30:00 PM 7.39 45.302 0.061 6.25 2.03 12.59
10/31/2020 5:45:00 PM 7.37 45.266 0.061 6.24 2 12.58
10/31/2020 6:00:00 PM 7.34 45.212 0.061 6.23 2 12.56
10/31/2020 6:15:00 PM 7.31 45.158 0.062 6.23 2.03 12.55
10/31/2020 6:30:00 PM 7.26 45.068 0.062 6.23 2.02 12.54
10/31/2020 6:45:00 PM 7.2 44.96 0.062 6.2 2.05 12.54
10/31/2020 7:00:00 PM 7.14 44.852 0.062 6.21 2.24 12.55
10/31/2020 7:15:00 PM 7.08 44.744 0.062 6.29 2.04 12.57
10/31/2020 7:30:00 PM 7.01 44.618 0.062 6.24 2.14 12.59
10/31/2020 7:45:00 PM 6.93 44.474 0.062 6.14 2.08 12.61
10/31/2020 8:00:00 PM 6.87 44.366 0.062 6.15 2.04 12.63
10/31/2020 8:15:00 PM 6.8 44.24 0.062 6.15 2.03 12.66
10/31/2020 8:30:00 PM 6.73 44.114 0.062 6.19 2.03 12.68
10/31/2020 8:45:00 PM 6.66 43.988 0.062 6.16 1.93 12.7
10/31/2020 9:00:00 PM 6.59 43.862 0.062 6.21 1.98 12.73
10/31/2020 9:15:00 PM 6.52 43.736 0.062 6.22 1.98 12.75
10/31/2020 9:30:00 PM 6.46 43.628 0.062 6.23 1.92 12.77
10/31/2020 9:45:00 PM 6.4 43.52 0.062 6.25 1.97 12.78
10/31/2020 10:00:00 PM 6.34 43.412 0.062 6.24 1.96 12.8
10/31/2020 10:15:00 PM 6.28 43.304 0.062 6.23 1.91 12.82
10/31/2020 10:30:00 PM 6.23 43.214 0.062 6.19 1.96 12.84
10/31/2020 10:45:00 PM 6.17 43.106 0.062 6.17 1.94 12.86
10/31/2020 11:00:00 PM 6.12 43.016 0.062 6.17 1.95 12.88
10/31/2020 11:15:00 PM 6.07 42.926 0.062 6.19 1.91 12.89
10/31/2020 11:30:00 PM 6.03 42.854 0.062 6.21 1.94 12.91
10/31/2020 11:45:00 PM 5.98 42.764 0.062 6.26 1.92 12.93
11/1/2020 12:00:00 AM 5.94 42.692 0.062 6.27 1.93 12.94
11/1/2020 12:15:00 AM 5.89 42.602 0.062 6.29 1.91 12.96
11/1/2020 12:30:00 AM 5.85 42.53 0.062 6.31 1.9 12.98
11/1/2020 12:45:00 AM 5.81 42.458 0.062 6.31 1.88 12.98
11/1/2020 1:00:00 AM 5.77 42.386 0.062 6.33 1.9 13
11/1/2020 1:15:00 AM 5.73 42.314 0.062 6.18 1.91 13
11/1/2020 1:30:00 AM 5.7 42.26 0.062 6.28 1.87 13.01
11/1/2020 1:45:00 AM 5.69 42.242 0.062 6.28 1.85 13.01
11/1/2020 2:00:00 AM 5.68 42.224 0.062 6.19 1.89 13.02
11/1/2020 2:15:00 AM 5.67 42.206 0.062 6.16 1.88 13.02
11/1/2020 2:30:00 AM 5.67 42.206 0.062 6.25 1.9 13.03
11/1/2020 2:45:00 AM 5.66 42.188 0.062 6.27 1.93 13.02
11/1/2020 3:00:00 AM 5.66 42.188 0.062 6.2 1.83 13.02
11/1/2020 3:15:00 AM 5.67 42.206 0.062 6.25 1.89 13.02
11/1/2020 3:30:00 AM 5.67 42.206 0.062 6.23 1.9 13.02
11/1/2020 3:45:00 AM 5.67 42.206 0.062 6.25 1.86 13.02
11/1/2020 4:00:00 AM 5.68 42.224 0.062 6.25 1.89 13.01
11/1/2020 4:15:00 AM 5.72 42.296 0.062 6.26 1.86 12.98
11/1/2020 4:30:00 AM 5.72 42.296 0.062 6.17 1.87 12.98
11/1/2020 4:45:00 AM 5.73 42.314 0.062 6.25 1.89 12.97
11/1/2020 5:00:00 AM 5.74 42.332 0.062 6.26 1.87 12.96
11/1/2020 5:15:00 AM 5.75 42.35 0.062 6.25 1.84 12.95
11/1/2020 5:30:00 AM 5.76 42.368 0.062 6.27 1.9 12.95
11/1/2020 5:45:00 AM 5.77 42.386 0.062 6.25 1.89 12.94
11/1/2020 6:00:00 AM 5.78 42.404 0.062 6.25 1.84 12.93
11/1/2020 6:15:00 AM 5.79 42.422 0.062 6.25 1.87 12.92
11/1/2020 6:30:00 AM 5.8 42.44 0.062 6.26 1.82 12.92
11/1/2020 6:45:00 AM 5.81 42.458 0.062 6.26 1.86 12.91
11/1/2020 7:00:00 AM 5.82 42.476 0.062 6.33 1.87 12.91
11/1/2020 7:15:00 AM 5.83 42.494 0.062 6.31 1.82 12.9
11/1/2020 7:30:00 AM 5.85 42.53 0.062 6.28 1.8 12.91
11/1/2020 7:45:00 AM 5.87 42.566 0.062 6.3 1.86 12.92
11/1/2020 8:00:00 AM 5.89 42.602 0.062 6.31 1.82 12.92
11/1/2020 8:15:00 AM 5.91 42.638 0.062 6.27 1.81 12.9
11/1/2020 8:30:00 AM 5.95 42.71 0.062 6.28 1.84 12.92
11/1/2020 8:45:00 AM 5.99 42.782 0.062 6.3 1.8 12.9
11/1/2020 9:00:00 AM 6.03 42.854 0.062 6.24 1.78 12.89
11/1/2020 9:15:00 AM 6.09 42.962 0.062 6.32 1.79 12.9
11/1/2020 9:30:00 AM 6.14 43.052 0.062 6.28 1.81 12.89
11/1/2020 9:45:00 AM 6.21 43.178 0.062 6.3 1.78 12.89
11/1/2020 10:00:00 AM 6.26 43.268 0.062 6.31 1.8 12.86
11/1/2020 10:15:00 AM 6.32 43.376 0.062 6.32 1.79 12.85
11/1/2020 10:30:00 AM 6.37 43.466 0.062 6.32 1.77 12.81
11/1/2020 10:45:00 AM 6.42 43.556 0.062 6.3 1.81 12.78
11/1/2020 11:00:00 AM 6.46 43.628 0.062 6.32 1.82 12.73
11/1/2020 11:15:00 AM 6.5 43.7 0.062 6.33 1.77 12.69
11/1/2020 11:30:00 AM 6.55 43.79 0.062 6.38 1.8 12.66
11/1/2020 11:45:00 AM 6.58 43.844 0.062 6.4 1.81 12.62
11/1/2020 12:00:00 PM 6.63 43.934 0.061 6.32 1.85 12.61
11/1/2020 12:15:00 PM 6.67 44.006 0.061 6.39 1.84 12.6
11/1/2020 12:30:00 PM 6.71 44.078 0.061 6.41 1.91 12.58
11/1/2020 12:45:00 PM 6.75 44.15 0.061 6.41 1.88 12.57
11/1/2020 1:00:00 PM 6.79 44.222 0.061 6.41 1.85 12.57
11/1/2020 1:15:00 PM 6.83 44.294 0.061 6.4 1.83 12.55
11/1/2020 1:30:00 PM 6.86 44.348 0.061 6.37 1.83 12.53
11/1/2020 1:45:00 PM 6.89 44.402 0.061 6.39 1.85 12.5
11/1/2020 2:00:00 PM 6.93 44.474 0.061 6.36 1.82 12.48
11/1/2020 2:15:00 PM 6.97 44.546 0.061 6.4 1.82 12.48
11/1/2020 2:30:00 PM 7.01 44.618 0.061 6.4 1.83 12.48
11/1/2020 2:45:00 PM 7.04 44.672 0.061 6.39 1.81 12.46
11/1/2020 3:00:00 PM 7.07 44.726 0.061 6.38 1.84 12.4
11/1/2020 3:15:00 PM 7.11 44.798 0.061 6.41 1.86 12.39
11/1/2020 3:30:00 PM 7.14 44.852 0.061 6.32 1.91 12.38
11/1/2020 3:45:00 PM 7.16 44.888 0.061 6.37 1.94 12.36
11/1/2020 4:00:00 PM 7.19 44.942 0.061 6.32 1.86 12.34
11/1/2020 4:15:00 PM 7.21 44.978 0.061 6.35 1.85 12.32
11/1/2020 4:30:00 PM 7.23 45.014 0.061 6.28 1.83 12.3
11/1/2020 4:45:00 PM 7.24 45.032 0.061 6.32 1.82 12.29
11/1/2020 5:00:00 PM 7.24 45.032 0.061 6.34 1.83 12.28
11/1/2020 5:15:00 PM 7.24 45.032 0.061 6.25 1.86 12.27
11/1/2020 5:30:00 PM 7.23 45.014 0.061 6.31 1.86 12.27
11/1/2020 5:45:00 PM 7.21 44.978 0.061 6.3 1.86 12.27
11/1/2020 6:00:00 PM 7.2 44.96 0.061 6.28 1.87 12.28
11/1/2020 6:15:00 PM 7.17 44.906 0.061 6.29 1.86 12.28
11/1/2020 6:30:00 PM 7.13 44.834 0.061 6.22 1.88 12.29
11/1/2020 6:45:00 PM 7.1 44.78 0.061 6.35 1.83 12.3
11/1/2020 7:00:00 PM 7.06 44.708 0.061 6.38 1.81 12.31
11/1/2020 7:15:00 PM 7.02 44.636 0.061 6.41 1.88 12.32
11/1/2020 7:30:00 PM 7 44.6 0.061 6.42 1.84 12.33
11/1/2020 7:45:00 PM 6.98 44.564 0.061 6.45 1.83 12.35
11/1/2020 8:00:00 PM 6.94 44.492 0.061 6.38 1.83 12.35
11/1/2020 8:15:00 PM 6.9 44.42 0.061 6.42 1.82 12.37
11/1/2020 8:30:00 PM 6.86 44.348 0.061 6.43 1.83 12.38
11/1/2020 8:45:00 PM 6.82 44.276 0.061 6.46 1.84 12.4
11/1/2020 9:00:00 PM 6.77 44.186 0.061 6.45 1.81 12.42
11/1/2020 9:15:00 PM 6.73 44.114 0.061 6.47 1.85 12.44
11/1/2020 9:30:00 PM 6.69 44.042 0.061 6.49 1.76 12.46
11/1/2020 9:45:00 PM 6.66 43.988 0.061 6.5 1.83 12.47
11/1/2020 10:00:00 PM 6.62 43.916 0.061 6.48 1.86 12.48
11/1/2020 10:15:00 PM 6.58 43.844 0.061 6.49 1.83 12.5
11/1/2020 10:30:00 PM 6.53 43.754 0.061 6.49 1.85 12.53
11/1/2020 10:45:00 PM 6.47 43.646 0.061 6.47 1.84 12.55
11/1/2020 11:00:00 PM 6.42 43.556 0.061 6.47 2.11 12.56
11/1/2020 11:15:00 PM 6.39 43.502 0.06 6.47 5.72 12.57
11/1/2020 11:30:00 PM 6.36 43.448 0.06 6.4 2.8 12.59
11/1/2020 11:45:00 PM 6.33 43.394 0.06 6.4 1.89 12.6
11/2/2020 12:00:00 AM 6.3 43.34 0.06 6.35 1.92 12.61
11/2/2020 12:15:00 AM 6.26 43.268 0.06 6.17 1.87 12.62
11/2/2020 12:30:00 AM 6.23 43.214 0.06 6.2 1.86 12.63
11/2/2020 12:45:00 AM 6.19 43.142 0.06 6.24 1.89 12.64
11/2/2020 1:00:00 AM 6.16 43.088 0.06 6.28 1.9 12.65
11/2/2020 1:15:00 AM 6.13 43.034 0.06 6.25 1.86 12.66
11/2/2020 1:30:00 AM 6.1 42.98 0.06 6.3 1.87 12.67
11/2/2020 1:45:00 AM 6.07 42.926 0.06 6.3 1.87 12.68
11/2/2020 2:00:00 AM 6.05 42.89 0.06 6.27 1.85 12.69
11/2/2020 2:15:00 AM 6.01 42.818 0.06 6.32 1.88 12.7
11/2/2020 2:30:00 AM 5.99 42.782 0.06 6.23 1.88 12.72
11/2/2020 2:45:00 AM 5.96 42.728 0.06 6.18 1.89 12.72
11/2/2020 3:00:00 AM 5.94 42.692 0.06 6.18 1.9 12.73
11/2/2020 3:15:00 AM 5.91 42.638 0.06 6.18 1.89 12.74
11/2/2020 3:30:00 AM 5.89 42.602 0.06 6.23 1.85 12.75
11/2/2020 3:45:00 AM 5.87 42.566 0.059 6.22 1.91 12.76
11/2/2020 4:00:00 AM 5.84 42.512 0.059 6.3 1.87 12.76
11/2/2020 4:15:00 AM 5.8 42.44 0.059 6.21 1.89 12.78
11/2/2020 4:30:00 AM 5.76 42.368 0.059 6.26 1.86 12.79
11/2/2020 4:45:00 AM 5.72 42.296 0.059 6.26 1.88 12.8
11/2/2020 5:00:00 AM 5.7 42.26 0.059 6.35 1.96 12.81
11/2/2020 5:15:00 AM 5.68 42.224 0.059 6.38 1.95 12.82
11/2/2020 5:30:00 AM 5.65 42.17 0.059 6.37 1.95 12.84
11/2/2020 5:45:00 AM 5.62 42.116 0.059 6.21 1.95 12.85
11/2/2020 6:00:00 AM 5.59 42.062 0.059 6.32 1.96 12.87
11/2/2020 6:15:00 AM 5.57 42.026 0.059 6.3 1.97 12.88
11/2/2020 6:30:00 AM 5.53 41.954 0.059 6.26 1.91 12.9
11/2/2020 6:45:00 AM 5.49 41.882 0.059 6.26 1.89 12.92
11/2/2020 7:00:00 AM 5.44 41.792 0.059 6.28 1.84 12.96
11/2/2020 7:15:00 AM 5.4 41.72 0.059 6.33 1.88 12.99
11/2/2020 7:30:00 AM 5.38 41.684 0.059 6.41 1.87 13.04
11/2/2020 7:45:00 AM 5.36 41.648 0.059 6.39 1.81 13.07
11/2/2020 8:00:00 AM 5.35 41.63 0.059 6.42 1.83 13.11
11/2/2020 8:15:00 AM 5.35 41.63 0.058 6.48 1.86 13.14
11/2/2020 8:30:00 AM 5.34 41.612 0.058 6.42 1.83 13.17
11/2/2020 8:45:00 AM 5.33 41.594 0.058 6.49 1.85 13.2
11/2/2020 9:00:00 AM 5.35 41.63 0.058 6.47 1.83 13.21
11/2/2020 9:15:00 AM 5.4 41.72 0.058 6.47 1.8 13.23
11/2/2020 9:30:00 AM 5.39 41.702 0.058 6.42 1.8 13.24
11/2/2020 9:45:00 AM 5.41 41.738 0.058 6.45 1.81 13.24
11/2/2020 10:00:00 AM 5.44 41.792 0.058 6.48 1.83 13.23
11/2/2020 10:15:00 AM 5.45 41.81 0.058 6.41 1.9 13.23
11/2/2020 10:30:00 AM 5.46 41.828 0.058 6.47 1.91 13.22
11/2/2020 10:45:00 AM 5.52 41.936 0.058 6.46 1.84 13.2
11/2/2020 11:00:00 AM 5.62 42.116 0.058 6.48 1.8 13.16
11/2/2020 11:15:00 AM 5.76 42.368 0.058 6.53 1.86 13.13
11/2/2020 11:30:00 AM 5.9 42.62 0.058 6.56 1.84 13.08
11/2/2020 11:45:00 AM 6.05 42.89 0.058 6.45 1.81 13.03
11/2/2020 12:00:00 PM 6.17 43.106 0.058 6.52 1.78 12.98
11/2/2020 12:15:00 PM 6.28 43.304 0.058 6.4 1.8 12.93
11/2/2020 12:30:00 PM 6.36 43.448 0.058 6.38 2.05 12.9
11/2/2020 12:45:00 PM 6.38 43.484 0.058 6.46 1.8 12.89
11/2/2020 1:00:00 PM 6.37 43.466 0.058 6.49 1.76 12.88
11/2/2020 1:15:00 PM 6.35 43.43 0.058 6.53 1.71 12.87
11/2/2020 1:30:00 PM 6.31 43.358 0.058 6.54 2.16 12.87
11/2/2020 1:45:00 PM 6.26 43.268 0.058 6.37 2.3 12.88
11/2/2020 2:00:00 PM 6.21 43.178 0.058 6.42 1.8 12.89
11/2/2020 2:15:00 PM 6.16 43.088 0.058 6.46 1.77 12.9
11/2/2020 2:30:00 PM 6.12 43.016 0.058 6.47 1.78 12.93
11/2/2020 2:45:00 PM 6.08 42.944 0.058 6.47 1.86 12.93
11/2/2020 3:00:00 PM 6.05 42.89 0.058 6.47 1.77 12.96
11/2/2020 3:15:00 PM 6.02 42.836 0.058 6.48 1.72 12.96
11/2/2020 3:30:00 PM 6 42.8 0.058 6.47 1.77 12.97
11/2/2020 3:45:00 PM 5.97 42.746 0.058 6.48 1.74 12.96
11/2/2020 4:00:00 PM 5.92 42.656 0.058 6.49 1.75 12.97
11/2/2020 4:15:00 PM 5.87 42.566 0.058 6.48 1.73 12.96
11/2/2020 4:30:00 PM 5.83 42.494 0.058 6.46 1.72 12.96
11/2/2020 4:45:00 PM 5.78 42.404 0.058 6.46 1.71 12.94
11/2/2020 5:00:00 PM 5.73 42.314 0.058 6.4 1.84 12.93
11/2/2020 5:15:00 PM 5.69 42.242 0.058 6.34 1.84 12.91
11/2/2020 5:30:00 PM 5.66 42.188 0.058 6.37 1.73 12.91
11/2/2020 5:45:00 PM 5.63 42.134 0.058 6.33 1.85 12.91
11/2/2020 6:00:00 PM 5.6 42.08 0.058 6.27 1.84 12.91
11/2/2020 6:15:00 PM 5.58 42.044 0.058 6.01 1.28 12.93
11/2/2020 6:30:00 PM 5.57 42.026 0.058 6.07 1.51 12.94
11/2/2020 6:45:00 PM 5.55 41.99 0.058 6.09 1.45 12.94
11/2/2020 7:00:00 PM 5.54 41.972 0.058 6.09 1.45 12.95
11/2/2020 7:15:00 PM 5.51 41.918 0.058 6.11 1.45 12.96
11/2/2020 7:30:00 PM 5.49 41.882 0.058 6.12 1.43 12.97
11/2/2020 7:45:00 PM 5.46 41.828 0.059 6.12 1.46 12.97
11/2/2020 8:00:00 PM 5.44 41.792 0.059 6.13 1.4 12.98
11/2/2020 8:15:00 PM 5.41 41.738 0.059 6.13 1.42 12.99
11/2/2020 8:30:00 PM 5.39 41.702 0.059 6.13 1.42 13
11/2/2020 8:45:00 PM 5.36 41.648 0.059 6.15 1.42 13.01
11/2/2020 9:00:00 PM 5.32 41.576 0.059 6.13 1.44 13.01
11/2/2020 9:15:00 PM 5.3 41.54 0.059 6.14 1.43 13.03
11/2/2020 9:30:00 PM 5.27 41.486 0.059 6.15 1.42 13.03
11/2/2020 9:45:00 PM 5.24 41.432 0.059 6.15 1.44 13.04
11/2/2020 10:00:00 PM 5.2 41.36 0.059 6.15 1.39 13.05
11/2/2020 10:15:00 PM 5.17 41.306 0.059 6.14 1.44 13.06
11/2/2020 10:30:00 PM 5.14 41.252 0.059 6.15 1.4 13.07
11/2/2020 10:45:00 PM 5.11 41.198 0.059 6.15 1.43 13.09
11/2/2020 11:00:00 PM 5.08 41.144 0.059 6.16 1.4 13.09
11/2/2020 11:15:00 PM 5.06 41.108 0.059 6.15 1.38 13.1
11/2/2020 11:30:00 PM 5.03 41.054 0.059 6.16 1.41 13.11
11/2/2020 11:45:00 PM 5.02 41.036 0.059 6.16 1.42 13.11
11/3/2020 12:00:00 AM 5 41 0.059 6.17 1.4 13.12
11/3/2020 12:15:00 AM 4.99 40.982 0.059 6.16 1.38 13.12
11/3/2020 12:30:00 AM 4.97 40.946 0.059 6.17 1.35 13.13
11/3/2020 12:45:00 AM 4.96 40.928 0.059 6.16 1.36 13.13
11/3/2020 1:00:00 AM 4.95 40.91 0.059 6.18 1.35 13.14
11/3/2020 1:15:00 AM 4.94 40.892 0.059 6.16 1.38 13.15
11/3/2020 1:30:00 AM 4.93 40.874 0.059 6.17 1.37 13.15
11/3/2020 1:45:00 AM 4.92 40.856 0.059 6.18 1.33 13.15
11/3/2020 2:00:00 AM 4.91 40.838 0.059 6.16 1.35 13.15
11/3/2020 2:15:00 AM 4.9 40.82 0.059 6.18 1.29 13.16
11/3/2020 2:30:00 AM 4.89 40.802 0.059 6.19 1.35 13.16
11/3/2020 2:45:00 AM 4.88 40.784 0.059 6.2 1.37 13.16
11/3/2020 3:00:00 AM 4.87 40.766 0.059 6.2 1.36 13.17
11/3/2020 3:15:00 AM 4.86 40.748 0.059 6.19 1.35 13.17
11/3/2020 3:30:00 AM 4.85 40.73 0.059 6.19 1.35 13.18
11/3/2020 3:45:00 AM 4.83 40.694 0.059 6.19 1.32 13.18
11/3/2020 4:00:00 AM 4.82 40.676 0.059 6.21 1.34 13.18
11/3/2020 4:15:00 AM 4.81 40.658 0.059 6.19 1.34 13.19
11/3/2020 4:30:00 AM 4.8 40.64 0.059 6.2 1.34 13.2
11/3/2020 4:45:00 AM 4.79 40.622 0.059 6.22 1.31 13.21
11/3/2020 5:00:00 AM 4.78 40.604 0.059 6.23 1.31 13.22
11/3/2020 5:15:00 AM 4.76 40.568 0.06 6.23 1.33 13.23
11/3/2020 5:30:00 AM 4.75 40.55 0.06 6.15 1.4 13.24
11/3/2020 5:45:00 AM 4.74 40.532 0.06 6.22 1.36 13.24
11/3/2020 6:00:00 AM 4.73 40.514 0.06 6.22 1.34 13.25
11/3/2020 6:15:00 AM 4.72 40.496 0.06 6.21 1.35 13.25
11/3/2020 6:30:00 AM 4.7 40.46 0.06 6.22 1.01 13.27
11/3/2020 6:45:00 AM 4.69 40.442 0.06 6.21 1.02 13.28
11/3/2020 7:00:00 AM 4.68 40.424 0.06 6.24 1.02 13.3
11/3/2020 7:15:00 AM 4.68 40.424 0.06 6.2 1.01 13.35
11/3/2020 7:30:00 AM 4.68 40.424 0.06 6.3 1.01 13.38
11/3/2020 7:45:00 AM 4.69 40.442 0.06 6.29 1 13.4
11/3/2020 8:00:00 AM 4.71 40.478 0.06 6.3 1.08 13.43
11/3/2020 8:15:00 AM 4.73 40.514 0.06 6.3 0.98 13.45
11/3/2020 8:30:00 AM 4.79 40.622 0.06 6.31 1 13.47
11/3/2020 8:45:00 AM 4.86 40.748 0.06 6.32 1 13.48
11/3/2020 9:00:00 AM 4.92 40.856 0.06 6.32 1 13.48
11/3/2020 9:15:00 AM 4.99 40.982 0.06 6.3 1.01 13.47
11/3/2020 9:30:00 AM 5.06 41.108 0.06 6.3 1.01 13.47
11/3/2020 9:45:00 AM 5.13 41.234 0.06 6.33 1.06 13.45
11/3/2020 10:00:00 AM 5.21 41.378 0.06 6.34 1.07 13.43
11/3/2020 10:15:00 AM 5.3 41.54 0.06 6.34 1.08 13.41
11/3/2020 10:30:00 AM 5.4 41.72 0.06 6.34 1.06 13.38
11/3/2020 10:45:00 AM 5.54 41.972 0.06 6.33 1.13 13.34
11/3/2020 11:00:00 AM 5.69 42.242 0.06 6.35 1.08 13.29
11/3/2020 11:15:00 AM 5.84 42.512 0.06 6.38 1.07 13.26
11/3/2020 11:30:00 AM 6.01 42.818 0.06 6.34 1.05 13.18
11/3/2020 11:45:00 AM 6.16 43.088 0.06 6.38 1.04 13.13
11/3/2020 12:00:00 PM 6.33 43.394 0.06 6.39 1.1 13.07
11/3/2020 12:15:00 PM 6.47 43.646 0.06 6.39 1.03 13.01
11/3/2020 12:30:00 PM 6.58 43.844 0.06 6.39 1.06 12.98
11/3/2020 12:45:00 PM 6.68 44.024 0.06 6.37 1.05 12.93
11/3/2020 1:00:00 PM 6.78 44.204 0.06 6.38 1.04 12.89
11/3/2020 1:15:00 PM 6.85 44.33 0.06 6.34 1.14 12.86
11/3/2020 1:30:00 PM 6.85 44.33 0.06 6.32 1.21 12.84
11/3/2020 1:45:00 PM 6.84 44.312 0.06 6.32 1.12 12.83
11/3/2020 2:00:00 PM 6.84 44.312 0.06 6.33 1.07 12.81
11/3/2020 2:15:00 PM 6.84 44.312 0.06 6.32 1.05 12.8
11/3/2020 2:30:00 PM 6.87 44.366 0.06 6.32 1.03 12.81
11/3/2020 2:45:00 PM 6.89 44.402 0.06 6.33 1.04 12.8
11/3/2020 3:00:00 PM 6.9 44.42 0.06 6.3 1.05 12.78
11/3/2020 3:15:00 PM 6.91 44.438 0.06 6.3 1.06 12.76
11/3/2020 3:30:00 PM 6.92 44.456 0.06 6.32 1.05 12.75
11/3/2020 3:45:00 PM 6.93 44.474 0.06 6.35 1.04 12.74
11/3/2020 4:00:00 PM 6.92 44.456 0.06 6.37 1.17 12.7
11/3/2020 4:15:00 PM 6.91 44.438 0.06 6.35 1.16 12.68
11/3/2020 4:30:00 PM 6.89 44.402 0.06 6.31 1.16 12.66
11/3/2020 4:45:00 PM 6.88 44.384 0.06 6.32 1.19 12.64
11/3/2020 5:00:00 PM 6.86 44.348 0.06 6.26 1.14 12.62
11/3/2020 5:15:00 PM 6.83 44.294 0.06 6.31 1.2 12.6
11/3/2020 5:30:00 PM 6.81 44.258 0.06 6.32 1.14 12.59
11/3/2020 5:45:00 PM 6.79 44.222 0.06 6.33 1.11 12.58
11/3/2020 6:00:00 PM 6.76 44.168 0.06 6.31 1.13 12.59
11/3/2020 6:15:00 PM 6.73 44.114 0.06 6.3 1.15 12.59
11/3/2020 6:30:00 PM 6.7 44.06 0.06 6.29 1.16 12.6
11/3/2020 6:45:00 PM 6.67 44.006 0.06 6.29 1.18 12.61
11/3/2020 7:00:00 PM 6.64 43.952 0.06 6.31 1.16 12.63
11/3/2020 7:15:00 PM 6.61 43.898 0.06 6.37 1.23 12.64
11/3/2020 7:30:00 PM 6.57 43.826 0.061 6.29 1.29 12.65
11/3/2020 7:45:00 PM 6.53 43.754 0.061 6.27 1.26 12.67
11/3/2020 8:00:00 PM 6.49 43.682 0.06 6.33 1.21 12.69
11/3/2020 8:15:00 PM 6.44 43.592 0.06 6.32 1.23 12.71
11/3/2020 8:30:00 PM 6.4 43.52 0.06 6.3 1.2 12.72
11/3/2020 8:45:00 PM 6.35 43.43 0.06 6.32 1.73 12.74
11/3/2020 9:00:00 PM 6.3 43.34 0.06 6.26 1.7 12.76
11/3/2020 9:15:00 PM 6.26 43.268 0.06 6.22 1.72 12.78
11/3/2020 9:30:00 PM 6.21 43.178 0.06 6.27 1.75 12.79
11/3/2020 9:45:00 PM 6.16 43.088 0.06 6.17 1.76 12.82
11/3/2020 10:00:00 PM 6.11 42.998 0.06 6.19 1.76 12.84
11/3/2020 10:15:00 PM 6.07 42.926 0.06 6.18 1.76 12.86
11/3/2020 10:30:00 PM 6.02 42.836 0.06 6.25 1.7 12.88
11/3/2020 10:45:00 PM 5.97 42.746 0.061 6.25 1.78 12.9
11/3/2020 11:00:00 PM 5.92 42.656 0.061 6.27 1.73 12.92
11/3/2020 11:15:00 PM 5.88 42.584 0.061 6.2 1.74 12.94
11/3/2020 11:30:00 PM 5.83 42.494 0.061 6.16 1.74 12.96
11/3/2020 11:45:00 PM 5.79 42.422 0.061 6.14 1.74 12.97
11/4/2020 12:00:00 AM 5.74 42.332 0.061 6.22 1.76 12.99
11/4/2020 12:15:00 AM 5.69 42.242 0.061 6.25 1.68 13
11/4/2020 12:30:00 AM 5.65 42.17 0.061 6.25 1.7 13.02
11/4/2020 12:45:00 AM 5.6 42.08 0.061 6.18 1.75 13.04
11/4/2020 1:00:00 AM 5.56 42.008 0.061 6.15 1.76 13.06
11/4/2020 1:15:00 AM 5.51 41.918 0.061 6.23 1.79 13.08
11/4/2020 1:30:00 AM 5.47 41.846 0.061 6.21 1.75 13.1
11/4/2020 1:45:00 AM 5.42 41.756 0.061 6.18 1.8 13.12
11/4/2020 2:00:00 AM 5.38 41.684 0.061 6.14 1.78 13.13
11/4/2020 2:15:00 AM 5.34 41.612 0.061 6.18 1.78 13.16
11/4/2020 2:30:00 AM 5.3 41.54 0.061 6.26 1.74 13.18
11/4/2020 2:45:00 AM 5.25 41.45 0.061 6.24 1.77 13.19
11/4/2020 3:00:00 AM 5.21 41.378 0.061 6.17 1.81 13.21
11/4/2020 3:15:00 AM 5.17 41.306 0.061 6.2 1.79 13.22
11/4/2020 3:30:00 AM 5.14 41.252 0.061 6.22 1.76 13.25
11/4/2020 3:45:00 AM 5.1 41.18 0.061 6.24 1.75 13.25
11/4/2020 4:00:00 AM 5.07 41.126 0.061 6.21 1.73 13.27
11/4/2020 4:15:00 AM 5.03 41.054 0.061 6.13 1.75 13.28
11/4/2020 4:30:00 AM 5 41 0.061 6.2 1.77 13.3
11/4/2020 4:45:00 AM 4.96 40.928 0.061 6.22 1.79 13.31
11/4/2020 5:00:00 AM 4.93 40.874 0.061 6.3 1.46 13.33
11/4/2020 5:15:00 AM 4.9 40.82 0.061 6.23 1.43 13.34
11/4/2020 5:30:00 AM 4.87 40.766 0.061 6.21 1.45 13.35
11/4/2020 5:45:00 AM 4.84 40.712 0.061 6.24 1.47 13.37
11/4/2020 6:00:00 AM 4.81 40.658 0.061 6.22 1.48 13.38
11/4/2020 6:15:00 AM 4.78 40.604 0.061 6.17 1.46 13.4
11/4/2020 6:30:00 AM 4.75 40.55 0.061 6.25 1.5 13.41
11/4/2020 6:45:00 AM 4.72 40.496 0.061 6.28 1.45 13.43
11/4/2020 7:00:00 AM 4.7 40.46 0.061 6.14 1.48 13.46
11/4/2020 7:15:00 AM 4.68 40.424 0.061 6.18 1.46 13.5
11/4/2020 7:30:00 AM 4.67 40.406 0.061 6.22 1.46 13.54
11/4/2020 7:45:00 AM 4.67 40.406 0.06 6.32 1.41 13.58
11/4/2020 8:00:00 AM 4.68 40.424 0.06 6.35 1.45 13.61
11/4/2020 8:15:00 AM 4.71 40.478 0.06 6.32 1.41 13.64
11/4/2020 8:30:00 AM 4.76 40.568 0.06 6.26 1.44 13.65
11/4/2020 8:45:00 AM 4.82 40.676 0.06 6.31 1.44 13.66
11/4/2020 9:00:00 AM 4.89 40.802 0.06 6.35 1.44 13.66
11/4/2020 9:15:00 AM 4.97 40.946 0.06 6.43 1.42 13.65
11/4/2020 9:30:00 AM 5.04 41.072 0.06 6.36 1.44 13.64
11/4/2020 9:45:00 AM 5.12 41.216 0.06 6.29 1.43 13.63
11/4/2020 10:00:00 AM 5.22 41.396 0.06 6.39 1.39 13.6
11/4/2020 10:15:00 AM 5.34 41.612 0.06 6.38 1.42 13.56
11/4/2020 10:30:00 AM 5.47 41.846 0.06 6.35 1.46 13.52
11/4/2020 10:45:00 AM 5.62 42.116 0.06 6.39 1.39 13.46
11/4/2020 11:00:00 AM 5.82 42.476 0.06 6.42 1.42 13.41
11/4/2020 11:15:00 AM 6.06 42.908 0.06 6.39 1.43 13.32
11/4/2020 11:30:00 AM 6.32 43.376 0.06 6.44 1.42 13.23
11/4/2020 11:45:00 AM 6.58 43.844 0.06 6.46 1.42 13.14
11/4/2020 12:00:00 PM 6.84 44.312 0.06 6.46 1.46 13.04
11/4/2020 12:15:00 PM 7.05 44.69 0.06 6.54 1.73 12.96
11/4/2020 12:30:00 PM 7.23 45.014 0.06 6.43 1.38 12.89
11/4/2020 12:45:00 PM 7.37 45.266 0.059 6.5 1.38 12.82
11/4/2020 1:00:00 PM 7.46 45.428 0.059 6.45 1.45 12.77
11/4/2020 1:15:00 PM 7.52 45.536 0.059 6.5 1.45 12.73
11/4/2020 1:30:00 PM 7.55 45.59 0.059 6.4 1.46 12.7
11/4/2020 1:45:00 PM 7.56 45.608 0.059 6.38 1.49 12.68
11/4/2020 2:00:00 PM 7.56 45.608 0.06 6.37 1.51 12.66
11/4/2020 2:15:00 PM 7.56 45.608 0.06 6.41 1.54 12.65
11/4/2020 2:30:00 PM 7.57 45.626 0.06 6.31 1.5 12.64
11/4/2020 2:45:00 PM 7.56 45.608 0.06 6.3 1.54 12.62
11/4/2020 3:00:00 PM 7.56 45.608 0.06 6.39 1.47 12.61
11/4/2020 3:15:00 PM 7.56 45.608 0.06 6.34 1.45 12.6
11/4/2020 3:30:00 PM 7.55 45.59 0.06 6.43 1.5 12.58
11/4/2020 3:45:00 PM 7.53 45.554 0.06 6.33 1.38 12.57
11/4/2020 4:00:00 PM 7.5 45.5 0.06 6.27 1.93 12.57
11/4/2020 4:15:00 PM 7.46 45.428 0.06 6.44 1.99 12.56
11/4/2020 4:30:00 PM 7.42 45.356 0.06 6.32 1.97 12.55
11/4/2020 4:45:00 PM 7.38 45.284 0.06 6.27 2.01 12.54
11/4/2020 5:00:00 PM 7.35 45.23 0.06 6.23 1.97 12.52
11/4/2020 5:15:00 PM 7.32 45.176 0.06 6.23 2.47 12.51
11/4/2020 5:30:00 PM 7.28 45.104 0.06 6.31 2.67 12.5
11/4/2020 5:45:00 PM 7.25 45.05 0.06 6.25 2.65 12.5
11/4/2020 6:00:00 PM 7.22 44.996 0.06 6.16 2.49 12.51
11/4/2020 6:15:00 PM 7.18 44.924 0.06 6.25 2.1 12.52
11/4/2020 6:30:00 PM 7.15 44.87 0.06 6.2 2.15 12.52
11/4/2020 6:45:00 PM 7.12 44.816 0.06 6.24 2.09 12.53
11/4/2020 7:00:00 PM 7.09 44.762 0.06 6.22 2.11 12.53
11/4/2020 7:15:00 PM 7.07 44.726 0.06 6.29 2.03 12.54
11/4/2020 7:30:00 PM 7.04 44.672 0.06 6.24 2.01 12.54
11/4/2020 7:45:00 PM 7.01 44.618 0.06 6.14 1.99 12.55
11/4/2020 8:00:00 PM 6.98 44.564 0.06 6.24 1.96 12.55
11/4/2020 8:15:00 PM 6.95 44.51 0.06 6.31 1.98 12.57
11/4/2020 8:30:00 PM 6.92 44.456 0.06 6.25 2.03 12.58
11/4/2020 8:45:00 PM 6.88 44.384 0.06 6.25 1.98 12.59
11/4/2020 9:00:00 PM 6.84 44.312 0.06 6.19 1.98 12.61
11/4/2020 9:15:00 PM 6.8 44.24 0.06 6.2 1.98 12.62
11/4/2020 9:30:00 PM 6.76 44.168 0.06 6.23 2.01 12.64
11/4/2020 9:45:00 PM 6.72 44.096 0.06 6.19 1.98 12.65
11/4/2020 10:00:00 PM 6.67 44.006 0.06 6.28 2 12.67
11/4/2020 10:15:00 PM 6.62 43.916 0.06 6.25 1.97 12.7
11/4/2020 10:30:00 PM 6.58 43.844 0.06 6.17 1.98 12.71
11/4/2020 10:45:00 PM 6.53 43.754 0.06 6.23 1.96 12.74
11/4/2020 11:00:00 PM 6.48 43.664 0.06 6.23 1.99 12.76
11/4/2020 11:15:00 PM 6.43 43.574 0.06 6.27 1.97 12.77
11/4/2020 11:30:00 PM 6.38 43.484 0.06 6.31 2 12.78
11/4/2020 11:45:00 PM 6.34 43.412 0.06 6.31 1.55 12.8
11/5/2020 12:00:00 AM 6.29 43.322 0.06 6.3 1.65 12.81
11/5/2020 12:15:00 AM 6.25 43.25 0.06 6.27 1.68 12.82
11/5/2020 12:30:00 AM 6.2 43.16 0.06 6.29 1.66 12.85
11/5/2020 12:45:00 AM 6.16 43.088 0.06 6.27 1.74 12.86
11/5/2020 1:00:00 AM 6.12 43.016 0.06 6.32 1.69 12.87
11/5/2020 1:15:00 AM 6.08 42.944 0.06 6.22 1.65 12.89
11/5/2020 1:30:00 AM 6.04 42.872 0.06 6.2 1.69 12.91
11/5/2020 1:45:00 AM 6 42.8 0.06 6.28 1.65 12.92
11/5/2020 2:00:00 AM 5.96 42.728 0.06 6.34 1.68 12.94
11/5/2020 2:15:00 AM 5.93 42.674 0.06 6.35 1.67 12.95
11/5/2020 2:30:00 AM 5.89 42.602 0.06 6.29 1.66 12.96
11/5/2020 2:45:00 AM 5.86 42.548 0.06 6.31 1.75 12.98
11/5/2020 3:00:00 AM 5.82 42.476 0.06 6.2 1.76 12.99
11/5/2020 3:15:00 AM 5.78 42.404 0.06 6.26 1.55 13
11/5/2020 3:30:00 AM 5.75 42.35 0.06 6.22 1.27 13.01
11/5/2020 3:45:00 AM 5.72 42.296 0.06 6.25 1.1 13.02
11/5/2020 4:00:00 AM 5.69 42.242 0.06 6.25 1.16 13.02
11/5/2020 4:15:00 AM 5.65 42.17 0.06 6.25 1.08 13.04
11/5/2020 4:30:00 AM 5.62 42.116 0.06 6.23 1.16 13.05
11/5/2020 4:45:00 AM 5.59 42.062 0.06 6.2 1.13 13.06
11/5/2020 5:00:00 AM 5.56 42.008 0.06 6.19 1.21 13.08
11/5/2020 5:15:00 AM 5.53 41.954 0.06 6.22 1.17 13.08
11/5/2020 5:30:00 AM 5.5 41.9 0.06 6.15 1.15 13.1
11/5/2020 5:45:00 AM 5.47 41.846 0.06 6.2 1.13 13.11
11/5/2020 6:00:00 AM 5.44 41.792 0.06 6.2 1.14 13.13
11/5/2020 6:15:00 AM 5.42 41.756 0.06 6.21 1.09 13.13
11/5/2020 6:30:00 AM 5.39 41.702 0.06 6.2 1.09 13.14
11/5/2020 6:45:00 AM 5.37 41.666 0.06 6.22 1.1 13.17
11/5/2020 7:00:00 AM 5.35 41.63 0.06 6.24 1.09 13.19
11/5/2020 7:15:00 AM 5.34 41.612 0.06 6.27 1.01 13.25
11/5/2020 7:30:00 AM 5.36 41.648 0.06 6.28 1.13 13.31
11/5/2020 7:45:00 AM 5.38 41.684 0.06 6.3 1.13 13.36
11/5/2020 8:00:00 AM 5.41 41.738 0.06 6.25 1.1 13.39
11/5/2020 8:15:00 AM 5.45 41.81 0.06 6.3 1.08 13.4
11/5/2020 8:30:00 AM 5.5 41.9 0.06 6.33 1.13 13.41
11/5/2020 8:45:00 AM 5.58 42.044 0.059 6.35 1.12 13.4
11/5/2020 9:00:00 AM 5.66 42.188 0.059 6.35 1.12 13.39
11/5/2020 9:15:00 AM 5.76 42.368 0.059 6.37 1.09 13.38
11/5/2020 9:30:00 AM 5.85 42.53 0.059 6.37 1.1 13.37
11/5/2020 9:45:00 AM 5.93 42.674 0.059 6.38 1.09 13.35
11/5/2020 10:00:00 AM 6.03 42.854 0.059 6.39 1.21 13.31
11/5/2020 10:15:00 AM 6.15 43.07 0.059 6.41 1.08 13.27
11/5/2020 10:30:00 AM 6.28 43.304 0.059 6.45 1.14 13.22
11/5/2020 10:45:00 AM 6.44 43.592 0.059 6.44 1.12 13.17
11/5/2020 11:00:00 AM 6.63 43.934 0.059 6.51 1.1 13.12
11/5/2020 11:15:00 AM 6.86 44.348 0.059 6.48 1.07 13.04
11/5/2020 11:30:00 AM 7.12 44.816 0.059 6.52 1.07 12.97
11/5/2020 11:45:00 AM 7.37 45.266 0.059 6.53 1.08 12.88
11/5/2020 12:00:00 PM 7.61 45.698 0.059 6.57 1.1 12.78
11/5/2020 12:15:00 PM 7.83 46.094 0.059 6.59 1.06 12.71
11/5/2020 12:30:00 PM 8.02 46.436 0.059 6.62 1.06 12.63
11/5/2020 12:45:00 PM 8.17 46.706 0.059 6.56 1.04 12.56
11/5/2020 1:00:00 PM 8.27 46.886 0.059 6.5 1.07 12.51
11/5/2020 1:15:00 PM 8.34 47.012 0.059 6.49 1.08 12.49
11/5/2020 1:30:00 PM 8.38 47.084 0.059 6.47 1.08 12.47
11/5/2020 1:45:00 PM 8.4 47.12 0.059 6.54 1.07 12.46
11/5/2020 2:00:00 PM 8.42 47.156 0.059 6.55 1.1 12.45
11/5/2020 2:15:00 PM 8.44 47.192 0.059 6.47 1.08 12.43
11/5/2020 2:30:00 PM 8.46 47.228 0.059 6.51 1.11 12.41
11/5/2020 2:45:00 PM 8.48 47.264 0.059 6.54 1.12 12.4
11/5/2020 3:00:00 PM 8.5 47.3 0.059 6.44 1.11 12.38
11/5/2020 3:15:00 PM 8.5 47.3 0.059 6.5 1.09 12.36
11/5/2020 3:30:00 PM 8.5 47.3 0.059 6.5 1.05 12.34
11/5/2020 3:45:00 PM 8.48 47.264 0.059 6.47 1.2 12.32
11/5/2020 4:00:00 PM 8.45 47.21 0.059 6.46 1.1 12.29
11/5/2020 4:15:00 PM 8.42 47.156 0.059 6.45 1.1 12.26
11/5/2020 4:30:00 PM 8.39 47.102 0.059 6.43 1.14 12.23
11/5/2020 4:45:00 PM 8.35 47.03 0.059 6.42 1.1 12.2
11/5/2020 5:00:00 PM 8.31 46.958 0.059 6.41 1.1 12.16
11/5/2020 5:15:00 PM 8.27 46.886 0.059 6.43 1.1 12.13
11/5/2020 5:30:00 PM 8.23 46.814 0.059 6.36 1.13 12.12
11/5/2020 5:45:00 PM 8.19 46.742 0.059 6.44 1.14 12.13
11/5/2020 6:00:00 PM 8.15 46.67 0.059 6.28 1.11 12.13
11/5/2020 6:15:00 PM 8.11 46.598 0.06 6.36 1.17 12.14
11/5/2020 6:30:00 PM 8.07 46.526 0.06 6.36 1.11 12.14
11/5/2020 6:45:00 PM 8.03 46.454 0.06 6.36 1.09 12.15
11/5/2020 7:00:00 PM 7.99 46.382 0.06 6.34 1.11 12.17
11/5/2020 7:15:00 PM 7.96 46.328 0.06 6.31 1.03 12.17
11/5/2020 7:30:00 PM 7.93 46.274 0.06 6.37 1.11 12.18
11/5/2020 7:45:00 PM 7.9 46.22 0.06 6.45 1.09 12.2
11/5/2020 8:00:00 PM 7.86 46.148 0.06 6.36 1.1 12.21
11/5/2020 8:15:00 PM 7.83 46.094 0.06 6.33 1.18 12.22
11/5/2020 8:30:00 PM 7.8 46.04 0.06 6.29 1.14 12.23
11/5/2020 8:45:00 PM 7.76 45.968 0.06 6.32 1.06 12.24
11/5/2020 9:00:00 PM 7.73 45.914 0.06 6.22 1.06 12.25
11/5/2020 9:15:00 PM 7.69 45.842 0.06 6.29 1.09 12.26
11/5/2020 9:30:00 PM 7.66 45.788 0.06 6.29 1.03 12.27
11/5/2020 9:45:00 PM 7.63 45.734 0.06 6.29 1.02 12.27
11/5/2020 10:00:00 PM 7.59 45.662 0.06 6.3 1.07 12.29
11/5/2020 10:15:00 PM 7.56 45.608 0.06 6.29 1.06 12.3
11/5/2020 10:30:00 PM 7.53 45.554 0.06 6.29 1.08 12.3
11/5/2020 10:45:00 PM 7.5 45.5 0.06 6.3 1.04 12.32
11/5/2020 11:00:00 PM 7.47 45.446 0.06 6.31 1.03 12.33
11/5/2020 11:15:00 PM 7.44 45.392 0.06 6.47 1.03 12.33
11/5/2020 11:30:00 PM 7.42 45.356 0.06 6.49 1.04 12.35
11/5/2020 11:45:00 PM 7.4 45.32 0.06 6.52 1.06 12.36
11/6/2020 12:00:00 AM 7.37 45.266 0.06 6.57 1.05 12.37
11/6/2020 12:15:00 AM 7.35 45.23 0.06 6.56 1.02 12.38
11/6/2020 12:30:00 AM 7.33 45.194 0.06 6.49 1.06 12.38
11/6/2020 12:45:00 AM 7.31 45.158 0.06 6.45 1.06 12.39
11/6/2020 1:00:00 AM 7.29 45.122 0.06 6.43 1.06 12.4
11/6/2020 1:15:00 AM 7.27 45.086 0.06 6.46 1.02 12.4
11/6/2020 1:30:00 AM 7.25 45.05 0.06 6.5 1.01 12.41
11/6/2020 1:45:00 AM 7.24 45.032 0.06 6.47 1.03 12.41
11/6/2020 2:00:00 AM 7.22 44.996 0.06 6.47 1.02 12.42
11/6/2020 2:15:00 AM 7.21 44.978 0.06 6.46 1 12.43
11/6/2020 2:30:00 AM 7.2 44.96 0.06 6.4 1.01 12.43
11/6/2020 2:45:00 AM 7.19 44.942 0.06 6.34 0.99 12.44
11/6/2020 3:00:00 AM 7.17 44.906 0.06 6.42 0.99 12.44
11/6/2020 3:15:00 AM 7.16 44.888 0.06 6.41 1.03 12.44
11/6/2020 3:30:00 AM 7.15 44.87 0.06 6.42 1 12.44
11/6/2020 3:45:00 AM 7.14 44.852 0.06 6.36 1.04 12.44
11/6/2020 4:00:00 AM 7.13 44.834 0.06 6.4 1.03 12.45
11/6/2020 4:15:00 AM 7.12 44.816 0.06 6.41 0.98 12.45
11/6/2020 4:30:00 AM 7.11 44.798 0.06 6.41 1.07 12.45
11/6/2020 4:45:00 AM 7.09 44.762 0.06 6.4 0.98 12.47
11/6/2020 5:00:00 AM 7.07 44.726 0.06 6.42 1.04 12.46
11/6/2020 5:15:00 AM 7.05 44.69 0.06 6.41 1.01 12.46
11/6/2020 5:30:00 AM 7.03 44.654 0.06 6.43 0.99 12.48
11/6/2020 5:45:00 AM 7 44.6 0.06 6.41 0.98 12.47
11/6/2020 6:00:00 AM 6.98 44.564 0.06 6.42 1 12.49
11/6/2020 6:15:00 AM 6.94 44.492 0.06 6.38 0.98 12.5
11/6/2020 6:30:00 AM 6.91 44.438 0.06 6.43 1 12.5
11/6/2020 6:45:00 AM 6.88 44.384 0.06 6.43 0.96 12.53
11/6/2020 7:00:00 AM 6.85 44.33 0.06 6.44 0.98 12.56
11/6/2020 7:15:00 AM 6.82 44.276 0.06 6.47 0.95 12.6
11/6/2020 7:30:00 AM 6.8 44.24 0.06 6.46 0.95 12.67
11/6/2020 7:45:00 AM 6.79 44.222 0.06 6.44 0.95 12.72
11/6/2020 8:00:00 AM 6.79 44.222 0.059 6.35 0.99 12.78
11/6/2020 8:15:00 AM 6.81 44.258 0.059 6.43 0.97 12.81
11/6/2020 8:30:00 AM 6.85 44.33 0.059 6.47 0.98 12.84
11/6/2020 8:45:00 AM 6.91 44.438 0.059 6.44 0.96 12.86
11/6/2020 9:00:00 AM 6.97 44.546 0.059 6.47 0.99 12.87
11/6/2020 9:15:00 AM 7.05 44.69 0.059 6.45 0.99 12.88
11/6/2020 9:30:00 AM 7.12 44.816 0.059 6.46 0.97 12.88
11/6/2020 9:45:00 AM 7.18 44.924 0.059 6.47 0.97 12.87
11/6/2020 10:00:00 AM 7.27 45.086 0.059 6.47 0.97 12.85
11/6/2020 10:15:00 AM 7.37 45.266 0.059 6.5 0.96 12.81
11/6/2020 10:30:00 AM 7.49 45.482 0.059 6.53 0.96 12.77
11/6/2020 10:45:00 AM 7.62 45.716 0.059 6.57 1.01 12.73
11/6/2020 11:00:00 AM 7.79 46.022 0.059 6.59 1.18 12.69
11/6/2020 11:15:00 AM 8.01 46.418 0.059 6.59 0.94 12.62
11/6/2020 11:30:00 AM 8.25 46.85 0.059 6.63 0.91 12.53
11/6/2020 11:45:00 AM 8.49 47.282 0.059 6.71 0.95 12.46
11/6/2020 12:00:00 PM 8.73 47.714 0.059 6.75 0.9 12.37
11/6/2020 12:15:00 PM 8.96 48.128 0.059 6.72 0.99 12.29
11/6/2020 12:30:00 PM 9.14 48.452 0.059 6.62 0.92 12.23
11/6/2020 12:45:00 PM 9.28 48.704 0.059 6.6 0.91 12.16
11/6/2020 1:00:00 PM 9.39 48.902 0.059 6.57 0.92 12.1
11/6/2020 1:15:00 PM 9.46 49.028 0.059 6.61 0.97 12.06
11/6/2020 1:30:00 PM 9.5 49.1 0.059 6.63 0.94 12.03
11/6/2020 1:45:00 PM 9.53 49.154 0.059 6.69 0.92 12
11/6/2020 2:00:00 PM 9.53 49.154 0.059 6.73 0.94 11.99
11/6/2020 2:15:00 PM 9.53 49.154 0.059 6.74 0.97 11.97
11/6/2020 2:30:00 PM 9.53 49.154 0.059 6.74 0.95 11.95
11/6/2020 2:45:00 PM 9.53 49.154 0.059 6.75 0.94 11.94
11/6/2020 3:00:00 PM 9.52 49.136 0.059 6.75 0.94 11.92
11/6/2020 3:15:00 PM 9.51 49.118 0.059 6.73 0.95 11.89
11/6/2020 3:30:00 PM 9.51 49.118 0.059 6.73 0.94 11.89
11/6/2020 3:45:00 PM 9.49 49.082 0.059 6.72 0.93 11.86
11/6/2020 4:00:00 PM 9.46 49.028 0.059 6.72 0.91 11.85
11/6/2020 4:15:00 PM 9.42 48.956 0.059 6.7 0.95 11.83
11/6/2020 4:30:00 PM 9.38 48.884 0.059 6.7 0.94 11.82
11/6/2020 4:45:00 PM 9.33 48.794 0.059 6.67 0.99 11.8
11/6/2020 5:00:00 PM 9.28 48.704 0.059 6.62 0.98 11.78
11/6/2020 5:15:00 PM 9.23 48.614 0.059 6.47 0.95 11.77
11/6/2020 5:30:00 PM 9.17 48.506 0.059 6.52 0.91 11.76
11/6/2020 5:45:00 PM 9.13 48.434 0.06 6.47 0.98 11.76
11/6/2020 6:00:00 PM 9.08 48.344 0.06 6.46 0.99 11.77
11/6/2020 6:15:00 PM 9.03 48.254 0.06 6.43 1.01 11.78
11/6/2020 6:30:00 PM 8.98 48.164 0.06 6.47 0.97 11.79
11/6/2020 6:45:00 PM 8.93 48.074 0.06 6.49 0.98 11.8
11/6/2020 7:00:00 PM 8.88 47.984 0.06 6.52 0.95 11.81
11/6/2020 7:15:00 PM 8.84 47.912 0.06 6.51 1 11.82
11/6/2020 7:30:00 PM 8.8 47.84 0.06 6.45 0.94 11.84
11/6/2020 7:45:00 PM 8.76 47.768 0.06 6.43 0.96 11.84
11/6/2020 8:00:00 PM 8.72 47.696 0.06 6.46 0.94 11.86
11/6/2020 8:15:00 PM 8.68 47.624 0.06 6.51 0.94 11.87
11/6/2020 8:30:00 PM 8.64 47.552 0.06 6.54 0.97 11.89
11/6/2020 8:45:00 PM 8.6 47.48 0.06 6.51 0.96 11.9
11/6/2020 9:00:00 PM 8.57 47.426 0.06 6.57 1.01 11.92
11/6/2020 9:15:00 PM 8.53 47.354 0.06 6.54 1.15 11.93
11/6/2020 9:30:00 PM 8.49 47.282 0.06 6.37 1.03 11.95
11/6/2020 9:45:00 PM 8.45 47.21 0.06 6.42 0.95 11.95
11/6/2020 10:00:00 PM 8.41 47.138 0.06 6.47 0.99 11.97
11/6/2020 10:15:00 PM 8.37 47.066 0.06 6.46 0.96 11.98
11/6/2020 10:30:00 PM 8.33 46.994 0.06 6.43 0.97 12
11/6/2020 10:45:00 PM 8.29 46.922 0.06 6.51 0.94 12.01
11/6/2020 11:00:00 PM 8.24 46.832 0.06 6.45 0.96 12.02
11/6/2020 11:15:00 PM 8.2 46.76 0.06 6.42 0.92 12.04
11/6/2020 11:30:00 PM 8.15 46.67 0.06 6.39 0.94 12.06
11/6/2020 11:45:00 PM 8.1 46.58 0.06 6.45 1 12.08
11/7/2020 12:00:00 AM 8.05 46.49 0.06 6.38 0.97 12.1
11/7/2020 12:15:00 AM 8 46.4 0.06 6.44 0.97 12.12
11/7/2020 12:30:00 AM 7.95 46.31 0.06 6.41 0.95 12.14
11/7/2020 12:45:00 AM 7.9 46.22 0.06 6.45 0.94 12.15
11/7/2020 1:00:00 AM 7.85 46.13 0.06 6.45 0.97 12.17
11/7/2020 1:15:00 AM 7.8 46.04 0.06 6.47 0.98 12.19
11/7/2020 1:30:00 AM 7.75 45.95 0.06 6.46 0.95 12.21
11/7/2020 1:45:00 AM 7.7 45.86 0.06 6.42 0.98 12.23
11/7/2020 2:00:00 AM 7.65 45.77 0.06 6.42 0.97 12.24
11/7/2020 2:15:00 AM 7.61 45.698 0.06 6.43 0.97 12.25
11/7/2020 2:30:00 AM 7.56 45.608 0.06 6.44 0.96 12.27
11/7/2020 2:45:00 AM 7.51 45.518 0.06 6.44 1 12.29
11/7/2020 3:00:00 AM 7.46 45.428 0.06 6.43 0.96 12.31
11/7/2020 3:15:00 AM 7.42 45.356 0.059 6.42 0.98 12.33
11/7/2020 3:30:00 AM 7.37 45.266 0.059 6.43 0.97 12.34
11/7/2020 3:45:00 AM 7.33 45.194 0.059 6.43 1.02 12.36
11/7/2020 4:00:00 AM 7.29 45.122 0.059 6.37 0.94 12.37
11/7/2020 4:15:00 AM 7.25 45.05 0.059 6.45 1 12.39
11/7/2020 4:30:00 AM 7.2 44.96 0.059 6.46 0.97 12.41
11/7/2020 4:45:00 AM 7.16 44.888 0.059 6.49 0.98 12.42
11/7/2020 5:00:00 AM 7.12 44.816 0.059 6.47 1 12.44
11/7/2020 5:15:00 AM 7.08 44.744 0.059 6.57 0.97 12.45
11/7/2020 5:30:00 AM 7.04 44.672 0.059 6.52 0.98 12.47
11/7/2020 5:45:00 AM 7 44.6 0.059 6.53 1.03 12.48
11/7/2020 6:00:00 AM 6.96 44.528 0.059 6.48 0.99 12.49
11/7/2020 6:15:00 AM 6.92 44.456 0.059 6.52 1.02 12.5
11/7/2020 6:30:00 AM 6.88 44.384 0.059 6.53 1.03 12.52
11/7/2020 6:45:00 AM 6.84 44.312 0.059 6.51 1.01 12.54
11/7/2020 7:00:00 AM 6.8 44.24 0.059 6.52 0.98 12.59
11/7/2020 7:15:00 AM 6.78 44.204 0.059 6.56 0.95 12.64
11/7/2020 7:30:00 AM 6.76 44.168 0.059 6.58 0.98 12.71
11/7/2020 7:45:00 AM 6.75 44.15 0.059 6.58 0.95 12.77
11/7/2020 8:00:00 AM 6.75 44.15 0.059 6.51 0.97 12.82
11/7/2020 8:15:00 AM 6.78 44.204 0.059 6.56 0.96 12.86
11/7/2020 8:30:00 AM 6.82 44.276 0.059 6.57 0.98 12.89
11/7/2020 8:45:00 AM 6.87 44.366 0.059 6.57 0.99 12.91
11/7/2020 9:00:00 AM 6.94 44.492 0.059 6.6 0.98 12.91
11/7/2020 9:15:00 AM 7.03 44.654 0.058 6.59 0.96 12.92
11/7/2020 9:30:00 AM 7.11 44.798 0.058 6.54 0.97 12.91
11/7/2020 9:45:00 AM 7.19 44.942 0.058 6.57 1 12.89
11/7/2020 10:00:00 AM 7.27 45.086 0.058 6.61 1.06 12.88
11/7/2020 10:15:00 AM 7.36 45.248 0.058 6.59 0.97 12.84
11/7/2020 10:30:00 AM 7.49 45.482 0.058 6.63 0.95 12.81
11/7/2020 10:45:00 AM 7.63 45.734 0.058 6.62 1.03 12.77
11/7/2020 11:00:00 AM 7.8 46.04 0.058 6.69 1.01 12.73
11/7/2020 11:15:00 AM 8.01 46.418 0.058 6.69 0.96 12.67
11/7/2020 11:30:00 AM 8.24 46.832 0.058 6.68 0.94 12.59
11/7/2020 11:45:00 AM 8.51 47.318 0.058 6.64 0.99 12.51
11/7/2020 12:00:00 PM 8.75 47.75 0.058 6.65 0.97 12.42
11/7/2020 12:15:00 PM 8.97 48.146 0.058 6.66 0.99 12.33
11/7/2020 12:30:00 PM 9.17 48.506 0.058 6.63 1.01 12.26
11/7/2020 12:45:00 PM 9.31 48.758 0.058 6.57 0.93 12.18
11/7/2020 1:00:00 PM 9.43 48.974 0.058 6.58 1 12.13
11/7/2020 1:15:00 PM 9.51 49.118 0.058 6.51 0.97 12.08
11/7/2020 1:30:00 PM 9.57 49.226 0.058 6.53 0.98 12.05
11/7/2020 1:45:00 PM 9.59 49.262 0.058 6.49 0.95 12.02
11/7/2020 2:00:00 PM 9.6 49.28 0.058 6.44 0.94 12
11/7/2020 2:15:00 PM 9.6 49.28 0.058 6.58 0.96 11.99
11/7/2020 2:30:00 PM 9.61 49.298 0.058 6.52 1 11.97
11/7/2020 2:45:00 PM 9.6 49.28 0.058 6.45 0.97 11.95
11/7/2020 3:00:00 PM 9.6 49.28 0.058 6.44 0.97 11.93
11/7/2020 3:15:00 PM 9.6 49.28 0.058 6.43 0.96 11.92
11/7/2020 3:30:00 PM 9.6 49.28 0.058 6.42 0.95 11.91
11/7/2020 3:45:00 PM 9.59 49.262 0.058 6.42 1 11.9
11/7/2020 4:00:00 PM 9.58 49.244 0.058 6.41 0.98 11.88
11/7/2020 4:15:00 PM 9.55 49.19 0.058 6.35 1.01 11.86
11/7/2020 4:30:00 PM 9.51 49.118 0.058 6.41 0.97 11.82
11/7/2020 4:45:00 PM 9.47 49.046 0.059 6.42 0.96 11.8
11/7/2020 5:00:00 PM 9.42 48.956 0.059 6.39 0.95 11.76
11/7/2020 5:15:00 PM 9.37 48.866 0.059 6.37 1 11.74
11/7/2020 5:30:00 PM 9.32 48.776 0.059 6.33 1.03 11.73
11/7/2020 5:45:00 PM 9.27 48.686 0.059 6.3 1 11.73
11/7/2020 6:00:00 PM 9.22 48.596 0.059 6.35 1.03 11.73
11/7/2020 6:15:00 PM 9.16 48.488 0.059 6.34 1.01 11.74
11/7/2020 6:30:00 PM 9.11 48.398 0.059 6.35 0.99 11.76
11/7/2020 6:45:00 PM 9.06 48.308 0.059 6.35 1 11.77
11/7/2020 7:00:00 PM 9.01 48.218 0.059 6.36 1.02 11.78
11/7/2020 7:15:00 PM 8.97 48.146 0.059 6.38 0.99 11.79
11/7/2020 7:30:00 PM 8.92 48.056 0.059 6.35 1.02 11.8
11/7/2020 7:45:00 PM 8.88 47.984 0.06 6.37 0.96 11.81
11/7/2020 8:00:00 PM 8.83 47.894 0.06 6.29 1 11.83
11/7/2020 8:15:00 PM 8.79 47.822 0.06 6.33 0.99 11.84
11/7/2020 8:30:00 PM 8.75 47.75 0.06 6.32 0.98 11.86
11/7/2020 8:45:00 PM 8.71 47.678 0.06 6.34 0.94 11.87
11/7/2020 9:00:00 PM 8.67 47.606 0.06 6.38 0.98 11.88
11/7/2020 9:15:00 PM 8.63 47.534 0.06 6.31 1 11.9
11/7/2020 9:30:00 PM 8.59 47.462 0.06 6.37 0.97 11.91
11/7/2020 9:45:00 PM 8.55 47.39 0.06 6.36 1.03 11.92
11/7/2020 10:00:00 PM 8.51 47.318 0.06 6.29 0.97 11.93
11/7/2020 10:15:00 PM 8.47 47.246 0.06 6.37 0.96 11.95
11/7/2020 10:30:00 PM 8.42 47.156 0.06 6.38 1 11.97
11/7/2020 10:45:00 PM 8.38 47.084 0.06 6.38 0.97 11.98
11/7/2020 11:00:00 PM 8.34 47.012 0.06 6.35 0.98 11.99
11/7/2020 11:15:00 PM 8.29 46.922 0.06 6.37 0.99 12.01
11/7/2020 11:30:00 PM 8.25 46.85 0.06 6.38 0.99 12.01
11/7/2020 11:45:00 PM 8.2 46.76 0.06 6.38 0.99 12.02
11/8/2020 12:00:00 AM 8.16 46.688 0.06 6.33 0.96 12.05
11/8/2020 12:15:00 AM 8.11 46.598 0.06 6.39 0.98 12.07
11/8/2020 12:30:00 AM 8.06 46.508 0.06 6.39 0.95 12.09
11/8/2020 12:45:00 AM 8.01 46.418 0.06 6.37 0.94 12.11
11/8/2020 1:00:00 AM 7.96 46.328 0.06 6.33 0.98 12.12
11/8/2020 1:15:00 AM 7.91 46.238 0.06 6.37 0.97 12.14
11/8/2020 1:30:00 AM 7.86 46.148 0.06 6.37 0.97 12.15
11/8/2020 1:45:00 AM 7.81 46.058 0.06 6.39 1.01 12.18
11/8/2020 2:00:00 AM 7.76 45.968 0.06 6.37 0.99 12.2
11/8/2020 2:15:00 AM 7.71 45.878 0.06 6.35 0.99 12.21
11/8/2020 2:30:00 AM 7.66 45.788 0.06 6.33 0.97 12.23
11/8/2020 2:45:00 AM 7.61 45.698 0.06 6.3 0.99 12.24
11/8/2020 3:00:00 AM 7.56 45.608 0.06 6.32 1.02 12.26
11/8/2020 3:15:00 AM 7.51 45.518 0.06 6.35 1.01 12.28
11/8/2020 3:30:00 AM 7.46 45.428 0.06 6.33 0.97 12.3
11/8/2020 3:45:00 AM 7.41 45.338 0.06 6.34 0.99 12.31
11/8/2020 4:00:00 AM 7.36 45.248 0.06 6.31 0.99 12.33
11/8/2020 4:15:00 AM 7.31 45.158 0.06 6.38 1 12.36
11/8/2020 4:30:00 AM 7.26 45.068 0.06 6.34 1.02 12.37
11/8/2020 4:45:00 AM 7.22 44.996 0.06 6.35 1.02 12.38
11/8/2020 5:00:00 AM 7.17 44.906 0.06 6.34 1.02 12.41
11/8/2020 5:15:00 AM 7.13 44.834 0.06 6.37 0.97 12.43
11/8/2020 5:30:00 AM 7.08 44.744 0.06 6.41 1.02 12.45
11/8/2020 5:45:00 AM 7.04 44.672 0.06 6.37 1 12.46
11/8/2020 6:00:00 AM 6.99 44.582 0.06 6.31 1 12.49
11/8/2020 6:15:00 AM 6.95 44.51 0.06 6.38 1.01 12.49
11/8/2020 6:30:00 AM 6.9 44.42 0.06 6.36 1.03 12.51
11/8/2020 6:45:00 AM 6.86 44.348 0.06 6.34 1.01 12.54
11/8/2020 7:00:00 AM 6.82 44.276 0.06 6.35 0.99 12.58
11/8/2020 7:15:00 AM 6.78 44.204 0.06 6.36 0.99 12.63
11/8/2020 7:30:00 AM 6.76 44.168 0.06 6.34 1 12.7
11/8/2020 7:45:00 AM 6.74 44.132 0.06 6.37 1.01 12.76
11/8/2020 8:00:00 AM 6.74 44.132 0.06 6.41 1.01 12.82
11/8/2020 8:15:00 AM 6.76 44.168 0.059 6.44 0.99 12.87
11/8/2020 8:30:00 AM 6.8 44.24 0.059 6.44 1.02 12.91
11/8/2020 8:45:00 AM 6.87 44.366 0.059 6.46 1.02 12.93
11/8/2020 9:00:00 AM 6.94 44.492 0.059 6.47 0.98 12.95
11/8/2020 9:15:00 AM 7.02 44.636 0.059 6.47 0.96 12.96
11/8/2020 9:30:00 AM 7.11 44.798 0.059 6.5 1 12.95
11/8/2020 9:45:00 AM 7.18 44.924 0.059 6.51 0.97 12.94
11/8/2020 10:00:00 AM 7.25 45.05 0.059 6.53 0.99 12.93
11/8/2020 10:15:00 AM 7.35 45.23 0.059 6.53 1 12.91
11/8/2020 10:30:00 AM 7.47 45.446 0.059 6.54 1.01 12.86
11/8/2020 10:45:00 AM 7.6 45.68 0.059 6.53 1 12.82
11/8/2020 11:00:00 AM 7.77 45.986 0.059 6.52 1 12.78
11/8/2020 11:15:00 AM 7.97 46.346 0.059 6.6 0.96 12.72
11/8/2020 11:30:00 AM 8.2 46.76 0.059 6.62 0.97 12.64
11/8/2020 11:45:00 AM 8.44 47.192 0.059 6.63 0.97 12.56
11/8/2020 12:00:00 PM 8.69 47.642 0.059 6.62 1.01 12.46
11/8/2020 12:15:00 PM 8.92 48.056 0.059 6.68 1.13 12.38
11/8/2020 12:30:00 PM 9.14 48.452 0.059 6.66 1.36 12.3
11/8/2020 12:45:00 PM 9.3 48.74 0.059 6.68 1.18 12.23
11/8/2020 1:00:00 PM 9.42 48.956 0.059 6.67 0.97 12.17
11/8/2020 1:15:00 PM 9.51 49.118 0.059 6.67 0.98 12.12
11/8/2020 1:30:00 PM 9.58 49.244 0.059 6.63 0.98 12.09
11/8/2020 1:45:00 PM 9.61 49.298 0.059 6.61 1.02 12.07
11/8/2020 2:00:00 PM 9.62 49.316 0.059 6.58 0.98 12.04
11/8/2020 2:15:00 PM 9.62 49.316 0.059 6.56 0.99 12.03
11/8/2020 2:30:00 PM 9.62 49.316 0.059 6.6 0.98 12.01
11/8/2020 2:45:00 PM 9.62 49.316 0.059 6.55 0.97 12
11/8/2020 3:00:00 PM 9.62 49.316 0.059 6.53 1.01 11.97
11/8/2020 3:15:00 PM 9.62 49.316 0.059 6.55 0.97 11.94
11/8/2020 3:30:00 PM 9.62 49.316 0.059 6.52 0.96 11.92
11/8/2020 3:45:00 PM 9.62 49.316 0.059 6.5 0.99 11.9
11/8/2020 4:00:00 PM 9.6 49.28 0.059 6.53 0.95 11.88
11/8/2020 4:15:00 PM 9.58 49.244 0.059 6.51 0.99 11.85
11/8/2020 4:30:00 PM 9.54 49.172 0.06 6.48 1 11.82
11/8/2020 4:45:00 PM 9.5 49.1 0.06 6.5 0.97 11.79
11/8/2020 5:00:00 PM 9.45 49.01 0.06 6.52 0.97 11.77
11/8/2020 5:15:00 PM 9.39 48.902 0.06 6.51 1.01 11.75
11/8/2020 5:30:00 PM 9.34 48.812 0.06 6.5 1.1 11.75
11/8/2020 5:45:00 PM 9.28 48.704 0.06 6.49 1.05 11.75
11/8/2020 6:00:00 PM 9.23 48.614 0.06 6.48 1 11.75
11/8/2020 6:15:00 PM 9.17 48.506 0.06 6.46 0.97 11.77
11/8/2020 6:30:00 PM 9.11 48.398 0.06 6.45 1.02 11.79
11/8/2020 6:45:00 PM 9.06 48.308 0.06 6.44 1.06 11.81
11/8/2020 7:00:00 PM 9 48.2 0.06 6.44 1.01 11.82
11/8/2020 7:15:00 PM 8.95 48.11 0.06 6.46 1.03 11.84
11/8/2020 7:30:00 PM 8.89 48.002 0.06 6.51 1.01 11.84
11/8/2020 7:45:00 PM 8.84 47.912 0.06 6.53 1.06 11.85
11/8/2020 8:00:00 PM 8.8 47.84 0.06 6.53 1.09 11.87
11/8/2020 8:15:00 PM 8.75 47.75 0.06 6.53 1.01 11.88
11/8/2020 8:30:00 PM 8.71 47.678 0.061 6.45 0.98 11.9
11/8/2020 8:45:00 PM 8.66 47.588 0.061 6.5 1 11.91
11/8/2020 9:00:00 PM 8.62 47.516 0.061 6.55 1.04 11.93
11/8/2020 9:15:00 PM 8.58 47.444 0.061 6.54 0.99 11.94
11/8/2020 9:30:00 PM 8.55 47.39 0.06 6.53 1.04 11.95
11/8/2020 9:45:00 PM 8.51 47.318 0.06 6.53 1.04 11.96
11/8/2020 10:00:00 PM 8.47 47.246 0.06 6.46 1 11.97
11/8/2020 10:15:00 PM 8.44 47.192 0.06 6.54 1 11.99
11/8/2020 10:30:00 PM 8.4 47.12 0.06 6.52 1.04 12
11/8/2020 10:45:00 PM 8.36 47.048 0.06 6.51 1.02 12.01
11/8/2020 11:00:00 PM 8.32 46.976 0.06 6.52 1.01 12.02
11/8/2020 11:15:00 PM 8.28 46.904 0.06 6.5 0.98 12.03
11/8/2020 11:30:00 PM 8.23 46.814 0.06 6.48 1.15 12.04
11/8/2020 11:45:00 PM 8.19 46.742 0.06 6.46 1.03 12.05
11/9/2020 12:00:00 AM 8.15 46.67 0.06 6.47 1.01 12.07
11/9/2020 12:15:00 AM 8.1 46.58 0.06 6.48 0.98 12.09
11/9/2020 12:30:00 AM 8.06 46.508 0.06 6.5 0.97 12.1
11/9/2020 12:45:00 AM 8.01 46.418 0.06 6.51 1.01 12.12
11/9/2020 1:00:00 AM 7.96 46.328 0.06 6.5 1 12.13
11/9/2020 1:15:00 AM 7.92 46.256 0.06 6.5 1.02 12.15
11/9/2020 1:30:00 AM 7.87 46.166 0.06 6.44 1.03 12.18
11/9/2020 1:45:00 AM 7.82 46.076 0.06 6.49 0.99 12.19
11/9/2020 2:00:00 AM 7.77 45.986 0.06 6.52 1.08 12.21
11/9/2020 2:15:00 AM 7.73 45.914 0.06 6.51 1 12.22
11/9/2020 2:30:00 AM 7.68 45.824 0.06 6.45 0.98 12.24
11/9/2020 2:45:00 AM 7.63 45.734 0.06 6.49 1.03 12.25
11/9/2020 3:00:00 AM 7.59 45.662 0.06 6.5 0.98 12.26
11/9/2020 3:15:00 AM 7.54 45.572 0.06 6.53 1.03 12.28
11/9/2020 3:30:00 AM 7.5 45.5 0.06 6.52 1.01 12.3
11/9/2020 3:45:00 AM 7.46 45.428 0.06 6.53 1.04 12.31
11/9/2020 4:00:00 AM 7.41 45.338 0.06 6.56 1.01 12.33
11/9/2020 4:15:00 AM 7.37 45.266 0.06 6.57 0.98 12.34
11/9/2020 4:30:00 AM 7.33 45.194 0.06 6.62 1.03 12.37
11/9/2020 4:45:00 AM 7.29 45.122 0.06 6.6 1.01 12.38
11/9/2020 5:00:00 AM 7.24 45.032 0.06 6.62 1 12.4
11/9/2020 5:15:00 AM 7.2 44.96 0.06 6.62 1 12.41
11/9/2020 5:30:00 AM 7.16 44.888 0.06 6.55 1.02 12.43
11/9/2020 5:45:00 AM 7.12 44.816 0.06 6.61 1.04 12.45
11/9/2020 6:00:00 AM 7.08 44.744 0.06 6.63 1 12.45
11/9/2020 6:15:00 AM 7.04 44.672 0.06 6.63 0.99 12.47
11/9/2020 6:30:00 AM 7.01 44.618 0.06 6.63 1.05 12.47
11/9/2020 6:45:00 AM 6.97 44.546 0.06 6.57 1.01 12.5
11/9/2020 7:00:00 AM 6.93 44.474 0.06 6.64 1.01 12.54
11/9/2020 7:15:00 AM 6.89 44.402 0.06 6.65 1.05 12.59
11/9/2020 7:30:00 AM 6.87 44.366 0.06 6.65 1.09 12.65
11/9/2020 7:45:00 AM 6.85 44.33 0.06 6.66 1.01 12.71
11/9/2020 8:00:00 AM 6.85 44.33 0.06 6.67 1.02 12.78
11/9/2020 8:15:00 AM 6.88 44.384 0.06 6.69 1.02 12.83
11/9/2020 8:30:00 AM 6.93 44.474 0.06 6.73 1.01 12.87
11/9/2020 8:45:00 AM 7 44.6 0.06 6.75 0.99 12.89
11/9/2020 9:00:00 AM 7.08 44.744 0.06 6.7 0.98 12.92
11/9/2020 9:15:00 AM 7.17 44.906 0.06 6.76 1.02 12.92
11/9/2020 9:30:00 AM 7.27 45.086 0.06 6.78 1.01 12.91
11/9/2020 9:45:00 AM 7.34 45.212 0.06 6.78 0.98 12.9
11/9/2020 10:00:00 AM 7.41 45.338 0.06 6.81 1.01 12.87
11/9/2020 10:15:00 AM 7.5 45.5 0.059 6.82 1.03 12.84
11/9/2020 10:30:00 AM 7.62 45.716 0.059 6.79 0.99 12.81
11/9/2020 10:45:00 AM 7.76 45.968 0.059 6.82 0.95 12.78
11/9/2020 11:00:00 AM 7.92 46.256 0.059 6.86 1.13 12.72
11/9/2020 11:15:00 AM 8.12 46.616 0.059 6.88 1 12.66
11/9/2020 11:30:00 AM 8.35 47.03 0.059 6.9 0.99 12.6
11/9/2020 11:45:00 AM 8.61 47.498 0.059 6.91 0.97 12.52
11/9/2020 12:00:00 PM 8.86 47.948 0.059 6.9 0.99 12.41
11/9/2020 12:15:00 PM 9.11 48.398 0.059 6.93 0.99 12.33
11/9/2020 12:30:00 PM 9.35 48.83 0.059 6.95 0.99 12.23
11/9/2020 12:45:00 PM 9.52 49.136 0.059 6.93 1.01 12.16
11/9/2020 1:00:00 PM 9.66 49.388 0.059 6.91 1.02 12.12
11/9/2020 1:15:00 PM 9.78 49.604 0.059 6.91 0.99 12.05
11/9/2020 1:30:00 PM 9.86 49.748 0.059 6.88 1.01 12
11/9/2020 1:45:00 PM 9.91 49.838 0.059 6.87 0.99 11.97
11/9/2020 2:00:00 PM 9.94 49.892 0.059 6.82 0.99 11.92
11/9/2020 2:15:00 PM 9.95 49.91 0.059 6.82 0.99 11.91
11/9/2020 2:30:00 PM 9.95 49.91 0.059 6.8 0.99 11.89
11/9/2020 2:45:00 PM 9.95 49.91 0.059 6.82 1.09 11.86
11/9/2020 3:00:00 PM 9.95 49.91 0.06 6.82 0.99 11.84
11/9/2020 3:15:00 PM 9.95 49.91 0.06 6.79 1.01 11.81
11/9/2020 3:30:00 PM 9.96 49.928 0.06 6.76 1.03 11.78
11/9/2020 3:45:00 PM 9.96 49.928 0.06 6.78 1.02 11.75
11/9/2020 4:00:00 PM 9.95 49.91 0.06 6.77 1.07 11.72
11/9/2020 4:15:00 PM 9.94 49.892 0.06 6.77 1 11.7
11/9/2020 4:30:00 PM 9.92 49.856 0.06 6.75 1.01 11.66
11/9/2020 4:45:00 PM 9.89 49.802 0.06 6.72 1.08 11.63
11/9/2020 5:00:00 PM 9.85 49.73 0.061 6.69 1.38 11.59
11/9/2020 5:15:00 PM 9.81 49.658 0.061 6.58 1.06 11.57
11/9/2020 5:30:00 PM 9.77 49.586 0.061 6.54 1.12 11.56
11/9/2020 5:45:00 PM 9.72 49.496 0.061 6.49 1.04 11.56
11/9/2020 6:00:00 PM 9.67 49.406 0.061 6.5 1.04 11.56
11/9/2020 6:15:00 PM 9.62 49.316 0.061 6.5 1.1 11.57
11/9/2020 6:30:00 PM 9.57 49.226 0.061 6.49 1.06 11.58
11/9/2020 6:45:00 PM 9.52 49.136 0.061 6.47 1.06 11.59
11/9/2020 7:00:00 PM 9.47 49.046 0.061 6.45 1.04 11.6
11/9/2020 7:15:00 PM 9.42 48.956 0.061 6.51 1.04 11.62
11/9/2020 7:30:00 PM 9.37 48.866 0.061 6.59 1.05 11.63
11/9/2020 7:45:00 PM 9.32 48.776 0.061 6.62 1.07 11.65
11/9/2020 8:00:00 PM 9.28 48.704 0.061 6.57 1.11 11.67
11/9/2020 8:15:00 PM 9.23 48.614 0.061 6.58 1.04 11.68
11/9/2020 8:30:00 PM 9.19 48.542 0.061 6.58 1.04 11.69
11/9/2020 8:45:00 PM 9.15 48.47 0.061 6.56 1.04 11.71
11/9/2020 9:00:00 PM 9.12 48.416 0.061 6.56 1.15 11.72
11/9/2020 9:15:00 PM 9.09 48.362 0.061 6.55 1.02 11.73
11/9/2020 9:30:00 PM 9.05 48.29 0.061 6.59 1.04 11.74
11/9/2020 9:45:00 PM 9.02 48.236 0.061 6.6 1.05 11.75
11/9/2020 10:00:00 PM 8.99 48.182 0.061 6.63 1.15 11.76
11/9/2020 10:15:00 PM 8.97 48.146 0.061 6.62 1.03 11.76
11/9/2020 10:30:00 PM 8.94 48.092 0.061 6.6 1.05 11.76
11/9/2020 10:45:00 PM 8.91 48.038 0.061 6.54 1.05 11.77
11/9/2020 11:00:00 PM 8.89 48.002 0.061 6.58 1.05 11.78
11/9/2020 11:15:00 PM 8.86 47.948 0.061 6.53 1.03 11.78
11/9/2020 11:30:00 PM 8.83 47.894 0.061 6.54 1.06 11.79
11/9/2020 11:45:00 PM 8.8 47.84 0.061 6.57 1.06 11.8
11/10/2020 12:00:00 AM 8.77 47.786 0.061 6.58 1.1 11.81
11/10/2020 12:15:00 AM 8.75 47.75 0.061 6.61 1.07 11.82
11/10/2020 12:30:00 AM 8.71 47.678 0.061 6.62 1.03 11.83
11/10/2020 12:45:00 AM 8.68 47.624 0.061 6.62 1.09 11.84
11/10/2020 1:00:00 AM 8.65 47.57 0.061 6.52 1.05 11.86
11/10/2020 1:15:00 AM 8.62 47.516 0.061 6.58 1.07 11.87
11/10/2020 1:30:00 AM 8.59 47.462 0.061 6.58 1.09 11.88
11/10/2020 1:45:00 AM 8.55 47.39 0.061 6.6 1.08 11.89
11/10/2020 2:00:00 AM 8.52 47.336 0.061 6.49 1.1 11.9
11/10/2020 2:15:00 AM 8.48 47.264 0.061 6.54 1.08 11.91
11/10/2020 2:30:00 AM 8.45 47.21 0.061 6.54 1.09 11.93
11/10/2020 2:45:00 AM 8.41 47.138 0.061 6.57 1.08 11.94
11/10/2020 3:00:00 AM 8.37 47.066 0.061 6.6 1.06 11.95
11/10/2020 3:15:00 AM 8.34 47.012 0.061 6.58 1.08 11.96
11/10/2020 3:30:00 AM 8.31 46.958 0.061 6.62 1.04 11.96
11/10/2020 3:45:00 AM 8.28 46.904 0.061 6.62 1.08 11.96
11/10/2020 4:00:00 AM 8.24 46.832 0.061 6.56 1.05 11.98
11/10/2020 4:15:00 AM 8.21 46.778 0.061 6.46 1.07 11.98
11/10/2020 4:30:00 AM 8.18 46.724 0.061 6.54 1.09 12
11/10/2020 4:45:00 AM 8.15 46.67 0.061 6.57 1.06 12.01
11/10/2020 5:00:00 AM 8.11 46.598 0.061 6.55 1.06 12.02
11/10/2020 5:15:00 AM 8.08 46.544 0.061 6.57 1.07 12.03
11/10/2020 5:30:00 AM 8.05 46.49 0.061 6.51 1.08 12.04
11/10/2020 5:45:00 AM 8.01 46.418 0.061 6.45 1.04 12.06
11/10/2020 6:00:00 AM 7.98 46.364 0.061 6.47 1.06 12.07
11/10/2020 6:15:00 AM 7.95 46.31 0.061 6.47 1.06 12.08
11/10/2020 6:30:00 AM 7.92 46.256 0.061 6.48 1.12 12.09
11/10/2020 6:45:00 AM 7.9 46.22 0.061 6.51 1.06 12.11
11/10/2020 7:00:00 AM 7.87 46.166 0.061 6.53 1.03 12.15
11/10/2020 7:15:00 AM 7.85 46.13 0.061 6.55 1.04 12.2
11/10/2020 7:30:00 AM 7.84 46.112 0.061 6.58 1.05 12.27
11/10/2020 7:45:00 AM 7.84 46.112 0.061 6.6 1.01 12.33
11/10/2020 8:00:00 AM 7.85 46.13 0.061 6.63 1.16 12.39
11/10/2020 8:15:00 AM 7.88 46.184 0.061 6.67 1.05 12.45
11/10/2020 8:30:00 AM 7.93 46.274 0.061 6.7 1.07 12.49
11/10/2020 8:45:00 AM 8 46.4 0.06 6.74 1.07 12.52
11/10/2020 9:00:00 AM 8.07 46.526 0.06 6.73 1.06 12.53
11/10/2020 9:15:00 AM 8.16 46.688 0.06 6.77 1.06 12.53
11/10/2020 9:30:00 AM 8.25 46.85 0.06 6.8 1.03 12.53
11/10/2020 9:45:00 AM 8.32 46.976 0.06 6.81 1.05 12.52
11/10/2020 10:00:00 AM 8.4 47.12 0.06 6.82 1.04 12.5
11/10/2020 10:15:00 AM 8.5 47.3 0.06 6.84 1.01 12.48
11/10/2020 10:30:00 AM 8.63 47.534 0.06 6.88 1.05 12.43
11/10/2020 10:45:00 AM 8.79 47.822 0.06 6.86 1.07 12.39
11/10/2020 11:00:00 AM 8.98 48.164 0.06 6.91 1.02 12.34
11/10/2020 11:15:00 AM 9.19 48.542 0.06 6.95 1.05 12.29
11/10/2020 11:30:00 AM 9.44 48.992 0.059 6.97 0.99 12.21
11/10/2020 11:45:00 AM 9.67 49.406 0.059 6.98 1.01 12.14
11/10/2020 12:00:00 PM 9.93 49.874 0.059 6.99 1.04 12.04
11/10/2020 12:15:00 PM 10.15 50.27 0.059 6.99 1.06 11.96
11/10/2020 12:30:00 PM 10.37 50.666 0.059 6.97 1 11.89
11/10/2020 12:45:00 PM 10.53 50.954 0.059 6.95 1 11.8
11/10/2020 1:00:00 PM 10.67 51.206 0.059 6.98 1.03 11.74
11/10/2020 1:15:00 PM 10.75 51.35 0.059 6.96 1.04 11.69
11/10/2020 1:30:00 PM 10.81 51.458 0.059 6.95 1.03 11.67
11/10/2020 1:45:00 PM 10.88 51.584 0.059 6.93 1.04 11.64
11/10/2020 2:00:00 PM 10.93 51.674 0.059 6.92 1.04 11.6
11/10/2020 2:15:00 PM 10.91 51.638 0.059 6.88 1.06 11.57
11/10/2020 2:30:00 PM 10.96 51.728 0.059 6.88 1.07 11.58
11/10/2020 2:45:00 PM 10.97 51.746 0.06 6.88 1.07 11.54
11/10/2020 3:00:00 PM 10.98 51.764 0.06 6.87 1.05 11.53
11/10/2020 3:15:00 PM 11.02 51.836 0.06 6.87 1.04 11.53
11/10/2020 3:30:00 PM 11.03 51.854 0.06 6.86 1.04 11.48
11/10/2020 3:45:00 PM 11.05 51.89 0.06 6.77 1.05 11.44
11/10/2020 4:00:00 PM 11.05 51.89 0.06 6.84 1.14 11.42
11/10/2020 4:15:00 PM 11.04 51.872 0.06 6.82 1.05 11.36
11/10/2020 4:30:00 PM 11.02 51.836 0.06 6.81 1.03 11.31
11/10/2020 4:45:00 PM 10.99 51.782 0.06 6.78 1.07 11.26
11/10/2020 5:00:00 PM 10.95 51.71 0.06 6.76 1.07 11.22
11/10/2020 5:15:00 PM 10.91 51.638 0.061 6.64 1.09 11.17
11/10/2020 5:30:00 PM 10.87 51.566 0.061 6.59 1.11 11.16
11/10/2020 5:45:00 PM 10.82 51.476 0.061 6.61 1.12 11.15
11/10/2020 6:00:00 PM 10.78 51.404 0.061 6.54 1.07 11.16
11/10/2020 6:15:00 PM 10.74 51.332 0.061 6.57 1.07 11.16
11/10/2020 6:30:00 PM 10.69 51.242 0.061 6.59 1.07 11.16
11/10/2020 6:45:00 PM 10.66 51.188 0.061 6.62 1.1 11.18
11/10/2020 7:00:00 PM 10.62 51.116 0.061 6.64 1.1 11.18
11/10/2020 7:15:00 PM 10.57 51.026 0.061 6.65 1.1 11.21
11/10/2020 7:30:00 PM 10.53 50.954 0.061 6.62 1.09 11.21
11/10/2020 7:45:00 PM 10.49 50.882 0.061 6.58 1.06 11.22
11/10/2020 8:00:00 PM 10.45 50.81 0.061 6.62 1.08 11.23
11/10/2020 8:15:00 PM 10.41 50.738 0.061 6.63 1.1 11.25
11/10/2020 8:30:00 PM 10.37 50.666 0.061 6.62 1.11 11.27
11/10/2020 8:45:00 PM 10.34 50.612 0.061 6.55 1.14 11.27
11/10/2020 9:00:00 PM 10.31 50.558 0.061 6.61 1.13 11.29
11/10/2020 9:15:00 PM 10.27 50.486 0.061 6.63 1.06 11.3
11/10/2020 9:30:00 PM 10.24 50.432 0.061 6.64 1.11 11.3
11/10/2020 9:45:00 PM 10.21 50.378 0.061 6.58 1.07 11.31
11/10/2020 10:00:00 PM 10.18 50.324 0.061 6.65 1.08 11.32
11/10/2020 10:15:00 PM 10.15 50.27 0.061 6.69 1.08 11.31
11/10/2020 10:30:00 PM 10.13 50.234 0.061 6.68 1.07 11.33
11/10/2020 10:45:00 PM 10.1 50.18 0.061 6.69 1.08 11.33
11/10/2020 11:00:00 PM 10.07 50.126 0.061 6.63 1.06 11.33
11/10/2020 11:15:00 PM 10.05 50.09 0.061 6.67 1.07 11.35
11/10/2020 11:30:00 PM 10.02 50.036 0.061 6.67 1.13 11.35
11/10/2020 11:45:00 PM 9.99 49.982 0.061 6.69 1.12 11.35
11/11/2020 12:00:00 AM 9.96 49.928 0.061 6.68 1.09 11.37
11/11/2020 12:15:00 AM 9.93 49.874 0.061 6.69 1.09 11.37
11/11/2020 12:30:00 AM 9.9 49.82 0.061 6.69 1.1 11.38
11/11/2020 12:45:00 AM 9.87 49.766 0.061 6.65 1.1 11.39
11/11/2020 1:00:00 AM 9.84 49.712 0.061 6.67 1.12 11.4
11/11/2020 1:15:00 AM 9.82 49.676 0.061 6.7 1.12 11.41
11/11/2020 1:30:00 AM 9.79 49.622 0.061 6.69 1.11 11.42
11/11/2020 1:45:00 AM 9.76 49.568 0.061 6.64 1.09 11.43
11/11/2020 2:00:00 AM 9.73 49.514 0.061 6.67 1.11 11.44
11/11/2020 2:15:00 AM 9.7 49.46 0.061 6.69 1.1 11.45
11/11/2020 2:30:00 AM 9.67 49.406 0.061 6.64 1.12 11.45
11/11/2020 2:45:00 AM 9.64 49.352 0.061 6.68 1.05 11.46
11/11/2020 3:00:00 AM 9.61 49.298 0.061 6.69 1.11 11.48
11/11/2020 3:15:00 AM 9.59 49.262 0.061 6.69 1.09 11.47
11/11/2020 3:30:00 AM 9.59 49.262 0.061 6.69 1.08 11.49
11/11/2020 3:45:00 AM 9.6 49.28 0.061 6.61 1.1 11.48
11/11/2020 4:00:00 AM 9.6 49.28 0.061 6.68 1.08 11.48
11/11/2020 4:15:00 AM 9.61 49.298 0.061 6.68 1.05 11.48
11/11/2020 4:30:00 AM 9.62 49.316 0.061 6.7 1.15 11.48
11/11/2020 4:45:00 AM 9.61 49.298 0.061 6.69 1.09 11.49
11/11/2020 5:00:00 AM 9.62 49.316 0.061 6.7 1.07 11.48
11/11/2020 5:15:00 AM 9.63 49.334 0.061 6.69 1.07 11.48
11/11/2020 5:30:00 AM 9.64 49.352 0.061 6.7 1.06 11.47
11/11/2020 5:45:00 AM 9.66 49.388 0.061 6.71 1.24 11.47
11/11/2020 6:00:00 AM 9.67 49.406 0.061 6.66 1.07 11.47
11/11/2020 6:15:00 AM 9.69 49.442 0.061 6.64 1.06 11.46
11/11/2020 6:30:00 AM 9.7 49.46 0.061 6.67 1.22 11.45
11/11/2020 6:45:00 AM 9.72 49.496 0.061 6.69 1.07 11.46
11/11/2020 7:00:00 AM 9.74 49.532 0.061 6.64 1.06 11.47
11/11/2020 7:15:00 AM 9.76 49.568 0.061 6.69 1.07 11.47
11/11/2020 7:30:00 AM 9.78 49.604 0.061 6.69 1 11.49
11/11/2020 7:45:00 AM 9.82 49.676 0.061 6.7 1.06 11.53
11/11/2020 8:00:00 AM 9.85 49.73 0.061 6.72 1.04 11.56
11/11/2020 8:15:00 AM 9.9 49.82 0.06 6.73 1.04 11.59
11/11/2020 8:30:00 AM 9.93 49.874 0.06 6.72 1.03 11.55
11/11/2020 8:45:00 AM 9.98 49.964 0.06 6.73 1 11.55
11/11/2020 9:00:00 AM 10.03 50.054 0.06 6.73 1.06 11.53
11/11/2020 9:15:00 AM 10.08 50.144 0.06 6.69 1.05 11.52
11/11/2020 9:30:00 AM 10.13 50.234 0.06 6.73 1.04 11.5
11/11/2020 9:45:00 AM 10.17 50.306 0.06 6.73 1.03 11.49
11/11/2020 10:00:00 AM 10.21 50.378 0.06 6.74 1.09 11.47
11/11/2020 10:15:00 AM 10.27 50.486 0.06 6.75 1.11 11.49
11/11/2020 10:30:00 AM 10.32 50.576 0.06 6.71 1.09 11.5
11/11/2020 10:45:00 AM 10.36 50.648 0.06 6.77 1.11 11.55
11/11/2020 11:00:00 AM 10.42 50.756 0.059 6.79 1.1 11.59
11/11/2020 11:15:00 AM 10.47 50.846 0.059 6.79 1.09 11.59
11/11/2020 11:30:00 AM 10.51 50.918 0.059 6.74 1.09 11.55
11/11/2020 11:45:00 AM 10.56 51.008 0.059 6.76 1.09 11.56
11/11/2020 12:00:00 PM 10.61 51.098 0.059 6.73 1.1 11.57
11/11/2020 12:15:00 PM 10.66 51.188 0.058 6.66 1.12 11.55
11/11/2020 12:30:00 PM 10.7 51.26 0.058 6.64 1.13 11.53
11/11/2020 12:45:00 PM 10.75 51.35 0.058 6.68 1.18 11.52
11/11/2020 1:00:00 PM 10.8 51.44 0.057 6.66 1.22 11.44
11/11/2020 1:15:00 PM 10.86 51.548 0.057 6.63 1.19 11.4
11/11/2020 1:30:00 PM 10.93 51.674 0.056 6.66 1.23 11.37
11/11/2020 1:45:00 PM 10.98 51.764 0.056 6.58 1.22 11.32
11/11/2020 2:00:00 PM 11.04 51.872 0.056 6.52 1.27 11.27
11/11/2020 2:15:00 PM 11.12 52.016 0.055 6.6 1.35 11.24
11/11/2020 2:30:00 PM 11.2 52.16 0.054 6.67 1.42 11.22
11/11/2020 2:45:00 PM 11.25 52.25 0.054 6.69 1.51 11.18
11/11/2020 3:00:00 PM 11.29 52.322 0.053 6.56 1.62 11.15
11/11/2020 3:15:00 PM 11.34 52.412 0.053 6.56 1.77 11.13
11/11/2020 3:30:00 PM 11.44 52.592 0.052 6.55 2.57 11.09
11/11/2020 3:45:00 PM 11.5 52.7 0.052 6.38 3.46 11.07
11/11/2020 4:00:00 PM 11.55 52.79 0.054 6.41 4.51 11.02
11/11/2020 4:15:00 PM 11.59 52.862 0.056 6.57 6.73 10.99
11/11/2020 4:30:00 PM 11.64 52.952 0.058 6.64 9.68 10.97
11/11/2020 4:45:00 PM 11.65 52.97 0.058 6.68 10.41 10.96
11/11/2020 5:00:00 PM 11.64 52.952 0.058 6.47 10.73 10.97
11/11/2020 5:15:00 PM 11.61 52.898 0.057 6.48 11.7 10.99
11/11/2020 5:30:00 PM 11.59 52.862 0.057 6.56 12.41 11.01
11/11/2020 5:45:00 PM 11.59 52.862 0.057 6.42 12.27 11.02
11/11/2020 6:00:00 PM 11.57 52.826 0.056 6.47 26.27 11.05
11/11/2020 6:15:00 PM 11.55 52.79 0.055 6.41 20.8 11.08
11/11/2020 6:30:00 PM 11.57 52.826 0.054 6.42 21.25 11.11
11/11/2020 6:45:00 PM 11.58 52.844 0.053 6.47 23.78 11.12
11/11/2020 7:00:00 PM 11.6 52.88 0.052 6.31 18.44 11.13
11/11/2020 7:15:00 PM 11.63 52.934 0.052 6.4 16.52 11.1
11/11/2020 7:30:00 PM 11.68 53.024 0.052 6.49 15.36 11.1
11/11/2020 7:45:00 PM 11.76 53.168 0.052 6.37 14.7 11.09
11/11/2020 8:00:00 PM 11.85 53.33 0.052 6.29 12.95 11.05
11/11/2020 8:15:00 PM 11.95 53.51 0.051 6.33 12.88 11.03
11/11/2020 8:30:00 PM 12.03 53.654 0.051 6.3 12.69 11.01
11/11/2020 8:45:00 PM 12.1 53.78 0.05 6.36 14.38 10.98
11/11/2020 9:00:00 PM 12.15 53.87 0.05 6.45 12.47 10.98
11/11/2020 9:15:00 PM 12.19 53.942 0.05 6.34 11.68 10.97
11/11/2020 9:30:00 PM 12.22 53.996 0.05 6.27 10.98 10.97
11/11/2020 9:45:00 PM 12.23 54.014 0.05 6.18 13.27 10.97
11/11/2020 10:00:00 PM 12.24 54.032 0.051 6.11 10.35 10.96
11/11/2020 10:15:00 PM 12.25 54.05 0.052 6.11 10.53 10.96
11/11/2020 10:30:00 PM 12.25 54.05 0.053 6.12 10.04 10.96
11/11/2020 10:45:00 PM 12.25 54.05 0.054 6.14 10.39 10.96
11/11/2020 11:00:00 PM 12.25 54.05 0.055 6.12 10 10.96
11/11/2020 11:15:00 PM 12.26 54.068 0.056 6.08 9.42 10.96
11/11/2020 11:30:00 PM 12.26 54.068 0.056 6.13 9.55 10.95
11/11/2020 11:45:00 PM 12.26 54.068 0.057 6.27 11.33 10.95
11/12/2020 12:00:00 AM 12.27 54.086 0.058 6.29 10.65 10.95
11/12/2020 12:15:00 AM 12.27 54.086 0.059 6.07 12.06 10.95
11/12/2020 12:30:00 AM 12.27 54.086 0.059 6.08 12.69 10.94
11/12/2020 12:45:00 AM 12.27 54.086 0.059 6.06 13.32 10.94
11/12/2020 1:00:00 AM 12.28 54.104 0.06 6.11 13.19 10.94
11/12/2020 1:15:00 AM 12.28 54.104 0.06 6.1 11.39 10.94
11/12/2020 1:30:00 AM 12.29 54.122 0.06 6.13 10.54 10.94
11/12/2020 1:45:00 AM 12.29 54.122 0.061 6.13 9.66 10.94
11/12/2020 2:00:00 AM 12.28 54.104 0.061 6.11 11.07 10.95
11/12/2020 2:15:00 AM 12.27 54.086 0.061 6.21 11.23 10.95
11/12/2020 2:30:00 AM 12.25 54.05 0.062 6.18 10.51 10.96
11/12/2020 2:45:00 AM 12.24 54.032 0.062 6.2 9.92 10.96
11/12/2020 3:00:00 AM 12.22 53.996 0.062 6.23 9.65 10.96
11/12/2020 3:15:00 AM 12.2 53.96 0.062 6.33 9.06 10.97
11/12/2020 3:30:00 AM 12.17 53.906 0.062 6.3 8.92 10.98
11/12/2020 3:45:00 AM 12.15 53.87 0.062 6.33 9.19 10.99
11/12/2020 4:00:00 AM 12.12 53.816 0.062 6.18 8.89 11
11/12/2020 4:15:00 AM 12.08 53.744 0.062 6.25 8.61 11
11/12/2020 4:30:00 AM 12.05 53.69 0.062 6.18 8.55 11.01
11/12/2020 4:45:00 AM 12.01 53.618 0.061 6.12 8.77 11.02
11/12/2020 5:00:00 AM 11.96 53.528 0.061 6.08 8.6 11.04
11/12/2020 5:15:00 AM 11.92 53.456 0.061 6.12 8.15 11.05
11/12/2020 5:30:00 AM 11.87 53.366 0.061 6.09 8.49 11.07
11/12/2020 5:45:00 AM 11.83 53.294 0.061 6.12 7.97 11.08
11/12/2020 6:00:00 AM 11.78 53.204 0.061 6.26 7.72 11.1
11/12/2020 6:15:00 AM 11.74 53.132 0.061 6.31 7.81 11.12
11/12/2020 6:30:00 AM 11.69 53.042 0.061 6.22 7.54 11.13
11/12/2020 6:45:00 AM 11.64 52.952 0.061 6.28 7.24 11.14
11/12/2020 7:00:00 AM 11.59 52.862 0.061 6.28 8.87 11.16
11/12/2020 7:15:00 AM 11.54 52.772 0.06 6.28 7.5 11.18
11/12/2020 7:30:00 AM 11.49 52.682 0.06 6.27 7.39 11.2
11/12/2020 7:45:00 AM 11.44 52.592 0.06 6.18 7.14 11.22
11/12/2020 8:00:00 AM 11.39 52.502 0.06 6.22 7.11 11.25
11/12/2020 8:15:00 AM 11.35 52.43 0.06 6.29 8.6 11.28
11/12/2020 8:30:00 AM 11.3 52.34 0.06 6.28 6.77 11.31
11/12/2020 8:45:00 AM 11.25 52.25 0.06 6.24 6.28 11.33
11/12/2020 9:00:00 AM 11.21 52.178 0.06 6.16 8.33 11.35
11/12/2020 9:15:00 AM 11.17 52.106 0.06 6.15 8.19 11.38
11/12/2020 9:30:00 AM 11.12 52.016 0.06 6.19 7.51 11.41
11/12/2020 9:45:00 AM 11.06 51.908 0.06 6.19 5.96 11.44
11/12/2020 10:00:00 AM 11.02 51.836 0.06 6.13 5.63 11.46
11/12/2020 10:15:00 AM 10.98 51.764 0.059 6.11 7.88 11.49
11/12/2020 10:30:00 AM 10.94 51.692 0.059 6.14 6.09 11.53
11/12/2020 10:45:00 AM 10.91 51.638 0.059 6.21 7.6 11.53
11/12/2020 11:00:00 AM 10.87 51.566 0.059 6.23 7.75 11.54
11/12/2020 11:15:00 AM 10.84 51.512 0.059 6.27 6.43 11.55
11/12/2020 11:30:00 AM 10.81 51.458 0.059 6.24 8.64 11.57
11/12/2020 11:45:00 AM 10.77 51.386 0.059 6.19 6.94 11.57
11/12/2020 12:00:00 PM 10.74 51.332 0.059 6.22 6.12 11.58
11/12/2020 12:15:00 PM 10.7 51.26 0.059 6.23 7.55 11.59
11/12/2020 12:30:00 PM 10.66 51.188 0.059 6.18 5.86 11.61
11/12/2020 12:45:00 PM 10.64 51.152 0.059 6.19 7.03 11.62
11/12/2020 1:00:00 PM 10.61 51.098 0.059 6.2 7.26 11.64
11/12/2020 1:15:00 PM 10.57 51.026 0.059 6.23 4.65 11.65
11/12/2020 1:30:00 PM 10.52 50.936 0.059 6.31 7.02 11.66
11/12/2020 1:45:00 PM 10.49 50.882 0.059 6.19 7.03 11.66
11/12/2020 2:00:00 PM 10.45 50.81 0.059 6.22 4.95 11.66
11/12/2020 2:15:00 PM 10.4 50.72 0.059 6.23 5.85 11.67
11/12/2020 2:30:00 PM 10.35 50.63 0.059 6.2 5.56 11.68
11/12/2020 2:45:00 PM 10.3 50.54 0.059 6.19 5.54 11.69
11/12/2020 3:00:00 PM 10.24 50.432 0.059 6.2 5.19 11.69
11/12/2020 3:15:00 PM 10.19 50.342 0.059 6.21 5.1 11.68
11/12/2020 3:30:00 PM 10.13 50.234 0.059 6.24 6.03 11.69
11/12/2020 3:45:00 PM 10.07 50.126 0.059 6.17 5.49 11.7
11/12/2020 4:00:00 PM 10.01 50.018 0.059 6.22 4.4 11.71
11/12/2020 4:15:00 PM 9.95 49.91 0.059 6.23 4.51 11.7
11/12/2020 4:30:00 PM 9.89 49.802 0.059 6.26 4.82 11.7
11/12/2020 4:45:00 PM 9.83 49.694 0.059 6.28 4.39 11.71
11/12/2020 5:00:00 PM 9.76 49.568 0.059 6.33 7.14 11.71
11/12/2020 5:15:00 PM 9.7 49.46 0.059 6.14 4.99 11.71
11/12/2020 5:30:00 PM 9.64 49.352 0.059 6.07 7.25 11.73
11/12/2020 5:45:00 PM 9.57 49.226 0.059 6.29 7.03 11.74
11/12/2020 6:00:00 PM 9.5 49.1 0.059 6.16 7.15 11.75
11/12/2020 6:15:00 PM 9.43 48.974 0.059 6.09 4.29 11.77
11/12/2020 6:30:00 PM 9.36 48.848 0.059 6.28 4.25 11.8
11/12/2020 6:45:00 PM 9.29 48.722 0.059 6.31 4.51 11.82
11/12/2020 7:00:00 PM 9.21 48.578 0.059 6.34 4.88 11.84
11/12/2020 7:15:00 PM 9.14 48.452 0.059 6.06 4.38 11.87
11/12/2020 7:30:00 PM 9.07 48.326 0.059 6.11 4.44 11.9
11/12/2020 7:45:00 PM 8.99 48.182 0.059 6.17 5.33 11.92
11/12/2020 8:00:00 PM 8.92 48.056 0.059 6.27 3.96 11.95
11/12/2020 8:15:00 PM 8.84 47.912 0.059 6.05 3.97 11.97
11/12/2020 8:30:00 PM 8.77 47.786 0.059 6.07 3.95 11.99
11/12/2020 8:45:00 PM 8.7 47.66 0.059 6.05 3.84 12
11/12/2020 9:00:00 PM 8.63 47.534 0.059 6.1 5.56 12.04
11/12/2020 9:15:00 PM 8.56 47.408 0.059 6.12 6.12 12.06
11/12/2020 9:30:00 PM 8.5 47.3 0.059 6.11 7.04 12.08
11/12/2020 9:45:00 PM 8.44 47.192 0.059 6.23 7.4 12.1
11/12/2020 10:00:00 PM 8.38 47.084 0.059 6.25 7.57 12.12
11/12/2020 10:15:00 PM 8.33 46.994 0.059 6.11 7.61 12.13
11/12/2020 10:30:00 PM 8.27 46.886 0.059 6.08 8.15 12.14
11/12/2020 10:45:00 PM 8.21 46.778 0.06 6.24 3.76 12.15
11/12/2020 11:00:00 PM 8.15 46.67 0.06 6.21 4.21 12.17
11/12/2020 11:15:00 PM 8.09 46.562 0.06 6.28 3.84 12.19
11/12/2020 11:30:00 PM 8.02 46.436 0.06 6.13 3.87 12.21
11/12/2020 11:45:00 PM 7.96 46.328 0.06 6.21 3.68 12.24
11/13/2020 12:00:00 AM 7.9 46.22 0.06 6.31 3.98 12.26
11/13/2020 12:15:00 AM 7.84 46.112 0.06 6.31 3.64 12.28
11/13/2020 12:30:00 AM 7.78 46.004 0.06 6.3 3.7 12.29
11/13/2020 12:45:00 AM 7.72 45.896 0.06 6.28 3.59 12.32
11/13/2020 1:00:00 AM 7.66 45.788 0.06 6.24 3.68 12.33
11/13/2020 1:15:00 AM 7.61 45.698 0.06 6.29 3.5 12.34
11/13/2020 1:30:00 AM 7.56 45.608 0.06 6.11 3.51 12.35
11/13/2020 1:45:00 AM 7.5 45.5 0.06 6.09 3.5 12.37
11/13/2020 2:00:00 AM 7.45 45.41 0.06 6.09 3.77 12.38
11/13/2020 2:15:00 AM 7.42 45.356 0.06 6.2 3.43 12.4
11/13/2020 2:30:00 AM 7.38 45.284 0.06 6.13 3.79 12.42
11/13/2020 2:45:00 AM 7.36 45.248 0.06 6.2 3.56 12.44
11/13/2020 3:00:00 AM 7.33 45.194 0.06 6.19 3.57 12.45
11/13/2020 3:15:00 AM 7.31 45.158 0.045 6.22 3.56 12.46
11/13/2020 3:30:00 AM 7.29 45.122 0.06 6.25 3.61 12.47
11/13/2020 3:45:00 AM 7.28 45.104 0.06 6.24 8.9 12.46
11/13/2020 4:00:00 AM 7.26 45.068 0.06 6.17 5.5 12.47
11/13/2020 4:15:00 AM 7.25 45.05 0.06 6.12 5.41 12.48
11/13/2020 4:30:00 AM 7.23 45.014 0.06 6.09 5.36 12.48
11/13/2020 4:45:00 AM 7.22 44.996 0.06 6.04 6.16 12.49
11/13/2020 5:00:00 AM 7.2 44.96 0.06 6.15 5.51 12.49
11/13/2020 5:15:00 AM 7.19 44.942 0.06 6.27 5.85 12.5
11/13/2020 5:30:00 AM 7.17 44.906 0.06 6.16 5.08 12.51
11/13/2020 5:45:00 AM 7.16 44.888 0.06 6.14 4.89 12.51
11/13/2020 6:00:00 AM 7.15 44.87 0.06 6.14 4.77 12.51
11/13/2020 6:15:00 AM 7.14 44.852 0.06 6.15 5.18 12.51
11/13/2020 6:30:00 AM 7.13 44.834 0.06 6.1 4.97 12.52
11/13/2020 6:45:00 AM 7.12 44.816 0.06 6.13 5.18 12.52
11/13/2020 7:00:00 AM 7.11 44.798 0.06 6.12 5.12 12.52
11/13/2020 7:15:00 AM 7.11 44.798 0.06 6.13 4.98 12.53
11/13/2020 7:30:00 AM 7.11 44.798 0.06 6.14 5.22 12.54
11/13/2020 7:45:00 AM 7.11 44.798 0.06 6.09 6.81 12.55
11/13/2020 8:00:00 AM 7.11 44.798 0.06 6.17 3.35 12.57
11/13/2020 8:15:00 AM 7.11 44.798 0.06 6.16 3.17 12.57
11/13/2020 8:30:00 AM 7.11 44.798 0.06 6.19 3.12 12.57
11/13/2020 8:45:00 AM 7.12 44.816 0.06 6.14 3.29 12.6
11/13/2020 9:00:00 AM 7.14 44.852 0.06 6.23 3.15 12.62
11/13/2020 9:15:00 AM 7.16 44.888 0.06 6.32 3.34 12.65
11/13/2020 9:30:00 AM 7.21 44.978 0.06 6.22 3.34 12.67
11/13/2020 9:45:00 AM 7.24 45.032 0.06 6.26 3.23